Provisional Data: Sterling Run near Sterling Run, PA


Please select a monitoring station.
Please select start date.
Please select start date.

Toggle Unit: C/F Toggle Unit: C/F
Sample Time Temperature (C) Temperature (F) Specific Conductivity (mS/cm) pH   Turbidity (NTU+) DO (mg/L)
4/13/2022 12:00:00 AM 9.03 48.254 0.059 6.54 2.88 11.25
4/13/2022 12:15:00 AM 8.96 48.128 0.059 6.55 2.87 11.27
4/13/2022 12:30:00 AM 8.88 47.984 0.059 6.54 2.88 11.28
4/13/2022 12:45:00 AM 8.81 47.858 0.059 6.55 2.88 11.31
4/13/2022 1:00:00 AM 8.74 47.732 0.059 6.55 2.9 11.33
4/13/2022 1:15:00 AM 8.66 47.588 0.059 6.54 2.85 11.35
4/13/2022 1:30:00 AM 8.59 47.462 0.059 6.53 2.78 11.37
4/13/2022 1:45:00 AM 8.53 47.354 0.059 6.54 2.83 11.39
4/13/2022 2:00:00 AM 8.46 47.228 0.059 6.54 2.86 11.41
4/13/2022 2:15:00 AM 8.39 47.102 0.059 6.55 2.79 11.43
4/13/2022 2:30:00 AM 8.32 46.976 0.059 6.54 2.78 11.44
4/13/2022 2:45:00 AM 8.26 46.868 0.059 6.54 2.87 11.46
4/13/2022 3:00:00 AM 8.2 46.76 0.059 6.54 2.83 11.48
4/13/2022 3:15:00 AM 8.14 46.652 0.059 6.55 2.8 11.5
4/13/2022 3:30:00 AM 8.08 46.544 0.059 6.54 2.74 11.51
4/13/2022 3:45:00 AM 8.01 46.418 0.059 6.54 2.76 11.53
4/13/2022 4:00:00 AM 7.96 46.328 0.059 6.55 2.76 11.55
4/13/2022 4:15:00 AM 7.92 46.256 0.059 6.55 2.77 11.57
4/13/2022 4:30:00 AM 7.88 46.184 0.059 6.54 2.79 11.58
4/13/2022 4:45:00 AM 7.85 46.13 0.059 6.55 2.73 11.59
4/13/2022 5:00:00 AM 7.82 46.076 0.059 6.55 2.76 11.6
4/13/2022 5:15:00 AM 7.79 46.022 0.059 6.54 2.71 11.61
4/13/2022 5:30:00 AM 7.77 45.986 0.059 6.55 2.72 11.62
4/13/2022 5:45:00 AM 7.75 45.95 0.059 6.55 2.68 11.62
4/13/2022 6:00:00 AM 7.73 45.914 0.059 6.55 2.69 11.63
4/13/2022 6:15:00 AM 7.7 45.86 0.059 6.56 2.68 11.64
4/13/2022 6:30:00 AM 7.68 45.824 0.059 6.55 2.63 11.64
4/13/2022 6:45:00 AM 7.65 45.77 0.059 6.55 2.65 11.65
4/13/2022 7:00:00 AM 7.63 45.734 0.059 6.56 2.6 11.66
4/13/2022 7:15:00 AM 7.61 45.698 0.059 6.56 2.67 11.67
4/13/2022 7:30:00 AM 7.59 45.662 0.059 6.56 2.6 11.69
4/13/2022 7:45:00 AM 7.58 45.644 0.059 6.56 2.86 11.7
4/13/2022 8:00:00 AM 7.61 45.698 0.059 6.57 2.9 11.72
4/13/2022 8:15:00 AM 7.62 45.716 0.059 6.58 2.68 11.73
4/13/2022 8:30:00 AM 7.66 45.788 0.059 6.59 2.54 11.74
4/13/2022 8:45:00 AM 7.69 45.842 0.059 6.58 2.54 11.74
4/13/2022 9:00:00 AM 7.72 45.896 0.059 6.59 2.5 11.73
4/13/2022 9:15:00 AM 7.76 45.968 0.059 6.59 2.47 11.72
4/13/2022 9:30:00 AM 7.8 46.04 0.059 6.59 2.44 11.71
4/13/2022 9:45:00 AM 7.85 46.13 0.059 6.59 2.41 11.7
4/13/2022 10:00:00 AM 7.92 46.256 0.059 6.59 2.45 11.69
4/13/2022 10:15:00 AM 8.02 46.436 0.059 6.61 2.44 11.68
4/13/2022 10:30:00 AM 8.15 46.67 0.058 6.6 2.44 11.65
4/13/2022 10:45:00 AM 8.35 47.03 0.058 6.61 2.42 11.62
4/13/2022 11:00:00 AM 8.58 47.444 0.058 6.61 2.41 11.57
4/13/2022 11:15:00 AM 8.73 47.714 0.058 6.62 2.44 11.52
4/13/2022 11:30:00 AM 8.91 48.038 0.058 6.62 2.48 11.46
4/13/2022 11:45:00 AM 9.12 48.416 0.058 6.63 2.41 11.42
4/13/2022 12:00:00 PM 9.33 48.794 0.058 6.63 2.43 11.36
4/13/2022 12:15:00 PM 9.54 49.172 0.058 6.64 2.41 11.29
4/13/2022 12:30:00 PM 9.76 49.568 0.058 6.64 2.4 11.24
4/13/2022 12:45:00 PM 9.89 49.802 0.058 6.65 2.39 11.2
4/13/2022 1:00:00 PM 9.98 49.964 0.058 6.64 2.39 11.15
4/13/2022 1:15:00 PM 10.15 50.27 0.058 6.65 2.41 11.09
4/13/2022 1:30:00 PM 10.3 50.54 0.058 6.65 2.5 11.06
4/13/2022 1:45:00 PM 10.43 50.774 0.058 6.65 2.44 11.02
4/13/2022 2:00:00 PM 10.53 50.954 0.058 6.65 2.46 10.98
4/13/2022 2:15:00 PM 10.61 51.098 0.058 6.65 2.46 10.95
4/13/2022 2:30:00 PM 10.71 51.278 0.058 6.64 2.51 10.93
4/13/2022 2:45:00 PM 10.79 51.422 0.058 6.64 2.52 10.89
4/13/2022 3:00:00 PM 10.87 51.566 0.058 6.64 2.55 10.87
4/13/2022 3:15:00 PM 10.92 51.656 0.058 6.65 2.52 10.85
4/13/2022 3:30:00 PM 10.95 51.71 0.058 6.65 2.55 10.84
4/13/2022 3:45:00 PM 11.04 51.872 0.058 6.65 2.54 10.83
4/13/2022 4:00:00 PM 11.12 52.016 0.058 6.65 2.61 10.81
4/13/2022 4:15:00 PM 11.19 52.142 0.058 6.65 2.57 10.8
4/13/2022 4:30:00 PM 11.23 52.214 0.058 6.65 2.59 10.77
4/13/2022 4:45:00 PM 11.27 52.286 0.058 6.64 2.59 10.74
4/13/2022 5:00:00 PM 11.28 52.304 0.058 6.64 2.67 10.7
4/13/2022 5:15:00 PM 11.3 52.34 0.058 6.63 2.71 10.68
4/13/2022 5:30:00 PM 11.35 52.43 0.058 6.64 2.75 10.67
4/13/2022 5:45:00 PM 11.37 52.466 0.058 6.63 2.89 10.66
4/13/2022 6:00:00 PM 11.4 52.52 0.058 6.63 3.03 10.64
4/13/2022 6:15:00 PM 11.38 52.484 0.058 6.63 2.91 10.64
4/13/2022 6:30:00 PM 11.37 52.466 0.058 6.63 2.82 10.64
4/13/2022 6:45:00 PM 11.35 52.43 0.058 6.63 2.81 10.64
4/13/2022 7:00:00 PM 11.31 52.358 0.058 6.62 2.87 10.64
4/13/2022 7:15:00 PM 11.26 52.268 0.058 6.61 2.84 10.63
4/13/2022 7:30:00 PM 11.2 52.16 0.058 6.61 2.91 10.64
4/13/2022 7:45:00 PM 11.15 52.07 0.057 6.6 3.09 10.64
4/13/2022 8:00:00 PM 11.09 51.962 0.057 6.59 3.23 10.64
4/13/2022 8:15:00 PM 11.02 51.836 0.058 6.59 3.22 10.64
4/13/2022 8:30:00 PM 10.96 51.728 0.058 6.58 3.13 10.65
4/13/2022 8:45:00 PM 10.91 51.638 0.058 6.58 3.1 10.66
4/13/2022 9:00:00 PM 10.87 51.566 0.058 6.58 3.16 10.66
4/13/2022 9:15:00 PM 10.84 51.512 0.058 6.58 3.05 10.67
4/13/2022 9:30:00 PM 10.8 51.44 0.058 6.58 2.98 10.69
4/13/2022 9:45:00 PM 10.77 51.386 0.058 6.58 2.97 10.69
4/13/2022 10:00:00 PM 10.74 51.332 0.058 6.58 2.95 10.7
4/13/2022 10:15:00 PM 10.69 51.242 0.058 6.57 3.07 10.71
4/13/2022 10:30:00 PM 10.64 51.152 0.058 6.57 3.06 10.72
4/13/2022 10:45:00 PM 10.59 51.062 0.058 6.57 3.01 10.72
4/13/2022 11:00:00 PM 10.54 50.972 0.058 6.56 2.95 10.73
4/13/2022 11:15:00 PM 10.5 50.9 0.058 6.55 2.94 10.74
4/13/2022 11:30:00 PM 10.47 50.846 0.058 6.55 2.98 10.75
4/13/2022 11:45:00 PM 10.44 50.792 0.058 6.56 2.92 10.76
4/14/2022 12:00:00 AM 10.4 50.72 0.058 6.55 2.93 10.77
4/14/2022 12:15:00 AM 10.36 50.648 0.058 6.55 2.93 10.77
4/14/2022 12:30:00 AM 10.31 50.558 0.058 6.54 2.89 10.78
4/14/2022 12:45:00 AM 10.27 50.486 0.058 6.55 2.87 10.79
4/14/2022 1:00:00 AM 10.23 50.414 0.058 6.55 2.88 10.8
4/14/2022 1:15:00 AM 10.19 50.342 0.058 6.55 2.91 10.82
4/14/2022 1:30:00 AM 10.16 50.288 0.058 6.54 58.39 10.83
4/14/2022 1:45:00 AM 10.12 50.216 0.058 6.55 10.77 10.84
4/14/2022 2:00:00 AM 10.07 50.126 0.058 6.55 4.02 10.84
4/14/2022 2:15:00 AM 10.03 50.054 0.058 6.54 3.12 10.86
4/14/2022 2:30:00 AM 9.98 49.964 0.058 6.55 2.98 10.87
4/14/2022 2:45:00 AM 9.94 49.892 0.058 6.54 2.93 10.88
4/14/2022 3:00:00 AM 9.89 49.802 0.058 6.55 2.92 10.89
4/14/2022 3:15:00 AM 9.85 49.73 0.058 6.54 2.9 10.9
4/14/2022 3:30:00 AM 9.8 49.64 0.058 6.54 2.85 10.91
4/14/2022 3:45:00 AM 9.75 49.55 0.058 6.54 2.92 10.92
4/14/2022 4:00:00 AM 9.7 49.46 0.058 6.54 2.9 10.93
4/14/2022 4:15:00 AM 9.66 49.388 0.058 6.54 2.92 10.94
4/14/2022 4:30:00 AM 9.61 49.298 0.058 6.54 2.97 10.95
4/14/2022 4:45:00 AM 9.57 49.226 0.058 6.55 2.87 10.96
4/14/2022 5:00:00 AM 9.52 49.136 0.058 6.56 2.95 10.97
4/14/2022 5:15:00 AM 9.47 49.046 0.058 6.55 2.83 10.99
4/14/2022 5:30:00 AM 9.43 48.974 0.058 6.56 2.87 11
4/14/2022 5:45:00 AM 9.38 48.884 0.058 6.56 2.91 11.01
4/14/2022 6:00:00 AM 9.34 48.812 0.058 6.56 2.9 11.02
4/14/2022 6:15:00 AM 9.29 48.722 0.058 6.56 2.86 11.03
4/14/2022 6:30:00 AM 9.25 48.65 0.058 6.56 2.9 11.05
4/14/2022 6:45:00 AM 9.2 48.56 0.058 6.56 2.78 11.06
4/14/2022 7:00:00 AM 9.16 48.488 0.058 6.56 2.79 11.09
4/14/2022 7:15:00 AM 9.14 48.452 0.058 6.57 2.78 11.12
4/14/2022 7:30:00 AM 9.12 48.416 0.058 6.58 2.79 11.14
4/14/2022 7:45:00 AM 9.12 48.416 0.057 6.57 2.77 11.16
4/14/2022 8:00:00 AM 9.14 48.452 0.057 6.59 2.76 11.18
4/14/2022 8:15:00 AM 9.16 48.488 0.057 6.58 2.68 11.19
4/14/2022 8:30:00 AM 9.19 48.542 0.057 6.59 2.7 11.19
4/14/2022 8:45:00 AM 9.27 48.686 0.057 6.61 2.72 11.19
4/14/2022 9:00:00 AM 9.4 48.92 0.057 6.63 2.71 11.19
4/14/2022 9:15:00 AM 9.54 49.172 0.057 6.64 2.69 11.16
4/14/2022 9:30:00 AM 9.73 49.514 0.057 6.66 2.64 11.14
4/14/2022 9:45:00 AM 9.89 49.802 0.057 6.66 2.62 11.1
4/14/2022 10:00:00 AM 9.97 49.946 0.057 6.67 2.67 11.06
4/14/2022 10:15:00 AM 10.1 50.18 0.057 6.66 2.66 11.03
4/14/2022 10:30:00 AM 10.26 50.468 0.057 6.67 2.66 11
4/14/2022 10:45:00 AM 10.38 50.684 0.057 6.67 2.66 10.96
4/14/2022 11:00:00 AM 10.44 50.792 0.057 6.66 2.66 10.92
4/14/2022 11:15:00 AM 10.49 50.882 0.057 6.67 2.67 10.91
4/14/2022 11:30:00 AM 10.56 51.008 0.057 6.67 2.7 10.89
4/14/2022 11:45:00 AM 10.62 51.116 0.057 6.66 2.76 10.86
4/14/2022 12:00:00 PM 10.61 51.098 0.057 6.66 2.77 10.86
4/14/2022 12:15:00 PM 10.61 51.098 0.057 6.66 2.78 10.87
4/14/2022 12:30:00 PM 10.62 51.116 0.057 6.66 2.75 10.88
4/14/2022 12:45:00 PM 10.62 51.116 0.057 6.66 2.76 10.88
4/14/2022 1:00:00 PM 10.64 51.152 0.057 6.67 2.98 10.9
4/14/2022 1:15:00 PM 10.63 51.134 0.057 6.67 2.81 10.9
4/14/2022 1:30:00 PM 10.6 51.08 0.057 6.66 2.74 10.9
4/14/2022 1:45:00 PM 10.58 51.044 0.057 6.66 2.73 10.91
4/14/2022 2:00:00 PM 10.6 51.08 0.057 6.67 2.76 10.92
4/14/2022 2:15:00 PM 10.61 51.098 0.057 6.66 2.77 10.93
4/14/2022 2:30:00 PM 10.64 51.152 0.056 6.67 2.98 10.94
4/14/2022 2:45:00 PM 10.67 51.206 0.057 6.66 2.89 10.94
4/14/2022 3:00:00 PM 10.73 51.314 0.057 6.66 3.42 10.93
4/14/2022 3:15:00 PM 10.75 51.35 0.057 6.67 2.87 10.92
4/14/2022 3:30:00 PM 10.78 51.404 0.057 6.67 3.16 10.91
4/14/2022 3:45:00 PM 10.86 51.548 0.057 6.66 2.82 10.9
4/14/2022 4:00:00 PM 10.88 51.584 0.057 6.66 2.79 10.89
4/14/2022 4:15:00 PM 10.85 51.53 0.057 6.66 2.77 10.87
4/14/2022 4:30:00 PM 10.85 51.53 0.057 6.65 2.74 10.84
4/14/2022 4:45:00 PM 10.84 51.512 0.057 6.65 2.73 10.84
4/14/2022 5:00:00 PM 10.8 51.44 0.057 6.65 2.73 10.83
4/14/2022 5:15:00 PM 10.8 51.44 0.057 6.66 2.69 10.82
4/14/2022 5:30:00 PM 10.76 51.368 0.057 6.65 2.76 10.82
4/14/2022 5:45:00 PM 10.71 51.278 0.057 6.65 2.75 10.82
4/14/2022 6:00:00 PM 10.66 51.188 0.057 6.64 2.71 10.83
4/14/2022 6:15:00 PM 10.58 51.044 0.057 6.65 2.66 10.84
4/14/2022 6:30:00 PM 10.48 50.864 0.057 6.64 2.79 10.86
4/14/2022 6:45:00 PM 10.39 50.702 0.057 6.64 2.79 10.88
4/14/2022 7:00:00 PM 10.28 50.504 0.057 6.63 2.69 10.9
4/14/2022 7:15:00 PM 10.17 50.306 0.057 6.63 3.1 10.92
4/14/2022 7:30:00 PM 10.05 50.09 0.057 6.63 2.88 10.95
4/14/2022 7:45:00 PM 9.94 49.892 0.057 6.61 2.71 10.97
4/14/2022 8:00:00 PM 9.82 49.676 0.057 6.61 2.73 10.99
4/14/2022 8:15:00 PM 9.7 49.46 0.057 6.61 2.74 11.02
4/14/2022 8:30:00 PM 9.58 49.244 0.057 6.61 2.76 11.04
4/14/2022 8:45:00 PM 9.47 49.046 0.057 6.6 2.85 11.07
4/14/2022 9:00:00 PM 9.36 48.848 0.057 6.6 2.79 11.1
4/14/2022 9:15:00 PM 9.26 48.668 0.057 6.59 2.8 11.13
4/14/2022 9:30:00 PM 9.15 48.47 0.057 6.6 2.81 11.16
4/14/2022 9:45:00 PM 9.05 48.29 0.057 6.59 2.8 11.19
4/14/2022 10:00:00 PM 8.96 48.128 0.057 6.59 2.76 11.21
4/14/2022 10:15:00 PM 8.86 47.948 0.057 6.6 2.76 11.24
4/14/2022 10:30:00 PM 8.77 47.786 0.057 6.6 2.78 11.27
4/14/2022 10:45:00 PM 8.68 47.624 0.057 6.59 2.74 11.3
4/14/2022 11:00:00 PM 8.59 47.462 0.057 6.6 2.74 11.33
4/14/2022 11:15:00 PM 8.51 47.318 0.057 6.59 2.71 11.35
4/14/2022 11:30:00 PM 8.42 47.156 0.057 6.59 2.67 11.37
4/14/2022 11:45:00 PM 8.33 46.994 0.057 6.58 2.71 11.4
4/15/2022 12:00:00 AM 8.25 46.85 0.057 6.59 2.68 11.42
4/15/2022 12:15:00 AM 8.17 46.706 0.057 6.59 2.6 11.45
4/15/2022 12:30:00 AM 8.09 46.562 0.057 6.59 2.62 11.48
4/15/2022 12:45:00 AM 8 46.4 0.057 6.59 2.6 11.5
4/15/2022 1:00:00 AM 7.92 46.256 0.057 6.59 2.63 11.53
4/15/2022 1:15:00 AM 7.84 46.112 0.057 6.58 2.6 11.55
4/15/2022 1:30:00 AM 7.75 45.95 0.057 6.59 2.59 11.58
4/15/2022 1:45:00 AM 7.68 45.824 0.057 6.59 2.62 11.6
4/15/2022 2:00:00 AM 7.59 45.662 0.057 6.59 2.57 11.63
4/15/2022 2:15:00 AM 7.52 45.536 0.057 6.59 2.54 11.65
4/15/2022 2:30:00 AM 7.44 45.392 0.057 6.59 2.59 11.67
4/15/2022 2:45:00 AM 7.36 45.248 0.057 6.59 2.61 11.7
4/15/2022 3:00:00 AM 7.29 45.122 0.057 6.58 2.58 11.73
4/15/2022 3:15:00 AM 7.22 44.996 0.057 6.58 2.59 11.75
4/15/2022 3:30:00 AM 7.15 44.87 0.057 6.59 2.52 11.77
4/15/2022 3:45:00 AM 7.08 44.744 0.057 6.58 2.55 11.79
4/15/2022 4:00:00 AM 7.01 44.618 0.057 6.58 2.54 11.81
4/15/2022 4:15:00 AM 6.93 44.474 0.057 6.58 2.58 11.84
4/15/2022 4:30:00 AM 6.87 44.366 0.057 6.59 2.53 11.86
4/15/2022 4:45:00 AM 6.8 44.24 0.057 6.6 2.51 11.88
4/15/2022 5:00:00 AM 6.73 44.114 0.057 6.61 2.46 11.9
4/15/2022 5:15:00 AM 6.67 44.006 0.057 6.6 2.45 11.93
4/15/2022 5:30:00 AM 6.61 43.898 0.057 6.6 2.47 11.95
4/15/2022 5:45:00 AM 6.54 43.772 0.057 6.6 2.4 11.97
4/15/2022 6:00:00 AM 6.47 43.646 0.057 6.59 2.43 11.99
4/15/2022 6:15:00 AM 6.41 43.538 0.057 6.58 2.42 12.01
4/15/2022 6:30:00 AM 6.35 43.43 0.057 6.58 2.46 12.04
4/15/2022 6:45:00 AM 6.28 43.304 0.057 6.58 2.47 12.06
4/15/2022 7:00:00 AM 6.23 43.214 0.057 6.59 2.35 12.09
4/15/2022 7:15:00 AM 6.17 43.106 0.057 6.58 2.35 12.12
4/15/2022 7:30:00 AM 6.12 43.016 0.057 6.59 2.41 12.15
4/15/2022 7:45:00 AM 6.1 42.98 0.057 6.59 2.31 12.18
4/15/2022 8:00:00 AM 6.09 42.962 0.057 6.59 2.32 12.2
4/15/2022 8:15:00 AM 6.09 42.962 0.057 6.6 2.33 12.22
4/15/2022 8:30:00 AM 6.1 42.98 0.057 6.61 2.26 12.23
4/15/2022 8:45:00 AM 6.13 43.034 0.057 6.61 2.29 12.24
4/15/2022 9:00:00 AM 6.19 43.142 0.057 6.62 2.27 12.24
4/15/2022 9:15:00 AM 6.3 43.34 0.057 6.61 2.27 12.22
4/15/2022 9:30:00 AM 6.43 43.574 0.057 6.62 2.23 12.19
4/15/2022 9:45:00 AM 6.59 43.862 0.057 6.62 2.26 12.16
4/15/2022 10:00:00 AM 6.77 44.186 0.057 6.63 2.18 12.12
4/15/2022 10:15:00 AM 6.96 44.528 0.057 6.64 2.19 12.08
4/15/2022 10:30:00 AM 7.16 44.888 0.057 6.64 2.18 12.03
4/15/2022 10:45:00 AM 7.37 45.266 0.057 6.64 2.16 11.97
4/15/2022 11:00:00 AM 7.58 45.644 0.057 6.65 2.17 11.92
4/15/2022 11:15:00 AM 7.81 46.058 0.057 6.65 2.2 11.85
4/15/2022 11:30:00 AM 8.05 46.49 0.057 6.65 2.16 11.79
4/15/2022 11:45:00 AM 8.29 46.922 0.057 6.66 2.18 11.72
4/15/2022 12:00:00 PM 8.53 47.354 0.057 6.66 2.14 11.66
4/15/2022 12:15:00 PM 8.8 47.84 0.057 6.66 2.18 11.58
4/15/2022 12:30:00 PM 8.94 48.092 0.057 6.66 2.14 11.51
4/15/2022 12:45:00 PM 9.11 48.398 0.057 6.67 2.13 11.46
4/15/2022 1:00:00 PM 9.35 48.83 0.057 6.67 2.18 11.41
4/15/2022 1:15:00 PM 9.52 49.136 0.057 6.67 2.18 11.34
4/15/2022 1:30:00 PM 9.73 49.514 0.057 6.68 2.17 11.28
4/15/2022 1:45:00 PM 9.78 49.604 0.057 6.67 2.24 11.23
4/15/2022 2:00:00 PM 9.87 49.766 0.057 6.67 2.23 11.2
4/15/2022 2:15:00 PM 10.1 50.18 0.057 6.67 2.27 11.15
4/15/2022 2:30:00 PM 10.17 50.306 0.057 6.68 2.24 11.12
4/15/2022 2:45:00 PM 10.34 50.612 0.057 6.67 2.33 11.07
4/15/2022 3:00:00 PM 10.46 50.828 0.057 6.67 2.37 11.03
4/15/2022 3:15:00 PM 10.51 50.918 0.057 6.68 2.38 11.02
4/15/2022 3:30:00 PM 10.48 50.864 0.057 6.68 2.38 11.01
4/15/2022 3:45:00 PM 10.47 50.846 0.057 6.68 2.37 10.99
4/15/2022 4:00:00 PM 10.54 50.972 0.057 6.68 2.36 10.97
4/15/2022 4:15:00 PM 10.54 50.972 0.057 6.67 2.39 10.96
4/15/2022 4:30:00 PM 10.54 50.972 0.057 6.67 2.4 10.96
4/15/2022 4:45:00 PM 10.53 50.954 0.057 6.68 2.46 10.95
4/15/2022 5:00:00 PM 10.47 50.846 0.057 6.67 2.43 10.95
4/15/2022 5:15:00 PM 10.43 50.774 0.057 6.67 2.47 10.95
4/15/2022 5:30:00 PM 10.42 50.756 0.057 6.67 2.41 10.94
4/15/2022 5:45:00 PM 10.41 50.738 0.057 6.67 2.59 10.93
4/15/2022 6:00:00 PM 10.37 50.666 0.057 6.67 2.53 10.93
4/15/2022 6:15:00 PM 10.33 50.594 0.057 6.67 2.42 10.92
4/15/2022 6:30:00 PM 10.27 50.486 0.057 6.66 2.45 10.92
4/15/2022 6:45:00 PM 10.2 50.36 0.057 6.65 2.5 10.93
4/15/2022 7:00:00 PM 10.13 50.234 0.057 6.66 2.51 10.95
4/15/2022 7:15:00 PM 10.04 50.072 0.057 6.65 2.45 10.96
4/15/2022 7:30:00 PM 9.94 49.892 0.057 6.65 2.44 10.98
4/15/2022 7:45:00 PM 9.85 49.73 0.057 6.64 2.47 10.98
4/15/2022 8:00:00 PM 9.75 49.55 0.057 6.64 2.51 11
4/15/2022 8:15:00 PM 9.68 49.424 0.057 6.63 2.5 11.01
4/15/2022 8:30:00 PM 9.61 49.298 0.057 6.62 2.68 11.02
4/15/2022 8:45:00 PM 9.54 49.172 0.057 6.62 2.62 11.03
4/15/2022 9:00:00 PM 9.47 49.046 0.057 6.61 2.62 11.05
4/15/2022 9:15:00 PM 9.4 48.92 0.057 6.62 2.62 11.07
4/15/2022 9:30:00 PM 9.32 48.776 0.057 6.61 2.59 11.09
4/15/2022 9:45:00 PM 9.26 48.668 0.057 6.61 2.61 11.11
4/15/2022 10:00:00 PM 9.2 48.56 0.057 6.6 2.52 11.13
4/15/2022 10:15:00 PM 9.15 48.47 0.057 6.61 2.52 11.14
4/15/2022 10:30:00 PM 9.09 48.362 0.057 6.61 2.55 11.15
4/15/2022 10:45:00 PM 9.04 48.272 0.057 6.61 2.54 11.17
4/15/2022 11:00:00 PM 9 48.2 0.057 6.61 2.79 11.18
4/15/2022 11:15:00 PM 8.96 48.128 0.057 6.62 2.6 11.18
4/15/2022 11:30:00 PM 8.92 48.056 0.057 6.61 2.51 11.2
4/15/2022 11:45:00 PM 8.89 48.002 0.057 6.6 2.52 11.21
4/16/2022 12:00:00 AM 8.85 47.93 0.057 6.61 2.48 11.22
4/16/2022 12:15:00 AM 8.82 47.876 0.057 6.61 2.55 11.22
4/16/2022 12:30:00 AM 8.78 47.804 0.057 6.61 2.46 11.24
4/16/2022 12:45:00 AM 8.75 47.75 0.057 6.61 2.49 11.24
4/16/2022 1:00:00 AM 8.71 47.678 0.057 6.6 2.45 11.25
4/16/2022 1:15:00 AM 8.68 47.624 0.057 6.61 2.49 11.27
4/16/2022 1:30:00 AM 8.64 47.552 0.057 6.61 2.48 11.28
4/16/2022 1:45:00 AM 8.61 47.498 0.057 6.6 2.47 11.3
4/16/2022 2:00:00 AM 8.58 47.444 0.057 6.61 2.54 11.3
4/16/2022 2:15:00 AM 8.56 47.408 0.058 6.61 2.46 11.31
4/16/2022 2:30:00 AM 8.54 47.372 0.058 6.61 2.45 11.32
4/16/2022 2:45:00 AM 8.53 47.354 0.058 6.61 2.42 11.32
4/16/2022 3:00:00 AM 8.51 47.318 0.058 6.61 2.47 11.32
4/16/2022 3:15:00 AM 8.5 47.3 0.058 6.61 2.39 11.33
4/16/2022 3:30:00 AM 8.48 47.264 0.058 6.6 2.36 11.33
4/16/2022 3:45:00 AM 8.47 47.246 0.058 6.6 2.51 11.34
4/16/2022 4:00:00 AM 8.45 47.21 0.058 6.61 2.42 11.34
4/16/2022 4:15:00 AM 8.44 47.192 0.058 6.61 2.39 11.35
4/16/2022 4:30:00 AM 8.42 47.156 0.058 6.61 2.35 11.36
4/16/2022 4:45:00 AM 8.41 47.138 0.058 6.61 2.37 11.36
4/16/2022 5:00:00 AM 8.4 47.12 0.058 6.6 6.35 11.36
4/16/2022 5:15:00 AM 8.39 47.102 0.058 6.61 3.08 11.36
4/16/2022 5:30:00 AM 8.37 47.066 0.058 6.6 2.5 11.37
4/16/2022 5:45:00 AM 8.36 47.048 0.058 6.6 2.4 11.37
4/16/2022 6:00:00 AM 8.35 47.03 0.058 6.6 2.44 11.37
4/16/2022 6:15:00 AM 8.34 47.012 0.058 6.61 2.43 11.38
4/16/2022 6:30:00 AM 8.33 46.994 0.058 6.6 2.41 11.38
4/16/2022 6:45:00 AM 8.33 46.994 0.058 6.61 2.34 11.38
4/16/2022 7:00:00 AM 8.31 46.958 0.058 6.6 2.31 11.39
4/16/2022 7:15:00 AM 8.31 46.958 0.058 6.61 2.34 11.4
4/16/2022 7:30:00 AM 8.31 46.958 0.058 6.62 2.3 11.42
4/16/2022 7:45:00 AM 8.32 46.976 0.058 6.63 2.32 11.43
4/16/2022 8:00:00 AM 8.33 46.994 0.058 6.62 2.29 11.44
4/16/2022 8:15:00 AM 8.35 47.03 0.058 6.63 2.3 11.44
4/16/2022 8:30:00 AM 8.36 47.048 0.058 6.64 2.29 11.44
4/16/2022 8:45:00 AM 8.37 47.066 0.058 6.64 2.29 11.44
4/16/2022 9:00:00 AM 8.39 47.102 0.058 6.64 2.29 11.43
4/16/2022 9:15:00 AM 8.41 47.138 0.058 6.65 2.19 11.44
4/16/2022 9:30:00 AM 8.45 47.21 0.058 6.65 2.2 11.45
4/16/2022 9:45:00 AM 8.5 47.3 0.058 6.66 2.27 11.45
4/16/2022 10:00:00 AM 8.54 47.372 0.058 6.67 2.24 11.44
4/16/2022 10:15:00 AM 8.56 47.408 0.058 6.66 2.21 11.42
4/16/2022 10:30:00 AM 8.59 47.462 0.058 6.66 2.22 11.42
4/16/2022 10:45:00 AM 8.63 47.534 0.058 6.67 2.24 11.41
4/16/2022 11:00:00 AM 8.68 47.624 0.058 6.66 2.27 11.41
4/16/2022 11:15:00 AM 8.71 47.678 0.058 6.67 2.36 11.38
4/16/2022 11:30:00 AM 8.73 47.714 0.057 6.67 2.82 11.37
4/16/2022 11:45:00 AM 8.74 47.732 0.057 6.66 2.68 11.37
4/16/2022 12:00:00 PM 8.75 47.75 0.057 6.65 2.63 11.37
4/16/2022 12:15:00 PM 8.76 47.768 0.057 6.66 2.65 11.36
4/16/2022 12:30:00 PM 8.75 47.75 0.057 6.65 2.67 11.36
4/16/2022 12:45:00 PM 8.76 47.768 0.057 6.66 2.82 11.38
4/16/2022 1:00:00 PM 8.75 47.75 0.057 6.67 3.06 11.37
4/16/2022 1:15:00 PM 8.74 47.732 0.057 6.66 4.71 11.38
4/16/2022 1:30:00 PM 8.75 47.75 0.057 6.67 5.81 11.4
4/16/2022 1:45:00 PM 8.76 47.768 0.056 6.68 5.54 11.4
4/16/2022 2:00:00 PM 8.75 47.75 0.056 6.68 5.01 11.4
4/16/2022 2:15:00 PM 8.74 47.732 0.057 6.68 5.12 11.4
4/16/2022 2:30:00 PM 8.73 47.714 0.057 6.68 5.24 11.41
4/16/2022 2:45:00 PM 8.72 47.696 0.057 6.68 5.1 11.4
4/16/2022 3:00:00 PM 8.69 47.642 0.057 6.68 4.85 11.39
4/16/2022 3:15:00 PM 8.68 47.624 0.057 6.67 4.52 11.4
4/16/2022 3:30:00 PM 8.66 47.588 0.057 6.67 4.43 11.41
4/16/2022 3:45:00 PM 8.67 47.606 0.057 6.66 4.3 11.42
4/16/2022 4:00:00 PM 8.65 47.57 0.057 6.67 4.41 11.42
4/16/2022 4:15:00 PM 8.65 47.57 0.058 6.67 4.51 11.43
4/16/2022 4:30:00 PM 8.63 47.534 0.058 6.66 4.46 11.42
4/16/2022 4:45:00 PM 8.6 47.48 0.058 6.66 4.39 11.41
4/16/2022 5:00:00 PM 8.59 47.462 0.058 6.66 4.25 11.42
4/16/2022 5:15:00 PM 8.57 47.426 0.058 6.66 4.11 11.42
4/16/2022 5:30:00 PM 8.57 47.426 0.059 6.65 3.97 11.43
4/16/2022 5:45:00 PM 8.57 47.426 0.059 6.66 3.76 11.44
4/16/2022 6:00:00 PM 8.56 47.408 0.059 6.65 3.71 11.44
4/16/2022 6:15:00 PM 8.56 47.408 0.059 6.65 3.63 11.44
4/16/2022 6:30:00 PM 8.57 47.426 0.059 6.66 3.46 11.43
4/16/2022 6:45:00 PM 8.56 47.408 0.059 6.65 3.36 11.43
4/16/2022 7:00:00 PM 8.52 47.336 0.059 6.64 3.38 11.42
4/16/2022 7:15:00 PM 8.48 47.264 0.059 6.63 3.23 11.41
4/16/2022 7:30:00 PM 8.42 47.156 0.059 6.63 3.15 11.41
4/16/2022 7:45:00 PM 8.36 47.048 0.06 6.62 3.5 11.41
4/16/2022 8:00:00 PM 8.3 46.94 0.06 6.61 3.14 11.41
4/16/2022 8:15:00 PM 8.24 46.832 0.06 6.61 3.08 11.42
4/16/2022 8:30:00 PM 8.18 46.724 0.06 6.6 3.01 11.43
4/16/2022 8:45:00 PM 8.12 46.616 0.06 6.6 2.95 11.45
4/16/2022 9:00:00 PM 8.04 46.472 0.06 6.6 3.07 11.47
4/16/2022 9:15:00 PM 7.98 46.364 0.06 6.6 2.94 11.49
4/16/2022 9:30:00 PM 7.92 46.256 0.06 6.6 2.87 11.51
4/16/2022 9:45:00 PM 7.87 46.166 0.06 6.6 2.79 11.52
4/16/2022 10:00:00 PM 7.81 46.058 0.06 6.59 2.74 11.54
4/16/2022 10:15:00 PM 7.75 45.95 0.06 6.6 2.74 11.56
4/16/2022 10:30:00 PM 7.67 45.806 0.06 6.59 2.7 11.58
4/16/2022 10:45:00 PM 7.6 45.68 0.06 6.6 2.72 11.6
4/16/2022 11:00:00 PM 7.53 45.554 0.06 6.59 2.64 11.62
4/16/2022 11:15:00 PM 7.46 45.428 0.06 6.59 2.65 11.65
4/16/2022 11:30:00 PM 7.39 45.302 0.06 6.59 2.63 11.67
4/16/2022 11:45:00 PM 7.32 45.176 0.06 6.59 10.98 11.69
4/17/2022 12:00:00 AM 7.25 45.05 0.06 6.59 3.68 11.71
4/17/2022 12:15:00 AM 7.18 44.924 0.06 6.59 2.67 11.73
4/17/2022 12:30:00 AM 7.1 44.78 0.059 6.59 2.49 11.75
4/17/2022 12:45:00 AM 7.02 44.636 0.059 6.59 2.49 11.78
4/17/2022 1:00:00 AM 6.94 44.492 0.059 6.58 2.48 11.8
4/17/2022 1:15:00 AM 6.87 44.366 0.059 6.59 2.48 11.83
4/17/2022 1:30:00 AM 6.79 44.222 0.059 6.59 2.45 11.85
4/17/2022 1:45:00 AM 6.72 44.096 0.059 6.58 2.42 11.88
4/17/2022 2:00:00 AM 6.64 43.952 0.059 6.58 2.38 11.91
4/17/2022 2:15:00 AM 6.56 43.808 0.059 6.58 2.41 11.93
4/17/2022 2:30:00 AM 6.49 43.682 0.059 6.58 2.36 11.95
4/17/2022 2:45:00 AM 6.43 43.574 0.059 6.58 2.36 11.97
4/17/2022 3:00:00 AM 6.36 43.448 0.059 6.58 2.32 12
4/17/2022 3:15:00 AM 6.3 43.34 0.059 6.58 2.29 12.02
4/17/2022 3:30:00 AM 6.24 43.232 0.059 6.58 2.29 12.04
4/17/2022 3:45:00 AM 6.19 43.142 0.059 6.58 2.29 12.06
4/17/2022 4:00:00 AM 6.16 43.088 0.059 6.57 2.28 12.07
4/17/2022 4:15:00 AM 6.12 43.016 0.059 6.59 2.28 12.09
4/17/2022 4:30:00 AM 6.08 42.944 0.059 6.58 2.28 12.1
4/17/2022 4:45:00 AM 6.05 42.89 0.059 6.58 2.26 12.12
4/17/2022 5:00:00 AM 6.02 42.836 0.059 6.58 2.35 12.13
4/17/2022 5:15:00 AM 6 42.8 0.059 6.59 2.31 12.14
4/17/2022 5:30:00 AM 5.98 42.764 0.059 6.58 2.24 12.15
4/17/2022 5:45:00 AM 5.95 42.71 0.059 6.58 2.28 12.16
4/17/2022 6:00:00 AM 5.93 42.674 0.059 6.59 2.25 12.17
4/17/2022 6:15:00 AM 5.91 42.638 0.059 6.59 2.23 12.18
4/17/2022 6:30:00 AM 5.89 42.602 0.059 6.58 2.21 12.19
4/17/2022 6:45:00 AM 5.87 42.566 0.059 6.59 2.17 12.2
4/17/2022 7:00:00 AM 5.85 42.53 0.059 6.59 2.21 12.21
4/17/2022 7:15:00 AM 5.84 42.512 0.059 6.59 2.17 12.23
4/17/2022 7:30:00 AM 5.83 42.494 0.059 6.59 2.14 12.25
4/17/2022 7:45:00 AM 5.84 42.512 0.059 6.61 2.2 12.27
4/17/2022 8:00:00 AM 5.85 42.53 0.059 6.61 2.18 12.29
4/17/2022 8:15:00 AM 5.83 42.494 0.059 6.62 2.21 12.3
4/17/2022 8:30:00 AM 5.85 42.53 0.059 6.62 2.18 12.31
4/17/2022 8:45:00 AM 5.86 42.548 0.059 6.62 2.19 12.33
4/17/2022 9:00:00 AM 5.89 42.602 0.059 6.63 2.17 12.34
4/17/2022 9:15:00 AM 5.92 42.656 0.059 6.63 2.1 12.34
4/17/2022 9:30:00 AM 5.95 42.71 0.059 6.62 2.08 12.34
4/17/2022 9:45:00 AM 6.03 42.854 0.059 6.63 2.09 12.34
4/17/2022 10:00:00 AM 6.15 43.07 0.059 6.63 2.13 12.33
4/17/2022 10:15:00 AM 6.24 43.232 0.059 6.63 2.12 12.3
4/17/2022 10:30:00 AM 6.39 43.502 0.059 6.63 2.09 12.27
4/17/2022 10:45:00 AM 6.38 43.484 0.059 6.64 2.1 12.26
4/17/2022 11:00:00 AM 6.34 43.412 0.059 6.63 2.08 12.24
4/17/2022 11:15:00 AM 6.37 43.466 0.059 6.63 2.07 12.24
4/17/2022 11:30:00 AM 6.58 43.844 0.059 6.63 2.06 12.22
4/17/2022 11:45:00 AM 6.53 43.754 0.059 6.64 2.09 12.22
4/17/2022 12:00:00 PM 6.59 43.862 0.059 6.63 2.03 12.19
4/17/2022 12:15:00 PM 6.7 44.06 0.059 6.64 2.03 12.19
4/17/2022 12:30:00 PM 6.79 44.222 0.059 6.64 2.02 12.18
4/17/2022 12:45:00 PM 6.95 44.51 0.059 6.64 2.03 12.14
4/17/2022 1:00:00 PM 7.11 44.798 0.059 6.64 2.04 12.08
4/17/2022 1:15:00 PM 7.21 44.978 0.059 6.65 2 12.05
4/17/2022 1:30:00 PM 7.51 45.518 0.059 6.64 2.02 12
4/17/2022 1:45:00 PM 7.63 45.734 0.059 6.64 2.05 11.95
4/17/2022 2:00:00 PM 7.74 45.932 0.059 6.65 2.09 11.9
4/17/2022 2:15:00 PM 8 46.4 0.059 6.65 2.04 11.83
4/17/2022 2:30:00 PM 8.2 46.76 0.059 6.65 2.04 11.78
4/17/2022 2:45:00 PM 8.25 46.85 0.059 6.64 2.01 11.75
4/17/2022 3:00:00 PM 8.25 46.85 0.059 6.65 2.04 11.73
4/17/2022 3:15:00 PM 8.31 46.958 0.059 6.65 2.01 11.7
4/17/2022 3:30:00 PM 8.43 47.174 0.059 6.65 2.02 11.65
4/17/2022 3:45:00 PM 8.46 47.228 0.059 6.66 2 11.64
4/17/2022 4:00:00 PM 8.45 47.21 0.059 6.65 2.08 11.64
4/17/2022 4:15:00 PM 8.47 47.246 0.059 6.66 2.06 11.63
4/17/2022 4:30:00 PM 8.44 47.192 0.059 6.65 2.07 11.63
4/17/2022 4:45:00 PM 8.37 47.066 0.059 6.65 2.07 11.64
4/17/2022 5:00:00 PM 8.26 46.868 0.059 6.65 2.09 11.65
4/17/2022 5:15:00 PM 8.15 46.67 0.059 6.65 2.15 11.66
4/17/2022 5:30:00 PM 8.06 46.508 0.059 6.63 2.13 11.68
4/17/2022 5:45:00 PM 8 46.4 0.059 6.64 2.16 11.68
4/17/2022 6:00:00 PM 7.95 46.31 0.059 6.63 2.13 11.69
4/17/2022 6:15:00 PM 7.86 46.148 0.059 6.64 2.11 11.7
4/17/2022 6:30:00 PM 7.78 46.004 0.059 6.63 2.11 11.71
4/17/2022 6:45:00 PM 7.7 45.86 0.059 6.63 2.09 11.72
4/17/2022 7:00:00 PM 7.62 45.716 0.059 6.62 2.12 11.75
4/17/2022 7:15:00 PM 7.54 45.572 0.059 6.62 2.22 11.77
4/17/2022 7:30:00 PM 7.44 45.392 0.059 6.62 2.18 11.79
4/17/2022 7:45:00 PM 7.33 45.194 0.059 6.62 2.15 11.81
4/17/2022 8:00:00 PM 7.22 44.996 0.059 6.61 2.14 11.83
4/17/2022 8:15:00 PM 7.13 44.834 0.059 6.61 2.14 11.85
4/17/2022 8:30:00 PM 7.03 44.654 0.059 6.61 2.18 11.88
4/17/2022 8:45:00 PM 6.92 44.456 0.059 6.6 2.15 11.9
4/17/2022 9:00:00 PM 6.83 44.294 0.059 6.61 2.23 11.93
4/17/2022 9:15:00 PM 6.74 44.132 0.059 6.6 2.24 11.96
4/17/2022 9:30:00 PM 6.65 43.97 0.059 6.6 2.23 11.98
4/17/2022 9:45:00 PM 6.56 43.808 0.059 6.6 2.24 12.01
4/17/2022 10:00:00 PM 6.47 43.646 0.059 6.6 2.2 12.04
4/17/2022 10:15:00 PM 6.38 43.484 0.059 6.59 2.18 12.07
4/17/2022 10:30:00 PM 6.29 43.322 0.059 6.6 2.2 12.09
4/17/2022 10:45:00 PM 6.21 43.178 0.059 6.6 2.26 12.13
4/17/2022 11:00:00 PM 6.13 43.034 0.059 6.6 2.2 12.16
4/17/2022 11:15:00 PM 6.05 42.89 0.059 6.6 2.26 12.18
4/17/2022 11:30:00 PM 5.98 42.764 0.059 6.59 2.2 12.21
4/17/2022 11:45:00 PM 5.9 42.62 0.06 6.59 2.17 12.23
4/18/2022 12:00:00 AM 5.83 42.494 0.06 6.59 2.18 12.25
4/18/2022 12:15:00 AM 5.75 42.35 0.06 6.59 2.19 12.27
4/18/2022 12:30:00 AM 5.67 42.206 0.06 6.46 2.16 12.3
4/18/2022 12:45:00 AM 5.6 42.08 0.06 6.43 2.12 12.32
4/18/2022 1:00:00 AM 5.54 41.972 0.06 6.44 2.17 12.35
4/18/2022 1:15:00 AM 5.46 41.828 0.06 6.45 2.13 12.38
4/18/2022 1:30:00 AM 5.4 41.72 0.06 6.47 2.12 12.4
4/18/2022 1:45:00 AM 5.33 41.594 0.06 6.48 2.13 12.42
4/18/2022 2:00:00 AM 5.27 41.486 0.06 6.49 2.11 12.44
4/18/2022 2:15:00 AM 5.21 41.378 0.06 6.49 2.08 12.46
4/18/2022 2:30:00 AM 5.14 41.252 0.06 6.49 2.08 12.48
4/18/2022 2:45:00 AM 5.08 41.144 0.06 6.49 2.06 12.5
4/18/2022 3:00:00 AM 5.01 41.018 0.06 6.51 2.09 12.52
4/18/2022 3:15:00 AM 4.95 40.91 0.06 6.51 2.1 12.54
4/18/2022 3:30:00 AM 4.89 40.802 0.06 6.51 2.08 12.56
4/18/2022 3:45:00 AM 4.83 40.694 0.06 6.51 2.1 12.58
4/18/2022 4:00:00 AM 4.77 40.586 0.06 6.51 2.04 12.6
4/18/2022 4:15:00 AM 4.71 40.478 0.06 6.52 2.06 12.62
4/18/2022 4:30:00 AM 4.65 40.37 0.06 6.52 2.08 12.64
4/18/2022 4:45:00 AM 4.6 40.28 0.06 6.52 2.04 12.66
4/18/2022 5:00:00 AM 4.54 40.172 0.06 6.53 2.02 12.68
4/18/2022 5:15:00 AM 4.48 40.064 0.06 6.53 2 12.69
4/18/2022 5:30:00 AM 4.42 39.956 0.06 6.54 2.01 12.71
4/18/2022 5:45:00 AM 4.37 39.866 0.06 6.54 2.06 12.73
4/18/2022 6:00:00 AM 4.31 39.758 0.06 6.53 2.08 12.75
4/18/2022 6:15:00 AM 4.26 39.668 0.06 6.53 2.02 12.77
4/18/2022 6:30:00 AM 4.21 39.578 0.06 6.53 2.03 12.78
4/18/2022 6:45:00 AM 4.16 39.488 0.06 6.54 2.02 12.81
4/18/2022 7:00:00 AM 4.12 39.416 0.06 6.55 2 12.84
4/18/2022 7:15:00 AM 4.09 39.362 0.06 6.57 2.27 12.87
4/18/2022 7:30:00 AM 4.07 39.326 0.06 6.58 2.04 12.89
4/18/2022 7:45:00 AM 4.07 39.326 0.06 6.59 2.03 12.92
4/18/2022 8:00:00 AM 4.07 39.326 0.06 6.61 2.01 12.93
4/18/2022 8:15:00 AM 4.08 39.344 0.06 6.61 1.98 12.94
4/18/2022 8:30:00 AM 4.12 39.416 0.06 6.62 2 12.95
4/18/2022 8:45:00 AM 4.19 39.542 0.06 6.63 1.96 12.94
4/18/2022 9:00:00 AM 4.24 39.632 0.06 6.64 2 12.93
4/18/2022 9:15:00 AM 4.3 39.74 0.06 6.64 1.94 12.91
4/18/2022 9:30:00 AM 4.37 39.866 0.06 6.65 1.92 12.89
4/18/2022 9:45:00 AM 4.46 40.028 0.06 6.65 1.93 12.86
4/18/2022 10:00:00 AM 4.55 40.19 0.06 6.66 1.95 12.84
4/18/2022 10:15:00 AM 4.66 40.388 0.06 6.66 1.91 12.81
4/18/2022 10:30:00 AM 4.75 40.55 0.06 6.66 1.93 12.78
4/18/2022 10:45:00 AM 4.85 40.73 0.06 6.66 1.93 12.74
4/18/2022 11:00:00 AM 4.91 40.838 0.06 6.65 1.93 12.71
4/18/2022 11:15:00 AM 4.97 40.946 0.06 6.66 1.95 12.68
4/18/2022 11:30:00 AM 5 41 0.06 6.66 1.93 12.66
4/18/2022 11:45:00 AM 5.01 41.018 0.06 6.65 1.94 12.64
4/18/2022 12:00:00 PM 5.04 41.072 0.06 6.65 1.91 12.63
4/18/2022 12:15:00 PM 5.07 41.126 0.06 6.65 1.9 12.61
4/18/2022 12:30:00 PM 5.15 41.27 0.06 6.66 1.9 12.6
4/18/2022 12:45:00 PM 5.19 41.342 0.06 6.64 1.95 12.58
4/18/2022 1:00:00 PM 5.21 41.378 0.06 6.65 1.98 12.56
4/18/2022 1:15:00 PM 5.2 41.36 0.06 6.65 1.96 12.54
4/18/2022 1:30:00 PM 5.18 41.324 0.06 6.64 2.01 12.53
4/18/2022 1:45:00 PM 5.11 41.198 0.06 6.65 2.02 12.52
4/18/2022 2:00:00 PM 5.02 41.036 0.06 6.64 2.05 12.53
4/18/2022 2:15:00 PM 4.98 40.964 0.059 6.64 2.05 12.54
4/18/2022 2:30:00 PM 4.91 40.838 0.059 6.64 2.09 12.56
4/18/2022 2:45:00 PM 4.85 40.73 0.059 6.63 2.07 12.57
4/18/2022 3:00:00 PM 4.76 40.568 0.059 6.63 2.11 12.58
4/18/2022 3:15:00 PM 4.63 40.334 0.059 6.63 2.13 12.6
4/18/2022 3:30:00 PM 4.51 40.118 0.059 6.62 2.12 12.63
4/18/2022 3:45:00 PM 4.42 39.956 0.059 6.62 2.15 12.66
4/18/2022 4:00:00 PM 4.33 39.794 0.059 6.62 2.16 12.68
4/18/2022 4:15:00 PM 4.28 39.704 0.059 6.62 2.2 12.71
4/18/2022 4:30:00 PM 4.24 39.632 0.059 6.62 2.17 12.74
4/18/2022 4:45:00 PM 4.2 39.56 0.059 6.62 2.2 12.76
4/18/2022 5:00:00 PM 4.19 39.542 0.059 6.61 2.22 12.78
4/18/2022 5:15:00 PM 4.19 39.542 0.059 6.62 2.31 12.79
4/18/2022 5:30:00 PM 4.19 39.542 0.059 6.61 2.39 12.8
4/18/2022 5:45:00 PM 4.18 39.524 0.06 6.61 2.48 12.79
4/18/2022 6:00:00 PM 4.16 39.488 0.06 6.61 2.46 12.79
4/18/2022 6:15:00 PM 4.11 39.398 0.06 6.61 2.51 12.79
4/18/2022 6:30:00 PM 4.09 39.362 0.06 6.6 2.49 12.8
4/18/2022 6:45:00 PM 4.07 39.326 0.06 6.6 2.61 12.8
4/18/2022 7:00:00 PM 4.04 39.272 0.06 6.61 2.68 12.8
4/18/2022 7:15:00 PM 4.03 39.254 0.061 6.6 2.74 12.8
4/18/2022 7:30:00 PM 4.02 39.236 0.061 6.6 2.85 12.8
4/18/2022 7:45:00 PM 4 39.2 0.061 6.61 2.93 12.8
4/18/2022 8:00:00 PM 3.99 39.182 0.061 6.6 3.07 12.8
4/18/2022 8:15:00 PM 3.97 39.146 0.061 6.6 3.15 12.8
4/18/2022 8:30:00 PM 3.95 39.11 0.061 6.59 3.05 12.8
4/18/2022 8:45:00 PM 3.95 39.11 0.061 6.6 3.03 12.8
4/18/2022 9:00:00 PM 3.94 39.092 0.061 6.6 3.05 12.8
4/18/2022 9:15:00 PM 3.94 39.092 0.061 6.6 3.05 12.8
4/18/2022 9:30:00 PM 3.95 39.11 0.061 6.6 2.96 12.8
4/18/2022 9:45:00 PM 3.94 39.092 0.061 6.6 2.95 12.8
4/18/2022 10:00:00 PM 3.94 39.092 0.061 6.6 2.84 12.8
4/18/2022 10:15:00 PM 3.95 39.11 0.061 6.6 2.86 12.79
4/18/2022 10:30:00 PM 3.95 39.11 0.061 6.6 2.83 12.79
4/18/2022 10:45:00 PM 3.96 39.128 0.061 6.6 2.71 12.78
4/18/2022 11:00:00 PM 3.96 39.128 0.061 6.6 2.69 12.78
4/18/2022 11:15:00 PM 3.97 39.146 0.061 6.6 2.64 12.77
4/18/2022 11:30:00 PM 3.98 39.164 0.062 6.6 2.61 12.77
4/18/2022 11:45:00 PM 3.99 39.182 0.062 6.6 2.57 12.76
4/19/2022 12:00:00 AM 4.01 39.218 0.062 6.61 2.55 12.75
4/19/2022 12:15:00 AM 4.03 39.254 0.062 6.6 2.47 12.75
4/19/2022 12:30:00 AM 4.04 39.272 0.062 6.6 2.52 12.74
4/19/2022 12:45:00 AM 4.06 39.308 0.062 6.6 2.49 12.73
4/19/2022 1:00:00 AM 4.07 39.326 0.062 6.61 2.43 12.73
4/19/2022 1:15:00 AM 4.09 39.362 0.062 6.61 2.37 12.72
4/19/2022 1:30:00 AM 4.1 39.38 0.062 6.6 2.41 12.71
4/19/2022 1:45:00 AM 4.12 39.416 0.062 6.61 2.4 12.7
4/19/2022 2:00:00 AM 4.13 39.434 0.062 6.61 2.37 12.69
4/19/2022 2:15:00 AM 4.14 39.452 0.062 6.61 2.36 12.69
4/19/2022 2:30:00 AM 4.16 39.488 0.062 6.61 2.32 12.68
4/19/2022 2:45:00 AM 4.17 39.506 0.062 6.61 2.3 12.67
4/19/2022 3:00:00 AM 4.18 39.524 0.062 6.61 2.25 12.67
4/19/2022 3:15:00 AM 4.18 39.524 0.062 6.61 2.25 12.66
4/19/2022 3:30:00 AM 4.19 39.542 0.061 6.61 2.22 12.66
4/19/2022 3:45:00 AM 4.2 39.56 0.061 6.61 2.2 12.65
4/19/2022 4:00:00 AM 4.2 39.56 0.061 6.62 2.18 12.65
4/19/2022 4:15:00 AM 4.19 39.542 0.061 6.61 2.2 12.64
4/19/2022 4:30:00 AM 4.19 39.542 0.061 6.61 2.18 12.64
4/19/2022 4:45:00 AM 4.2 39.56 0.061 6.61 2.18 12.64
4/19/2022 5:00:00 AM 4.2 39.56 0.061 6.61 2.13 12.64
4/19/2022 5:15:00 AM 4.2 39.56 0.061 6.61 2.16 12.64
4/19/2022 5:30:00 AM 4.21 39.578 0.061 6.61 2.15 12.63
4/19/2022 5:45:00 AM 4.21 39.578 0.061 6.62 2.13 12.63
4/19/2022 6:00:00 AM 4.22 39.596 0.061 6.61 2.14 12.63
4/19/2022 6:15:00 AM 4.22 39.596 0.061 6.61 2.1 12.62
4/19/2022 6:30:00 AM 4.22 39.596 0.061 6.62 2.15 12.62
4/19/2022 6:45:00 AM 4.23 39.614 0.061 6.62 2.1 12.63
4/19/2022 7:00:00 AM 4.24 39.632 0.061 6.62 2.13 12.63
4/19/2022 7:15:00 AM 4.25 39.65 0.061 6.62 2.11 12.64
4/19/2022 7:30:00 AM 4.24 39.632 0.061 6.63 2.1 12.65
4/19/2022 7:45:00 AM 4.27 39.686 0.061 6.63 2.07 12.67
4/19/2022 8:00:00 AM 4.3 39.74 0.061 6.64 2.08 12.68
4/19/2022 8:15:00 AM 4.34 39.812 0.061 6.63 2.11 12.68
4/19/2022 8:30:00 AM 4.36 39.848 0.061 6.64 2.03 12.67
4/19/2022 8:45:00 AM 4.38 39.884 0.061 6.64 2.04 12.67
4/19/2022 9:00:00 AM 4.45 40.01 0.061 6.65 2.07 12.67
4/19/2022 9:15:00 AM 4.53 40.154 0.061 6.65 2.08 12.66
4/19/2022 9:30:00 AM 4.61 40.298 0.061 6.65 2.05 12.64
4/19/2022 9:45:00 AM 4.66 40.388 0.061 6.66 2.03 12.63
4/19/2022 10:00:00 AM 4.72 40.496 0.061 6.66 2.03 12.61
4/19/2022 10:15:00 AM 4.75 40.55 0.061 6.66 2.07 12.59
4/19/2022 10:30:00 AM 4.74 40.532 0.061 6.65 2.02 12.57
4/19/2022 10:45:00 AM 4.73 40.514 0.061 6.64 2.04 12.56
4/19/2022 11:00:00 AM 4.7 40.46 0.061 6.65 2.09 12.55
4/19/2022 11:15:00 AM 4.8 40.64 0.06 6.65 2.09 12.57
4/19/2022 11:30:00 AM 4.87 40.766 0.06 6.65 2.11 12.57
4/19/2022 11:45:00 AM 5.01 41.018 0.06 6.65 2.12 12.55
4/19/2022 12:00:00 PM 5.05 41.09 0.06 6.65 2.17 12.53
4/19/2022 12:15:00 PM 5.16 41.288 0.06 6.66 2.17 12.51
4/19/2022 12:30:00 PM 5.32 41.576 0.06 6.66 2.17 12.48
4/19/2022 12:45:00 PM 5.36 41.648 0.06 6.67 2.24 12.45
4/19/2022 1:00:00 PM 5.49 41.882 0.06 6.67 2.25 12.4
4/19/2022 1:15:00 PM 5.63 42.134 0.06 6.67 2.28 12.37
4/19/2022 1:30:00 PM 5.78 42.404 0.06 6.67 2.29 12.34
4/19/2022 1:45:00 PM 6 42.8 0.06 6.67 2.28 12.3
4/19/2022 2:00:00 PM 6.08 42.944 0.06 6.67 2.31 12.25
4/19/2022 2:15:00 PM 6.05 42.89 0.06 6.67 2.34 12.22
4/19/2022 2:30:00 PM 6.16 43.088 0.06 6.67 2.38 12.2
4/19/2022 2:45:00 PM 6.34 43.412 0.06 6.68 2.4 12.17
4/19/2022 3:00:00 PM 6.34 43.412 0.06 6.68 2.43 12.14
4/19/2022 3:15:00 PM 6.43 43.574 0.06 6.68 2.44 12.1
4/19/2022 3:30:00 PM 6.5 43.7 0.06 6.68 2.41 12.09
4/19/2022 3:45:00 PM 6.52 43.736 0.06 6.68 2.47 12.08
4/19/2022 4:00:00 PM 6.49 43.682 0.06 6.68 2.51 12.06
4/19/2022 4:15:00 PM 6.52 43.736 0.06 6.68 2.53 12.04
4/19/2022 4:30:00 PM 6.48 43.664 0.06 6.68 2.57 12.04
4/19/2022 4:45:00 PM 6.42 43.556 0.06 6.67 2.58 12.06
4/19/2022 5:00:00 PM 6.35 43.43 0.06 6.67 2.61 12.07
4/19/2022 5:15:00 PM 6.33 43.394 0.06 6.67 2.62 12.08
4/19/2022 5:30:00 PM 6.25 43.25 0.06 6.67 2.64 12.1
4/19/2022 5:45:00 PM 6.21 43.178 0.06 6.66 2.67 12.12
4/19/2022 6:00:00 PM 6.17 43.106 0.06 6.66 2.7 12.14
4/19/2022 6:15:00 PM 6.12 43.016 0.06 6.66 2.82 12.16
4/19/2022 6:30:00 PM 6.07 42.926 0.061 6.65 2.79 12.16
4/19/2022 6:45:00 PM 6.01 42.818 0.061 6.65 2.84 12.17
4/19/2022 7:00:00 PM 5.96 42.728 0.061 6.62 2.84 12.19
4/19/2022 7:15:00 PM 5.89 42.602 0.061 6.63 2.82 12.2
4/19/2022 7:30:00 PM 5.83 42.494 0.061 6.61 2.81 12.22
4/19/2022 7:45:00 PM 5.76 42.368 0.061 6.61 10.1 12.23
4/19/2022 8:00:00 PM 5.7 42.26 0.062 6.6 967.04 12.24
4/19/2022 8:15:00 PM 5.63 42.134 0.062 6.59 138.41 12.25
4/19/2022 8:30:00 PM 5.56 42.008 0.062 6.58 21.6 12.27
4/19/2022 8:45:00 PM 5.51 41.918 0.062 6.59 5.38 12.28
4/19/2022 9:00:00 PM 5.46 41.828 0.062 6.58 3.07 12.3
4/19/2022 9:15:00 PM 5.39 41.702 0.062 6.57 2.79 12.32
4/19/2022 9:30:00 PM 5.34 41.612 0.062 6.58 2.75 12.34
4/19/2022 9:45:00 PM 5.29 41.522 0.062 6.58 2.69 12.36
4/19/2022 10:00:00 PM 5.25 41.45 0.063 6.57 2.69 12.38
4/19/2022 10:15:00 PM 5.21 41.378 0.063 6.58 2.68 12.4
4/19/2022 10:30:00 PM 5.16 41.288 0.063 6.57 2.7 12.41
4/19/2022 10:45:00 PM 5.13 41.234 0.063 6.57 2.65 12.43
4/19/2022 11:00:00 PM 5.1 41.18 0.063 6.57 2.59 12.45
4/19/2022 11:15:00 PM 5.07 41.126 0.063 6.57 2.57 12.46
4/19/2022 11:30:00 PM 5.04 41.072 0.063 6.56 2.56 12.47
4/19/2022 11:45:00 PM 5.02 41.036 0.063 6.57 2.52 12.48
4/20/2022 12:00:00 AM 4.99 40.982 0.063 6.56 2.47 12.49
4/20/2022 12:15:00 AM 4.97 40.946 0.063 6.56 2.67 12.51
4/20/2022 12:30:00 AM 4.95 40.91 0.063 6.56 2.45 12.52
4/20/2022 12:45:00 AM 4.92 40.856 0.063 6.56 2.45 12.53
4/20/2022 1:00:00 AM 4.91 40.838 0.063 6.55 2.32 12.54
4/20/2022 1:15:00 AM 4.89 40.802 0.061 6.57 2.34 12.55
4/20/2022 1:30:00 AM 4.87 40.766 0.063 6.56 2.3 12.56
4/20/2022 1:45:00 AM 4.86 40.748 0.063 6.55 2.27 12.56
4/20/2022 2:00:00 AM 4.85 40.73 0.063 6.57 2.27 12.58
4/20/2022 2:15:00 AM 4.84 40.712 0.063 6.56 2.2 12.58
4/20/2022 2:30:00 AM 4.82 40.676 0.063 6.56 2.22 12.58
4/20/2022 2:45:00 AM 4.79 40.622 0.063 6.56 2.23 12.59
4/20/2022 3:00:00 AM 4.77 40.586 0.063 6.55 2.24 12.6
4/20/2022 3:15:00 AM 4.74 40.532 0.063 6.56 2.24 12.61
4/20/2022 3:30:00 AM 4.71 40.478 0.063 6.56 2.25 12.62
4/20/2022 3:45:00 AM 4.67 40.406 0.063 6.55 2.2 12.63
4/20/2022 4:00:00 AM 4.63 40.334 0.062 6.56 2.21 12.65
4/20/2022 4:15:00 AM 4.59 40.262 0.062 6.55 2.2 12.66
4/20/2022 4:30:00 AM 4.54 40.172 0.062 6.56 2.17 12.68
4/20/2022 4:45:00 AM 4.49 40.082 0.062 6.55 2.14 12.69
4/20/2022 5:00:00 AM 4.44 39.992 0.062 6.56 2.13 12.72
4/20/2022 5:15:00 AM 4.4 39.92 0.062 6.55 2.11 12.73
4/20/2022 5:30:00 AM 4.36 39.848 0.062 6.56 2.12 12.75
4/20/2022 5:45:00 AM 4.32 39.776 0.062 6.54 2.1 12.77
4/20/2022 6:00:00 AM 4.29 39.722 0.062 6.52 2.1 12.79
4/20/2022 6:15:00 AM 4.25 39.65 0.062 6.53 2.09 12.8
4/20/2022 6:30:00 AM 4.22 39.596 0.062 6.53 2.09 12.82
4/20/2022 6:45:00 AM 4.19 39.542 0.062 6.53 2.08 12.84
4/20/2022 7:00:00 AM 4.16 39.488 0.062 6.44 2.06 12.87
4/20/2022 7:15:00 AM 4.15 39.47 0.062 6.38 2.04 12.89
4/20/2022 7:30:00 AM 4.13 39.434 0.062 6.4 2.06 12.91
4/20/2022 7:45:00 AM 4.14 39.452 0.062 6.46 2.06 12.93
4/20/2022 8:00:00 AM 4.16 39.488 0.062 6.49 2.08 12.94
4/20/2022 8:15:00 AM 4.2 39.56 0.062 6.53 2.05 12.95
4/20/2022 8:30:00 AM 4.27 39.686 0.062 6.54 2.03 12.95
4/20/2022 8:45:00 AM 4.34 39.812 0.062 6.56 2.03 12.94
4/20/2022 9:00:00 AM 4.42 39.956 0.062 6.57 2.05 12.93
4/20/2022 9:15:00 AM 4.52 40.136 0.062 6.58 2.02 12.91
4/20/2022 9:30:00 AM 4.7 40.46 0.062 6.59 2 12.89
4/20/2022 9:45:00 AM 4.82 40.676 0.062 6.61 2.01 12.85
4/20/2022 10:00:00 AM 5 41 0.062 6.61 1.94 12.81
4/20/2022 10:15:00 AM 5.2 41.36 0.062 6.61 2 12.76
4/20/2022 10:30:00 AM 5.39 41.702 0.062 6.62 1.94 12.71
4/20/2022 10:45:00 AM 5.58 42.044 0.062 6.61 1.94 12.66
4/20/2022 11:00:00 AM 5.79 42.422 0.061 6.62 1.95 12.6
4/20/2022 11:15:00 AM 5.99 42.782 0.061 6.61 1.94 12.54
4/20/2022 11:30:00 AM 6.24 43.232 0.061 6.62 1.93 12.47
4/20/2022 11:45:00 AM 6.44 43.592 0.061 6.62 1.91 12.41
4/20/2022 12:00:00 PM 6.65 43.97 0.061 6.62 1.92 12.35
4/20/2022 12:15:00 PM 6.86 44.348 0.061 6.63 1.93 12.28
4/20/2022 12:30:00 PM 7.07 44.726 0.061 6.63 1.92 12.22
4/20/2022 12:45:00 PM 7.24 45.032 0.061 6.63 1.91 12.15
4/20/2022 1:00:00 PM 7.45 45.41 0.061 6.63 1.89 12.09
4/20/2022 1:15:00 PM 7.64 45.752 0.061 6.64 1.96 12.04
4/20/2022 1:30:00 PM 7.83 46.094 0.061 6.64 1.9 11.98
4/20/2022 1:45:00 PM 8.03 46.454 0.061 6.64 1.92 11.92
4/20/2022 2:00:00 PM 8.21 46.778 0.061 6.64 1.9 11.86
4/20/2022 2:15:00 PM 8.37 47.066 0.061 6.64 1.9 11.8
4/20/2022 2:30:00 PM 8.53 47.354 0.061 6.64 1.95 11.75
4/20/2022 2:45:00 PM 8.66 47.588 0.061 6.64 1.97 11.7
4/20/2022 3:00:00 PM 8.78 47.804 0.061 6.64 1.97 11.65
4/20/2022 3:15:00 PM 8.88 47.984 0.061 6.64 1.99 11.6
4/20/2022 3:30:00 PM 8.97 48.146 0.061 6.64 1.97 11.56
4/20/2022 3:45:00 PM 9.02 48.236 0.061 6.64 1.97 11.53
4/20/2022 4:00:00 PM 9.06 48.308 0.062 6.64 1.97 11.51
4/20/2022 4:15:00 PM 9.07 48.326 0.062 6.63 2.02 11.48
4/20/2022 4:30:00 PM 9.09 48.362 0.062 6.64 2.02 11.46
4/20/2022 4:45:00 PM 9.09 48.362 0.062 6.64 2.02 11.45
4/20/2022 5:00:00 PM 9.09 48.362 0.062 6.64 2.01 11.44
4/20/2022 5:15:00 PM 9.06 48.308 0.062 6.63 2 11.43
4/20/2022 5:30:00 PM 9.03 48.254 0.062 6.63 2.04 11.43
4/20/2022 5:45:00 PM 8.98 48.164 0.062 6.62 2.06 11.44
4/20/2022 6:00:00 PM 8.92 48.056 0.062 6.62 2.1 11.45
4/20/2022 6:15:00 PM 8.84 47.912 0.062 6.62 2.08 11.45
4/20/2022 6:30:00 PM 8.76 47.768 0.062 6.61 2.06 11.47
4/20/2022 6:45:00 PM 8.67 47.606 0.062 6.61 2.07 11.5
4/20/2022 7:00:00 PM 8.58 47.444 0.063 6.61 2.08 11.53
4/20/2022 7:15:00 PM 8.48 47.264 0.063 6.61 2.1 11.55
4/20/2022 7:30:00 PM 8.36 47.048 0.063 6.6 2.14 11.57
4/20/2022 7:45:00 PM 8.25 46.85 0.063 6.6 2.16 11.6
4/20/2022 8:00:00 PM 8.13 46.634 0.063 6.59 2.18 11.62
4/20/2022 8:15:00 PM 8.01 46.418 0.063 6.58 2.16 11.64
4/20/2022 8:30:00 PM 7.9 46.22 0.063 6.58 2.25 11.67
4/20/2022 8:45:00 PM 7.78 46.004 0.063 6.58 2.22 11.69
4/20/2022 9:00:00 PM 7.68 45.824 0.063 6.57 2.26 11.72
4/20/2022 9:15:00 PM 7.58 45.644 0.063 6.57 2.25 11.75
4/20/2022 9:30:00 PM 7.49 45.482 0.063 6.57 2.26 11.78
4/20/2022 9:45:00 PM 7.39 45.302 0.063 6.57 2.21 11.8
4/20/2022 10:00:00 PM 7.3 45.14 0.063 6.57 2.27 11.83
4/20/2022 10:15:00 PM 7.22 44.996 0.063 6.57 2.28 11.86
4/20/2022 10:30:00 PM 7.15 44.87 0.063 6.56 2.25 11.87
4/20/2022 10:45:00 PM 7.09 44.762 0.063 6.57 2.24 11.89
4/20/2022 11:00:00 PM 7.03 44.654 0.063 6.57 2.25 11.92
4/20/2022 11:15:00 PM 6.97 44.546 0.063 6.57 2.23 11.93
4/20/2022 11:30:00 PM 6.91 44.438 0.062 6.57 2.25 11.95
4/20/2022 11:45:00 PM 6.85 44.33 0.062 6.56 2.24 11.97
4/21/2022 12:00:00 AM 6.79 44.222 0.062 6.56 2.23 11.99
4/21/2022 12:15:00 AM 6.73 44.114 0.062 6.57 2.25 12.01
4/21/2022 12:30:00 AM 6.68 44.024 0.062 6.57 2.25 12.02
4/21/2022 12:45:00 AM 6.62 43.916 0.062 6.56 2.24 12.04
4/21/2022 1:00:00 AM 6.56 43.808 0.062 6.56 2.23 12.06
4/21/2022 1:15:00 AM 6.5 43.7 0.062 6.57 2.24 12.07
4/21/2022 1:30:00 AM 6.43 43.574 0.062 6.56 2.21 12.09
4/21/2022 1:45:00 AM 6.37 43.466 0.062 6.57 2.28 12.1
4/21/2022 2:00:00 AM 6.31 43.358 0.062 6.56 2.19 12.12
4/21/2022 2:15:00 AM 6.25 43.25 0.062 6.56 2.2 12.14
4/21/2022 2:30:00 AM 6.2 43.16 0.062 6.56 2.19 12.15
4/21/2022 2:45:00 AM 6.16 43.088 0.062 6.57 2.15 12.17
4/21/2022 3:00:00 AM 6.11 42.998 0.062 6.57 2.14 12.19
4/21/2022 3:15:00 AM 6.07 42.926 0.062 6.56 2.14 12.2
4/21/2022 3:30:00 AM 6.04 42.872 0.062 6.56 2.14 12.21
4/21/2022 3:45:00 AM 6.02 42.836 0.062 6.56 2.13 12.22
4/21/2022 4:00:00 AM 5.99 42.782 0.062 6.57 2.13 12.23
4/21/2022 4:15:00 AM 5.96 42.728 0.061 6.57 2.17 12.24
4/21/2022 4:30:00 AM 5.95 42.71 0.062 6.57 2.14 12.24
4/21/2022 4:45:00 AM 5.93 42.674 0.061 6.57 2.1 12.25
4/21/2022 5:00:00 AM 5.92 42.656 0.061 6.57 2.14 12.25
4/21/2022 5:15:00 AM 5.9 42.62 0.061 6.57 2.12 12.26
4/21/2022 5:30:00 AM 5.89 42.602 0.061 6.57 2.14 12.26
4/21/2022 5:45:00 AM 5.87 42.566 0.061 6.56 2.11 12.26
4/21/2022 6:00:00 AM 5.84 42.512 0.061 6.57 2.09 12.26
4/21/2022 6:15:00 AM 5.81 42.458 0.061 6.57 2.1 12.27
4/21/2022 6:30:00 AM 5.79 42.422 0.061 6.57 2.1 12.27
4/21/2022 6:45:00 AM 5.78 42.404 0.061 6.57 2.07 12.29
4/21/2022 7:00:00 AM 5.78 42.404 0.061 6.58 2.07 12.3
4/21/2022 7:15:00 AM 5.79 42.422 0.061 6.57 2.08 12.31
4/21/2022 7:30:00 AM 5.8 42.44 0.061 6.58 2.07 12.32
4/21/2022 7:45:00 AM 5.82 42.476 0.061 6.59 2.04 12.33
4/21/2022 8:00:00 AM 5.85 42.53 0.061 6.59 2.07 12.33
4/21/2022 8:15:00 AM 5.91 42.638 0.061 6.59 2.06 12.34
4/21/2022 8:30:00 AM 6.01 42.818 0.061 6.59 2.05 12.34
4/21/2022 8:45:00 AM 6.08 42.944 0.061 6.61 2.03 12.34
4/21/2022 9:00:00 AM 6.17 43.106 0.061 6.61 2.07 12.33
4/21/2022 9:15:00 AM 6.26 43.268 0.061 6.62 2 12.3
4/21/2022 9:30:00 AM 6.33 43.394 0.061 6.62 2 12.28
4/21/2022 9:45:00 AM 6.4 43.52 0.061 6.62 2.07 12.25
4/21/2022 10:00:00 AM 6.45 43.61 0.061 6.62 2.05 12.23
4/21/2022 10:15:00 AM 6.49 43.682 0.061 6.61 2.02 12.2
4/21/2022 10:30:00 AM 6.54 43.772 0.061 6.62 2.03 12.17
4/21/2022 10:45:00 AM 6.58 43.844 0.061 6.61 2.09 12.15
4/21/2022 11:00:00 AM 6.62 43.916 0.061 6.62 2.06 12.14
4/21/2022 11:15:00 AM 6.66 43.988 0.06 6.62 2.03 12.13
4/21/2022 11:30:00 AM 6.68 44.024 0.06 6.61 2.03 12.12
4/21/2022 11:45:00 AM 6.71 44.078 0.06 6.62 2.01 12.1
4/21/2022 12:00:00 PM 6.74 44.132 0.06 6.62 2.05 12.09
4/21/2022 12:15:00 PM 6.76 44.168 0.06 6.62 2.07 12.08
4/21/2022 12:30:00 PM 6.8 44.24 0.06 6.62 2.08 12.08
4/21/2022 12:45:00 PM 6.84 44.312 0.06 6.63 2.1 12.07
4/21/2022 1:00:00 PM 6.88 44.384 0.06 6.62 2.14 12.06
4/21/2022 1:15:00 PM 6.91 44.438 0.06 6.63 2.24 12.05
4/21/2022 1:30:00 PM 6.94 44.492 0.06 6.62 2.29 12.03
4/21/2022 1:45:00 PM 6.98 44.564 0.06 6.63 2.29 12.03
4/21/2022 2:00:00 PM 7 44.6 0.06 6.63 2.37 12.02
4/21/2022 2:15:00 PM 7.03 44.654 0.06 6.63 2.46 12.01
4/21/2022 2:30:00 PM 7.05 44.69 0.06 6.63 2.58 11.99
4/21/2022 2:45:00 PM 7.06 44.708 0.061 6.63 2.61 11.98
4/21/2022 3:00:00 PM 7.08 44.744 0.061 6.63 2.74 11.97
4/21/2022 3:15:00 PM 7.1 44.78 0.061 6.63 2.79 11.96
4/21/2022 3:30:00 PM 7.12 44.816 0.061 6.62 2.86 11.95
4/21/2022 3:45:00 PM 7.14 44.852 0.061 6.63 2.93 11.95
4/21/2022 4:00:00 PM 7.16 44.888 0.061 6.63 3.08 11.94
4/21/2022 4:15:00 PM 7.18 44.924 0.061 6.63 3.12 11.94
4/21/2022 4:30:00 PM 7.2 44.96 0.061 6.63 3.06 11.93
4/21/2022 4:45:00 PM 7.21 44.978 0.061 6.62 2.96 11.92
4/21/2022 5:00:00 PM 7.24 45.032 0.061 6.62 2.87 11.92
4/21/2022 5:15:00 PM 7.27 45.086 0.061 6.62 2.82 11.92
4/21/2022 5:30:00 PM 7.3 45.14 0.062 6.62 2.81 11.92
4/21/2022 5:45:00 PM 7.35 45.23 0.062 6.62 2.85 11.92
4/21/2022 6:00:00 PM 7.38 45.284 0.062 6.62 2.83 11.92
4/21/2022 6:15:00 PM 7.42 45.356 0.062 6.63 2.8 11.92
4/21/2022 6:30:00 PM 7.45 45.41 0.062 6.63 2.74 11.91
4/21/2022 6:45:00 PM 7.45 45.41 0.062 6.62 2.7 11.89
4/21/2022 7:00:00 PM 7.46 45.428 0.062 6.62 2.67 11.88
4/21/2022 7:15:00 PM 7.47 45.446 0.062 6.62 2.65 11.86
4/21/2022 7:30:00 PM 7.45 45.41 0.062 6.62 2.58 11.85
4/21/2022 7:45:00 PM 7.43 45.374 0.062 6.61 2.56 11.84
4/21/2022 8:00:00 PM 7.41 45.338 0.062 6.6 2.59 11.83
4/21/2022 8:15:00 PM 7.38 45.284 0.062 6.58 2.53 11.83
4/21/2022 8:30:00 PM 7.36 45.248 0.062 6.57 2.56 11.82
4/21/2022 8:45:00 PM 7.34 45.212 0.062 6.58 2.52 11.83
4/21/2022 9:00:00 PM 7.33 45.194 0.062 6.57 2.48 11.83
4/21/2022 9:15:00 PM 7.3 45.14 0.062 6.57 2.53 11.83
4/21/2022 9:30:00 PM 7.3 45.14 0.062 6.56 2.48 11.84
4/21/2022 9:45:00 PM 7.3 45.14 0.062 6.56 2.48 11.84
4/21/2022 10:00:00 PM 7.3 45.14 0.062 6.57 2.43 11.84
4/21/2022 10:15:00 PM 7.3 45.14 0.062 6.57 2.47 11.85
4/21/2022 10:30:00 PM 7.29 45.122 0.062 6.57 2.44 11.85
4/21/2022 10:45:00 PM 7.26 45.068 0.062 6.57 2.42 11.85
4/21/2022 11:00:00 PM 7.25 45.05 0.062 6.56 2.45 11.86
4/21/2022 11:15:00 PM 7.22 44.996 0.062 6.57 2.4 11.86
4/21/2022 11:30:00 PM 7.21 44.978 0.062 6.56 2.43 11.87
4/21/2022 11:45:00 PM 7.19 44.942 0.062 6.56 2.45 11.88
4/22/2022 12:00:00 AM 7.14 44.852 0.062 6.56 2.44 11.89
4/22/2022 12:15:00 AM 7.11 44.798 0.062 6.57 2.38 11.9
4/22/2022 12:30:00 AM 7.08 44.744 0.062 6.56 2.36 11.91
4/22/2022 12:45:00 AM 7.04 44.672 0.062 6.56 2.39 11.92
4/22/2022 1:00:00 AM 6.99 44.582 0.062 6.56 2.36 11.93
4/22/2022 1:15:00 AM 6.95 44.51 0.062 6.56 2.34 11.95
4/22/2022 1:30:00 AM 6.92 44.456 0.062 6.55 2.33 11.96
4/22/2022 1:45:00 AM 6.88 44.384 0.062 6.55 2.28 11.97
4/22/2022 2:00:00 AM 6.86 44.348 0.062 6.55 2.32 11.98
4/22/2022 2:15:00 AM 6.83 44.294 0.062 6.56 2.29 11.99
4/22/2022 2:30:00 AM 6.81 44.258 0.062 6.56 2.27 12
4/22/2022 2:45:00 AM 6.79 44.222 0.062 6.56 2.31 12.01
4/22/2022 3:00:00 AM 6.77 44.186 0.062 6.57 2.28 12.02
4/22/2022 3:15:00 AM 6.75 44.15 0.061 6.57 2.28 12.03
4/22/2022 3:30:00 AM 6.73 44.114 0.061 6.57 2.24 12.03
4/22/2022 3:45:00 AM 6.71 44.078 0.061 6.57 2.24 12.04
4/22/2022 4:00:00 AM 6.69 44.042 0.061 6.57 2.25 12.05
4/22/2022 4:15:00 AM 6.67 44.006 0.061 6.57 2.24 12.06
4/22/2022 4:30:00 AM 6.65 43.97 0.061 6.58 2.22 12.07
4/22/2022 4:45:00 AM 6.62 43.916 0.061 6.58 2.22 12.07
4/22/2022 5:00:00 AM 6.6 43.88 0.061 6.58 2.22 12.08
4/22/2022 5:15:00 AM 6.57 43.826 0.061 6.57 2.24 12.09
4/22/2022 5:30:00 AM 6.54 43.772 0.061 6.58 2.21 12.1
4/22/2022 5:45:00 AM 6.51 43.718 0.061 6.58 2.17 12.11
4/22/2022 6:00:00 AM 6.46 43.628 0.061 6.58 2.15 12.13
4/22/2022 6:15:00 AM 6.41 43.538 0.061 6.58 2.16 12.15
4/22/2022 6:30:00 AM 6.37 43.466 0.061 6.57 2.21 12.17
4/22/2022 6:45:00 AM 6.32 43.376 0.061 6.58 2.15 12.19
4/22/2022 7:00:00 AM 6.26 43.268 0.061 6.57 2.19 12.22
4/22/2022 7:15:00 AM 6.22 43.196 0.061 6.58 2.13 12.26
4/22/2022 7:30:00 AM 6.17 43.106 0.061 6.59 2.16 12.29
4/22/2022 7:45:00 AM 6.13 43.034 0.061 6.59 2.16 12.33
4/22/2022 8:00:00 AM 6.09 42.962 0.061 6.59 2.28 12.36
4/22/2022 8:15:00 AM 6.08 42.944 0.061 6.59 2.47 12.39
4/22/2022 8:30:00 AM 6.08 42.944 0.061 6.6 2.33 12.4
4/22/2022 8:45:00 AM 6.1 42.98 0.061 6.59 2.21 12.42
4/22/2022 9:00:00 AM 6.18 43.124 0.061 6.61 2.15 12.41
4/22/2022 9:15:00 AM 6.27 43.286 0.061 6.61 2.12 12.4
4/22/2022 9:30:00 AM 6.45 43.61 0.061 6.61 2.12 12.36
4/22/2022 9:45:00 AM 6.63 43.934 0.06 6.61 2.09 12.33
4/22/2022 10:00:00 AM 6.81 44.258 0.06 6.61 2.08 12.29
4/22/2022 10:15:00 AM 7 44.6 0.06 6.62 2.06 12.24
4/22/2022 10:30:00 AM 7.2 44.96 0.06 6.63 2.06 12.2
4/22/2022 10:45:00 AM 7.41 45.338 0.06 6.63 2.05 12.14
4/22/2022 11:00:00 AM 7.63 45.734 0.06 6.63 2.07 12.08
4/22/2022 11:15:00 AM 7.86 46.148 0.06 6.64 2.08 12.02
4/22/2022 11:30:00 AM 8.08 46.544 0.06 6.64 2.04 11.96
4/22/2022 11:45:00 AM 8.31 46.958 0.06 6.64 2.07 11.89
4/22/2022 12:00:00 PM 8.53 47.354 0.06 6.64 2.01 11.83
4/22/2022 12:15:00 PM 8.76 47.768 0.06 6.65 2.06 11.76
4/22/2022 12:30:00 PM 8.98 48.164 0.06 6.65 2.03 11.7
4/22/2022 12:45:00 PM 9.19 48.542 0.06 6.65 2.06 11.64
4/22/2022 1:00:00 PM 9.41 48.938 0.06 6.66 2.06 11.58
4/22/2022 1:15:00 PM 9.59 49.262 0.06 6.66 2.05 11.52
4/22/2022 1:30:00 PM 9.79 49.622 0.06 6.65 2.02 11.47
4/22/2022 1:45:00 PM 9.98 49.964 0.06 6.66 2.04 11.41
4/22/2022 2:00:00 PM 10.16 50.288 0.06 6.66 2.08 11.35
4/22/2022 2:15:00 PM 10.34 50.612 0.06 6.66 2.07 11.29
4/22/2022 2:30:00 PM 10.5 50.9 0.06 6.66 2.08 11.24
4/22/2022 2:45:00 PM 10.64 51.152 0.06 6.66 2.07 11.19
4/22/2022 3:00:00 PM 10.77 51.386 0.06 6.66 2.13 11.14
4/22/2022 3:15:00 PM 10.88 51.584 0.06 6.66 2.11 11.1
4/22/2022 3:30:00 PM 10.97 51.746 0.06 6.67 2.14 11.07
4/22/2022 3:45:00 PM 11.03 51.854 0.06 6.66 2.16 11.04
4/22/2022 4:00:00 PM 11.06 51.908 0.06 6.67 2.16 11.02
4/22/2022 4:15:00 PM 11.1 51.98 0.06 6.66 2.14 11
4/22/2022 4:30:00 PM 11.09 51.962 0.06 6.66 2.17 10.98
4/22/2022 4:45:00 PM 11.09 51.962 0.06 6.66 2.21 10.97
4/22/2022 5:00:00 PM 11.08 51.944 0.06 6.66 2.2 10.97
4/22/2022 5:15:00 PM 11.09 51.962 0.06 6.66 2.2 10.97
4/22/2022 5:30:00 PM 11.06 51.908 0.06 6.67 2.19 10.97
4/22/2022 5:45:00 PM 11 51.8 0.06 6.66 2.26 10.97
4/22/2022 6:00:00 PM 10.92 51.656 0.06 6.66 2.23 10.98
4/22/2022 6:15:00 PM 10.85 51.53 0.06 6.66 2.23 11
4/22/2022 6:30:00 PM 10.76 51.368 0.06 6.65 2.25 11.02
4/22/2022 6:45:00 PM 10.65 51.17 0.06 6.65 2.22 11.03
4/22/2022 7:00:00 PM 10.54 50.972 0.06 6.64 2.21 11.04
4/22/2022 7:15:00 PM 10.44 50.792 0.06 6.65 2.25 11.06
4/22/2022 7:30:00 PM 10.34 50.612 0.06 6.64 2.25 11.06
4/22/2022 7:45:00 PM 10.24 50.432 0.06 6.63 2.32 11.07
4/22/2022 8:00:00 PM 10.14 50.252 0.06 6.62 2.3 11.08
4/22/2022 8:15:00 PM 10.04 50.072 0.06 6.62 2.34 11.09
4/22/2022 8:30:00 PM 9.95 49.91 0.06 6.62 2.37 11.11
4/22/2022 8:45:00 PM 9.87 49.766 0.06 6.61 2.37 11.13
4/22/2022 9:00:00 PM 9.78 49.604 0.06 6.61 2.4 11.15
4/22/2022 9:15:00 PM 9.71 49.478 0.06 6.61 2.41 11.17
4/22/2022 9:30:00 PM 9.64 49.352 0.06 6.6 2.41 11.19
4/22/2022 9:45:00 PM 9.56 49.208 0.06 6.61 2.4 11.21
4/22/2022 10:00:00 PM 9.49 49.082 0.06 6.6 2.39 11.22
4/22/2022 10:15:00 PM 9.42 48.956 0.06 6.61 2.41 11.25
4/22/2022 10:30:00 PM 9.36 48.848 0.06 6.6 2.43 11.26
4/22/2022 10:45:00 PM 9.31 48.758 0.06 6.6 2.45 11.28
4/22/2022 11:00:00 PM 9.25 48.65 0.059 6.61 2.38 11.3
4/22/2022 11:15:00 PM 9.2 48.56 0.059 6.62 2.49 11.31
4/22/2022 11:30:00 PM 9.16 48.488 0.059 6.6 2.46 11.33
4/22/2022 11:45:00 PM 9.12 48.416 0.059 6.6 2.46 11.34
4/23/2022 12:00:00 AM 9.08 48.344 0.059 6.6 2.4 11.35
4/23/2022 12:15:00 AM 9.04 48.272 0.059 6.6 2.42 11.36
4/23/2022 12:30:00 AM 9 48.2 0.059 6.59 2.39 11.36
4/23/2022 12:45:00 AM 8.97 48.146 0.059 6.6 2.39 11.37
4/23/2022 1:00:00 AM 8.94 48.092 0.059 6.59 2.51 11.38
4/23/2022 1:15:00 AM 8.9 48.02 0.059 6.62 2.49 11.39
4/23/2022 1:30:00 AM 8.87 47.966 0.059 6.62 2.45 11.4
4/23/2022 1:45:00 AM 8.84 47.912 0.059 6.61 129.39 11.41
4/23/2022 2:00:00 AM 8.81 47.858 0.059 6.6 20.07 11.42
4/23/2022 2:15:00 AM 8.78 47.804 0.059 6.6 4.8 11.42
4/23/2022 2:30:00 AM 8.75 47.75 0.059 6.59 2.74 11.44
4/23/2022 2:45:00 AM 8.72 47.696 0.059 6.6 2.42 11.44
4/23/2022 3:00:00 AM 8.7 47.66 0.059 6.6 2.41 11.44
4/23/2022 3:15:00 AM 8.67 47.606 0.059 6.59 2.34 11.45
4/23/2022 3:30:00 AM 8.65 47.57 0.059 6.59 2.36 11.45
4/23/2022 3:45:00 AM 8.63 47.534 0.059 6.6 2.36 11.46
4/23/2022 4:00:00 AM 8.6 47.48 0.059 6.6 2.36 11.47
4/23/2022 4:15:00 AM 8.58 47.444 0.059 6.6 2.4 11.47
4/23/2022 4:30:00 AM 8.56 47.408 0.059 6.6 2.39 11.48
4/23/2022 4:45:00 AM 8.53 47.354 0.059 6.6 2.33 11.49
4/23/2022 5:00:00 AM 8.51 47.318 0.059 6.59 2.34 11.49
4/23/2022 5:15:00 AM 8.49 47.282 0.059 6.6 2.38 11.49
4/23/2022 5:30:00 AM 8.47 47.246 0.059 6.6 2.47 11.5
4/23/2022 5:45:00 AM 8.45 47.21 0.059 6.6 2.37 11.5
4/23/2022 6:00:00 AM 8.44 47.192 0.059 6.6 2.36 11.51
4/23/2022 6:15:00 AM 8.42 47.156 0.059 6.6 2.33 11.51
4/23/2022 6:30:00 AM 8.4 47.12 0.059 6.61 2.36 11.51
4/23/2022 6:45:00 AM 8.39 47.102 0.059 6.61 2.4 11.52
4/23/2022 7:00:00 AM 8.37 47.066 0.059 6.61 2.34 11.54
4/23/2022 7:15:00 AM 8.37 47.066 0.059 6.61 2.3 11.55
4/23/2022 7:30:00 AM 8.36 47.048 0.059 6.61 5.13 11.53
4/23/2022 7:45:00 AM 8.36 47.048 0.059 6.62 2.7 11.57
4/23/2022 8:00:00 AM 8.36 47.048 0.059 6.62 2.31 11.59
4/23/2022 8:15:00 AM 8.37 47.066 0.059 6.63 2.31 11.6
4/23/2022 8:30:00 AM 8.4 47.12 0.059 6.64 2.27 11.63
4/23/2022 8:45:00 AM 8.45 47.21 0.059 6.65 2.35 11.64
4/23/2022 9:00:00 AM 8.48 47.264 0.059 6.65 2.26 11.64
4/23/2022 9:15:00 AM 8.5 47.3 0.059 6.65 2.29 11.64
4/23/2022 9:30:00 AM 8.54 47.372 0.059 6.67 2.24 11.64
4/23/2022 9:45:00 AM 8.62 47.516 0.059 6.66 2.2 11.64
4/23/2022 10:00:00 AM 8.67 47.606 0.059 6.68 2.2 11.62
4/23/2022 10:15:00 AM 8.7 47.66 0.059 6.67 2.23 11.6
4/23/2022 10:30:00 AM 8.77 47.786 0.059 6.67 2.24 11.6
4/23/2022 10:45:00 AM 8.88 47.984 0.059 6.68 2.19 11.58
4/23/2022 11:00:00 AM 8.92 48.056 0.059 6.67 2.19 11.56
4/23/2022 11:15:00 AM 8.95 48.11 0.059 6.67 2.14 11.53
4/23/2022 11:30:00 AM 9.01 48.218 0.058 6.67 2.23 11.51
4/23/2022 11:45:00 AM 9.03 48.254 0.058 6.67 2.27 11.5
4/23/2022 12:00:00 PM 9.09 48.362 0.058 6.67 2.22 11.49
4/23/2022 12:15:00 PM 9.15 48.47 0.058 6.67 2.25 11.48
4/23/2022 12:30:00 PM 9.21 48.578 0.058 6.68 2.22 11.47
4/23/2022 12:45:00 PM 9.3 48.74 0.058 6.67 2.19 11.46
4/23/2022 1:00:00 PM 9.31 48.758 0.058 6.68 2.17 11.43
4/23/2022 1:15:00 PM 9.34 48.812 0.058 6.68 2.15 11.41
4/23/2022 1:30:00 PM 9.54 49.172 0.058 6.68 2.19 11.4
4/23/2022 1:45:00 PM 9.6 49.28 0.058 6.67 2.21 11.37
4/23/2022 2:00:00 PM 9.69 49.442 0.058 6.68 2.15 11.34
4/23/2022 2:15:00 PM 9.77 49.586 0.058 6.68 2.25 11.32
4/23/2022 2:30:00 PM 9.86 49.748 0.058 6.68 2.21 11.31
4/23/2022 2:45:00 PM 9.94 49.892 0.058 6.69 2.21 11.28
4/23/2022 3:00:00 PM 10.08 50.144 0.058 6.68 2.22 11.25
4/23/2022 3:15:00 PM 10.29 50.522 0.058 6.69 2.2 11.22
4/23/2022 3:30:00 PM 10.37 50.666 0.058 6.69 2.18 11.19
4/23/2022 3:45:00 PM 10.5 50.9 0.058 6.69 2.18 11.16
4/23/2022 4:00:00 PM 10.6 51.08 0.058 6.69 2.2 11.12
4/23/2022 4:15:00 PM 10.64 51.152 0.058 6.68 2.21 11.08
4/23/2022 4:30:00 PM 10.68 51.224 0.058 6.69 2.21 11.04
4/23/2022 4:45:00 PM 10.74 51.332 0.058 6.68 2.19 11
4/23/2022 5:00:00 PM 10.78 51.404 0.058 6.68 2.18 10.98
4/23/2022 5:15:00 PM 10.8 51.44 0.058 6.68 2.18 10.95
4/23/2022 5:30:00 PM 10.83 51.494 0.058 6.68 2.24 10.93
4/23/2022 5:45:00 PM 10.85 51.53 0.058 6.67 2.19 10.91
4/23/2022 6:00:00 PM 10.86 51.548 0.058 6.68 2.22 10.89
4/23/2022 6:15:00 PM 10.87 51.566 0.058 6.67 3.53 10.89
4/23/2022 6:30:00 PM 10.85 51.53 0.058 6.67 2.86 10.88
4/23/2022 6:45:00 PM 10.82 51.476 0.058 6.67 2.69 10.88
4/23/2022 7:00:00 PM 10.77 51.386 0.058 6.66 2.62 10.89
4/23/2022 7:15:00 PM 10.71 51.278 0.058 6.66 2.54 10.89
4/23/2022 7:30:00 PM 10.63 51.134 0.058 6.66 2.58 10.9
4/23/2022 7:45:00 PM 10.56 51.008 0.058 6.65 2.58 10.91
4/23/2022 8:00:00 PM 10.47 50.846 0.058 6.64 2.61 10.91
4/23/2022 8:15:00 PM 10.39 50.702 0.058 6.63 2.59 10.92
4/23/2022 8:30:00 PM 10.3 50.54 0.058 6.63 2.56 10.93
4/23/2022 8:45:00 PM 10.21 50.378 0.058 6.62 2.69 10.95
4/23/2022 9:00:00 PM 10.13 50.234 0.058 6.62 2.67 10.97
4/23/2022 9:15:00 PM 10.05 50.09 0.058 6.61 2.74 10.99
4/23/2022 9:30:00 PM 9.97 49.946 0.058 6.61 2.75 11.01
4/23/2022 9:45:00 PM 9.9 49.82 0.058 6.62 2.66 11.03
4/23/2022 10:00:00 PM 9.83 49.694 0.058 6.61 2.72 11.05
4/23/2022 10:15:00 PM 9.77 49.586 0.058 6.61 2.71 11.06
4/23/2022 10:30:00 PM 9.71 49.478 0.058 6.61 2.7 11.08
4/23/2022 10:45:00 PM 9.65 49.37 0.058 6.61 2.71 11.09
4/23/2022 11:00:00 PM 9.59 49.262 0.058 6.61 2.72 11.1
4/23/2022 11:15:00 PM 9.53 49.154 0.058 6.61 2.65 11.12
4/23/2022 11:30:00 PM 9.47 49.046 0.058 6.6 2.67 11.14
4/23/2022 11:45:00 PM 9.42 48.956 0.058 6.61 2.63 11.15
4/24/2022 12:00:00 AM 9.37 48.866 0.057 6.6 8.55 11.17
4/24/2022 12:15:00 AM 9.32 48.776 0.058 6.6 3.53 11.18
4/24/2022 12:30:00 AM 9.27 48.686 0.058 6.6 2.86 11.19
4/24/2022 12:45:00 AM 9.22 48.596 0.058 6.59 2.72 11.21
4/24/2022 1:00:00 AM 9.17 48.506 0.058 6.6 2.68 11.22
4/24/2022 1:15:00 AM 9.13 48.434 0.058 6.6 2.69 11.23
4/24/2022 1:30:00 AM 9.08 48.344 0.058 6.6 2.68 11.24
4/24/2022 1:45:00 AM 9.03 48.254 0.058 6.6 2.68 11.25
4/24/2022 2:00:00 AM 8.99 48.182 0.058 6.6 2.67 11.26
4/24/2022 2:15:00 AM 8.95 48.11 0.058 6.6 2.58 11.27
4/24/2022 2:30:00 AM 8.91 48.038 0.058 6.59 2.59 11.29
4/24/2022 2:45:00 AM 8.88 47.984 0.058 6.6 2.63 11.29
4/24/2022 3:00:00 AM 8.84 47.912 0.058 6.6 2.66 11.31
4/24/2022 3:15:00 AM 8.81 47.858 0.058 6.59 2.59 11.31
4/24/2022 3:30:00 AM 8.42 47.156 0.056 6.33 2.52 10.85
4/24/2022 3:45:00 AM 8.7 47.66 0.058 6.56 2.65 11.27
4/24/2022 4:00:00 AM 8.71 47.678 0.058 6.59 2.62 11.33
4/24/2022 4:15:00 AM 8.68 47.624 0.058 6.59 2.68 11.35
4/24/2022 4:30:00 AM 8.64 47.552 0.058 6.59 2.7 11.36
4/24/2022 4:45:00 AM 8.6 47.48 0.058 6.6 2.64 11.37
4/24/2022 5:00:00 AM 8.56 47.408 0.058 6.59 2.6 11.38
4/24/2022 5:15:00 AM 8.52 47.336 0.058 6.59 2.61 11.39
4/24/2022 5:30:00 AM 8.47 47.246 0.058 6.59 27.98 11.4
4/24/2022 5:45:00 AM 8.43 47.174 0.058 6.59 6.14 11.42
4/24/2022 6:00:00 AM 8.39 47.102 0.058 6.59 3.1 11.43
4/24/2022 6:15:00 AM 8.35 47.03 0.058 6.6 2.65 11.44
4/24/2022 6:30:00 AM 8.31 46.958 0.058 6.59 2.58 11.46
4/24/2022 6:45:00 AM 8.27 46.886 0.058 6.6 2.49 11.48
4/24/2022 7:00:00 AM 8.24 46.832 0.058 6.6 2.55 11.5
4/24/2022 7:15:00 AM 8.21 46.778 0.058 6.61 2.62 11.53
4/24/2022 7:30:00 AM 8.2 46.76 0.058 6.6 2.51 11.56
4/24/2022 7:45:00 AM 8.21 46.778 0.058 6.62 2.46 11.59
4/24/2022 8:00:00 AM 8.23 46.814 0.058 6.63 2.49 11.61
4/24/2022 8:15:00 AM 8.26 46.868 0.058 6.64 2.47 11.61
4/24/2022 8:30:00 AM 8.3 46.94 0.058 6.64 2.53 11.62
4/24/2022 8:45:00 AM 8.36 47.048 0.058 6.65 2.54 11.62
4/24/2022 9:00:00 AM 8.45 47.21 0.058 6.65 2.48 11.61
4/24/2022 9:15:00 AM 8.58 47.444 0.058 6.66 2.4 11.59
4/24/2022 9:30:00 AM 8.74 47.732 0.058 6.66 2.47 11.57
4/24/2022 9:45:00 AM 8.92 48.056 0.058 6.67 2.44 11.53
4/24/2022 10:00:00 AM 9.11 48.398 0.058 6.68 2.59 11.5
4/24/2022 10:15:00 AM 9.32 48.776 0.058 6.68 2.59 11.46
4/24/2022 10:30:00 AM 9.54 49.172 0.058 6.69 2.46 11.4
4/24/2022 10:45:00 AM 9.76 49.568 0.058 6.69 2.45 11.36
4/24/2022 11:00:00 AM 10.01 50.018 0.058 6.7 2.39 11.3
4/24/2022 11:15:00 AM 10.27 50.486 0.058 6.7 2.76 11.23
4/24/2022 11:30:00 AM 10.53 50.954 0.058 6.7 2.48 11.17
4/24/2022 11:45:00 AM 10.79 51.422 0.058 6.71 2.43 11.1
4/24/2022 12:00:00 PM 11.07 51.926 0.058 6.7 2.38 11.04
4/24/2022 12:15:00 PM 11.35 52.43 0.058 6.71 2.37 10.96
4/24/2022 12:30:00 PM 11.62 52.916 0.058 6.71 2.37 10.9
4/24/2022 12:45:00 PM 11.9 53.42 0.058 6.71 2.75 10.83
4/24/2022 1:00:00 PM 12.16 53.888 0.058 6.71 2.62 10.76
4/24/2022 1:15:00 PM 12.45 54.41 0.058 6.72 2.46 10.69
4/24/2022 1:30:00 PM 12.7 54.86 0.058 6.72 2.41 10.62
4/24/2022 1:45:00 PM 12.94 55.292 0.058 6.72 2.43 10.55
4/24/2022 2:00:00 PM 13.16 55.688 0.058 6.72 2.46 10.49
4/24/2022 2:15:00 PM 13.42 56.156 0.058 6.73 2.43 10.43
4/24/2022 2:30:00 PM 13.64 56.552 0.058 6.72 2.48 10.37
4/24/2022 2:45:00 PM 13.82 56.876 0.058 6.73 2.41 10.32
4/24/2022 3:00:00 PM 14.04 57.272 0.058 6.72 2.48 10.26
4/24/2022 3:15:00 PM 14.22 57.596 0.058 6.73 2.46 10.21
4/24/2022 3:30:00 PM 14.34 57.812 0.058 6.72 2.5 10.17
4/24/2022 3:45:00 PM 14.44 57.992 0.058 6.72 2.45 10.13
4/24/2022 4:00:00 PM 14.54 58.172 0.058 6.72 2.51 10.09
4/24/2022 4:15:00 PM 14.59 58.262 0.058 6.72 2.53 10.06
4/24/2022 4:30:00 PM 14.6 58.28 0.058 6.71 2.51 10.03
4/24/2022 4:45:00 PM 14.62 58.316 0.058 6.71 2.49 10.02
4/24/2022 5:00:00 PM 14.62 58.316 0.058 6.71 2.48 10
4/24/2022 5:15:00 PM 14.61 58.298 0.058 6.71 2.52 9.98
4/24/2022 5:30:00 PM 14.59 58.262 0.058 6.73 2.55 9.98
4/24/2022 5:45:00 PM 14.56 58.208 0.058 6.73 2.6 9.98
4/24/2022 6:00:00 PM 14.49 58.082 0.058 6.72 2.59 9.98
4/24/2022 6:15:00 PM 14.42 57.956 0.058 6.72 2.68 9.99
4/24/2022 6:30:00 PM 14.33 57.794 0.058 6.71 2.59 10
4/24/2022 6:45:00 PM 14.23 57.614 0.058 6.71 2.55 10
4/24/2022 7:00:00 PM 14.12 57.416 0.058 6.7 2.63 10.02
4/24/2022 7:15:00 PM 14 57.2 0.058 6.7 2.64 10.04
4/24/2022 7:30:00 PM 13.85 56.93 0.058 6.69 2.57 10.07
4/24/2022 7:45:00 PM 13.7 56.66 0.058 6.68 2.55 10.09
4/24/2022 8:00:00 PM 13.56 56.408 0.058 6.67 2.57 10.1
4/24/2022 8:15:00 PM 13.41 56.138 0.058 6.66 2.59 10.11
4/24/2022 8:30:00 PM 13.28 55.904 0.058 6.66 2.85 10.14
4/24/2022 8:45:00 PM 13.15 55.67 0.058 6.65 3.76 10.16
4/24/2022 9:00:00 PM 13.04 55.472 0.058 6.65 2.95 10.19
4/24/2022 9:15:00 PM 12.92 55.256 0.058 6.65 2.88 10.21
4/24/2022 9:30:00 PM 12.82 55.076 0.058 6.65 2.89 10.24
4/24/2022 9:45:00 PM 12.72 54.896 0.058 6.65 2.87 10.26
4/24/2022 10:00:00 PM 12.63 54.734 0.058 6.65 2.89 10.28
4/24/2022 10:15:00 PM 12.54 54.572 0.058 6.64 2.81 10.31
4/24/2022 10:30:00 PM 12.46 54.428 0.058 6.64 2.91 10.33
4/24/2022 10:45:00 PM 12.39 54.302 0.058 6.64 2.89 10.34
4/24/2022 11:00:00 PM 12.32 54.176 0.058 6.65 2.88 10.36
4/24/2022 11:15:00 PM 12.26 54.068 0.058 6.65 2.87 10.38
4/24/2022 11:30:00 PM 12.18 53.924 0.058 6.65 2.86 10.39
4/24/2022 11:45:00 PM 12.11 53.798 0.058 6.64 2.88 10.41
4/25/2022 12:00:00 AM 12.04 53.672 0.058 6.64 2.9 10.43
4/25/2022 12:15:00 AM 11.97 53.546 0.058 6.64 3.02 10.44
4/25/2022 12:30:00 AM 11.91 53.438 0.058 6.64 3 10.46
4/25/2022 12:45:00 AM 11.85 53.33 0.058 6.64 2.99 10.47
4/25/2022 1:00:00 AM 11.79 53.222 0.058 6.64 2.99 10.49
4/25/2022 1:15:00 AM 11.74 53.132 0.058 6.64 2.9 10.5
4/25/2022 1:30:00 AM 11.68 53.024 0.058 6.63 2.94 10.51
4/25/2022 1:45:00 AM 11.63 52.934 0.058 6.64 2.94 10.52
4/25/2022 2:00:00 AM 11.58 52.844 0.058 6.64 2.92 10.54
4/25/2022 2:15:00 AM 11.52 52.736 0.058 6.64 2.94 10.55
4/25/2022 2:30:00 AM 11.47 52.646 0.058 6.63 2.9 10.56
4/25/2022 2:45:00 AM 11.41 52.538 0.058 6.63 2.94 10.58
4/25/2022 3:00:00 AM 11.36 52.448 0.058 6.63 3.01 10.59
4/25/2022 3:15:00 AM 11.31 52.358 0.058 6.63 2.91 10.61
4/25/2022 3:30:00 AM 11.25 52.25 0.058 6.62 3.1 10.62
4/25/2022 3:45:00 AM 11.2 52.16 0.058 6.62 2.99 10.63
4/25/2022 4:00:00 AM 11.15 52.07 0.058 6.62 2.97 10.65
4/25/2022 4:15:00 AM 11.1 51.98 0.058 6.62 2.89 10.66
4/25/2022 4:30:00 AM 11.05 51.89 0.058 6.62 2.68 10.67
4/25/2022 4:45:00 AM 11 51.8 0.058 6.62 2.83 10.69
4/25/2022 5:00:00 AM 10.96 51.728 0.058 6.63 2.81 10.7
4/25/2022 5:15:00 AM 10.91 51.638 0.058 6.62 2.85 10.71
4/25/2022 5:30:00 AM 10.86 51.548 0.058 6.62 2.81 10.72
4/25/2022 5:45:00 AM 10.81 51.458 0.058 6.62 2.78 10.73
4/25/2022 6:00:00 AM 10.76 51.368 0.058 6.62 2.79 10.75
4/25/2022 6:15:00 AM 10.72 51.296 0.058 6.61 2.73 10.76
4/25/2022 6:30:00 AM 10.67 51.206 0.058 6.62 2.75 10.77
4/25/2022 6:45:00 AM 10.63 51.134 0.058 6.62 2.72 10.8
4/25/2022 7:00:00 AM 10.6 51.08 0.058 6.62 2.76 10.82
4/25/2022 7:15:00 AM 10.58 51.044 0.058 6.63 2.75 10.85
4/25/2022 7:30:00 AM 10.57 51.026 0.058 6.64 2.74 10.88
4/25/2022 7:45:00 AM 10.56 51.008 0.058 6.64 2.75 10.9
4/25/2022 8:00:00 AM 10.56 51.008 0.058 6.65 1703.63 10.92
4/25/2022 8:15:00 AM 10.61 51.098 0.058 6.65 252.49 10.94
4/25/2022 8:30:00 AM 10.68 51.224 0.058 6.67 38.52 10.96
4/25/2022 8:45:00 AM 10.76 51.368 0.058 6.69 8.86 10.95
4/25/2022 9:00:00 AM 10.85 51.53 0.058 6.71 4.71 10.95
4/25/2022 9:15:00 AM 10.97 51.746 0.058 6.71 4.43 10.93
4/25/2022 9:30:00 AM 11.13 52.034 0.058 6.72 4.16 10.91
4/25/2022 9:45:00 AM 11.3 52.34 0.058 6.73 3.9 10.88
4/25/2022 10:00:00 AM 11.48 52.664 0.058 6.73 3.89 10.84
4/25/2022 10:15:00 AM 11.68 53.024 0.058 6.73 3.83 10.82
4/25/2022 10:30:00 AM 11.89 53.402 0.058 6.74 3.9 10.78
4/25/2022 10:45:00 AM 12.12 53.816 0.058 6.74 3.6 10.73
4/25/2022 11:00:00 AM 12.35 54.23 0.058 6.74 3.49 10.68
4/25/2022 11:15:00 AM 12.59 54.662 0.058 6.74 3.51 10.62
4/25/2022 11:30:00 AM 12.85 55.13 0.058 6.75 3.85 10.57
4/25/2022 11:45:00 AM 13.11 55.598 0.058 6.75 3.9 10.51
4/25/2022 12:00:00 PM 13.37 56.066 0.058 6.75 2.92 10.45
4/25/2022 12:15:00 PM 13.63 56.534 0.058 6.75 2.76 10.4
4/25/2022 12:30:00 PM 13.9 57.02 0.058 6.75 2.8 10.34
4/25/2022 12:45:00 PM 14.12 57.416 0.058 6.76 2.91 10.28
4/25/2022 1:00:00 PM 14.14 57.452 0.058 6.76 2.77 10.24
4/25/2022 1:15:00 PM 14.13 57.434 0.058 6.75 2.74 10.2
4/25/2022 1:30:00 PM 14.37 57.866 0.058 6.76 2.99 10.19
4/25/2022 1:45:00 PM 14.6 58.28 0.058 6.76 3.35 10.14
4/25/2022 2:00:00 PM 14.53 58.154 0.058 6.76 3.39 10.11
4/25/2022 2:15:00 PM 14.57 58.226 0.058 6.75 3.38 10.08
4/25/2022 2:30:00 PM 14.83 58.694 0.058 6.75 3.34 10.07
4/25/2022 2:45:00 PM 14.83 58.694 0.058 6.76 3.38 10.06
4/25/2022 3:00:00 PM 14.98 58.964 0.058 6.75 3.42 10.04
4/25/2022 3:15:00 PM 15.02 59.036 0.058 6.75 3.35 10.01
4/25/2022 3:30:00 PM 15 59 0.058 6.75 3.32 9.99
4/25/2022 3:45:00 PM 15.14 59.252 0.058 6.75 3.29 9.97
4/25/2022 4:00:00 PM 15.25 59.45 0.058 6.75 3.35 9.93
4/25/2022 4:15:00 PM 15.21 59.378 0.058 6.75 3.4 9.91
4/25/2022 4:30:00 PM 15.19 59.342 0.058 6.75 3.39 9.9
4/25/2022 4:45:00 PM 15.16 59.288 0.058 6.75 3.35 9.88
4/25/2022 5:00:00 PM 15.19 59.342 0.058 6.75 3.37 9.89
4/25/2022 5:15:00 PM 15.15 59.27 0.058 6.75 3.39 9.89
4/25/2022 5:30:00 PM 15.11 59.198 0.058 6.75 3.38 9.89
4/25/2022 5:45:00 PM 15.1 59.18 0.058 6.74 3.35 9.89
4/25/2022 6:00:00 PM 15.02 59.036 0.058 6.74 3.36 9.88
4/25/2022 6:15:00 PM 14.94 58.892 0.058 6.74 3.29 9.88
4/25/2022 6:30:00 PM 14.89 58.802 0.058 6.74 3.36 9.88
4/25/2022 6:45:00 PM 14.8 58.64 0.046 6.74 234.65 9.87
4/25/2022 7:00:00 PM 14.71 58.478 0.055 6.72 35.4 9.87
4/25/2022 7:15:00 PM 14.61 58.298 0.059 6.71 6.84 9.87
4/25/2022 7:30:00 PM 14.5 58.1 0.059 6.71 3.05 9.88
4/25/2022 7:45:00 PM 14.38 57.884 0.059 6.7 2.55 9.89
4/25/2022 8:00:00 PM 14.26 57.668 0.059 6.7 2.5 9.91
4/25/2022 8:15:00 PM 14.15 57.47 0.059 6.69 2.55 9.92
4/25/2022 8:30:00 PM 14.04 57.272 0.059 6.7 2.66 9.94
4/25/2022 8:45:00 PM 13.93 57.074 0.059 6.69 2.75 9.95
4/25/2022 9:00:00 PM 13.82 56.876 0.059 6.69 2.81 9.98
4/25/2022 9:15:00 PM 13.72 56.696 0.059 6.69 2.82 10
4/25/2022 9:30:00 PM 13.62 56.516 0.059 6.69 2.86 10.03
4/25/2022 9:45:00 PM 13.54 56.372 0.059 6.69 2.85 10.06
4/25/2022 10:00:00 PM 13.45 56.21 0.059 6.68 2.83 10.08
4/25/2022 10:15:00 PM 13.38 56.084 0.059 6.68 3.05 10.1
4/25/2022 10:30:00 PM 13.3 55.94 0.059 6.68 2.98 10.11
4/25/2022 10:45:00 PM 13.23 55.814 0.06 6.68 2.82 10.13
4/25/2022 11:00:00 PM 13.16 55.688 0.059 6.68 2.9 10.15
4/25/2022 11:15:00 PM 13.1 55.58 0.059 6.68 2.9 10.16
4/25/2022 11:30:00 PM 13.03 55.454 0.06 6.68 2.84 10.18
4/25/2022 11:45:00 PM 12.97 55.346 0.059 6.68 2.96 10.19
4/26/2022 12:00:00 AM 12.91 55.238 0.059 6.67 3.06 10.2
4/26/2022 12:15:00 AM 12.85 55.13 0.059 6.67 2.97 10.21
4/26/2022 12:30:00 AM 12.8 55.04 0.059 6.66 2.89 10.22
4/26/2022 12:45:00 AM 12.74 54.932 0.059 6.67 2.93 10.23
4/26/2022 1:00:00 AM 12.69 54.842 0.059 6.66 2.88 10.24
4/26/2022 1:15:00 AM 12.65 54.77 0.059 6.66 2.98 10.26
4/26/2022 1:30:00 AM 12.6 54.68 0.059 6.67 2.88 10.27
4/26/2022 1:45:00 AM 12.56 54.608 0.059 6.67 2.92 10.28
4/26/2022 2:00:00 AM 12.52 54.536 0.059 6.66 2.97 10.29
4/26/2022 2:15:00 AM 12.47 54.446 0.059 6.67 2.93 10.3
4/26/2022 2:30:00 AM 12.43 54.374 0.059 6.66 3.02 10.32
4/26/2022 2:45:00 AM 12.4 54.32 0.059 6.66 3.34 10.33
4/26/2022 3:00:00 AM 12.36 54.248 0.059 6.66 3.15 10.33
4/26/2022 3:15:00 AM 12.32 54.176 0.059 6.65 3.12 10.34
4/26/2022 3:30:00 AM 12.28 54.104 0.059 6.65 3.39 10.35
4/26/2022 3:45:00 AM 12.24 54.032 0.059 6.64 3.23 10.36
4/26/2022 4:00:00 AM 12.21 53.978 0.059 6.65 3.27 10.37
4/26/2022 4:15:00 AM 12.18 53.924 0.059 6.65 3.39 10.38
4/26/2022 4:30:00 AM 12.14 53.852 0.059 6.65 3.41 10.39
4/26/2022 4:45:00 AM 12.11 53.798 0.059 6.64 3.92 10.4
4/26/2022 5:00:00 AM 12.07 53.726 0.059 6.65 3.84 10.41
4/26/2022 5:15:00 AM 12.04 53.672 0.059 6.66 3.98 10.42
4/26/2022 5:30:00 AM 12 53.6 0.06 6.67 4.06 10.43
4/26/2022 5:45:00 AM 11.97 53.546 0.06 6.68 4.09 10.44
4/26/2022 6:00:00 AM 11.93 53.474 0.06 6.68 3.94 10.45
4/26/2022 6:15:00 AM 11.9 53.42 0.06 6.68 3.75 10.46
4/26/2022 6:30:00 AM 11.87 53.366 0.058 6.68 3.52 10.47
4/26/2022 6:45:00 AM 11.84 53.312 0.059 6.67 3.48 10.49
4/26/2022 7:00:00 AM 11.81 53.258 0.059 6.67 3.32 10.51
4/26/2022 7:15:00 AM 11.78 53.204 0.06 6.67 3.25 10.53
4/26/2022 7:30:00 AM 11.76 53.168 0.06 6.68 3.25 10.56
4/26/2022 7:45:00 AM 11.74 53.132 0.06 6.68 3.21 10.58
4/26/2022 8:00:00 AM 11.73 53.114 0.06 6.68 3.27 10.59
4/26/2022 8:15:00 AM 11.71 53.078 0.061 6.69 3.1 10.6
4/26/2022 8:30:00 AM 11.7 53.06 0.061 6.69 3.03 10.62
4/26/2022 8:45:00 AM 11.69 53.042 0.061 6.7 2.91 10.64
4/26/2022 9:00:00 AM 11.69 53.042 0.061 6.69 2.9 10.65
4/26/2022 9:15:00 AM 11.7 53.06 0.061 6.7 2.84 10.67
4/26/2022 9:30:00 AM 11.72 53.096 0.061 6.71 2.75 10.68
4/26/2022 9:45:00 AM 11.73 53.114 0.061 6.71 2.79 10.68
4/26/2022 10:00:00 AM 11.75 53.15 0.061 6.71 2.74 10.68
4/26/2022 10:15:00 AM 11.76 53.168 0.061 6.71 2.71 10.68
4/26/2022 10:30:00 AM 11.77 53.186 0.061 6.72 2.73 10.68
4/26/2022 10:45:00 AM 11.8 53.24 0.061 6.72 2.69 10.68
4/26/2022 11:00:00 AM 11.8 53.24 0.061 6.72 2.63 10.68
4/26/2022 11:15:00 AM 11.84 53.312 0.061 6.72 2.64 10.69
4/26/2022 11:30:00 AM 11.84 53.312 0.061 6.72 2.6 10.69
4/26/2022 11:45:00 AM 11.85 53.33 0.061 6.72 2.56 10.68
4/26/2022 12:00:00 PM 11.91 53.438 0.061 6.73 2.55 10.68
4/26/2022 12:15:00 PM 11.93 53.474 0.061 6.72 2.56 10.68
4/26/2022 12:30:00 PM 11.96 53.528 0.06 6.73 2.53 10.67
4/26/2022 12:45:00 PM 11.99 53.582 0.06 6.73 2.6 10.66
4/26/2022 1:00:00 PM 11.97 53.546 0.06 6.73 2.6 10.65
4/26/2022 1:15:00 PM 11.94 53.492 0.06 6.72 2.57 10.64
4/26/2022 1:30:00 PM 11.93 53.474 0.06 6.72 2.57 10.63
4/26/2022 1:45:00 PM 11.9 53.42 0.06 6.72 2.52 10.63
4/26/2022 2:00:00 PM 11.9 53.42 0.06 6.72 2.48 10.64
4/26/2022 2:15:00 PM 11.86 53.348 0.06 6.72 2.48 10.62
4/26/2022 2:30:00 PM 11.84 53.312 0.06 6.72 2.49 10.63
4/26/2022 2:45:00 PM 11.81 53.258 0.06 6.71 2.5 10.63
4/26/2022 3:00:00 PM 11.82 53.276 0.06 6.72 2.47 10.65
4/26/2022 3:15:00 PM 11.8 53.24 0.06 6.72 2.48 10.66
4/26/2022 3:30:00 PM 11.79 53.222 0.06 6.72 2.52 10.65
4/26/2022 3:45:00 PM 11.76 53.168 0.06 6.72 2.48 10.65
4/26/2022 4:00:00 PM 11.72 53.096 0.06 6.72 2.46 10.65
4/26/2022 4:15:00 PM 11.7 53.06 0.06 6.72 2.47 10.65
4/26/2022 4:30:00 PM 11.67 53.006 0.06 6.72 2.48 10.66
4/26/2022 4:45:00 PM 11.65 52.97 0.06 6.72 2.44 10.67
4/26/2022 5:00:00 PM 11.63 52.934 0.06 6.72 2.46 10.68
4/26/2022 5:15:00 PM 11.61 52.898 0.06 6.72 2.41 10.69
4/26/2022 5:30:00 PM 11.59 52.862 0.06 6.72 2.4 10.7
4/26/2022 5:45:00 PM 11.54 52.772 0.06 6.72 2.44 10.7
4/26/2022 6:00:00 PM 11.5 52.7 0.06 6.72 2.43 10.69
4/26/2022 6:15:00 PM 11.46 52.628 0.06 6.72 2.39 10.69
4/26/2022 6:30:00 PM 11.4 52.52 0.06 6.72 2.37 10.71
4/26/2022 6:45:00 PM 11.35 52.43 0.06 6.72 2.4 10.71
4/26/2022 7:00:00 PM 11.29 52.322 0.06 6.71 2.4 10.72
4/26/2022 7:15:00 PM 11.23 52.214 0.06 6.71 2.41 10.7
4/26/2022 7:30:00 PM 11.16 52.088 0.06 6.7 2.39 10.7
4/26/2022 7:45:00 PM 11.09 51.962 0.06 6.7 2.43 10.7
4/26/2022 8:00:00 PM 11.01 51.818 0.06 6.69 2.39 10.7
4/26/2022 8:15:00 PM 10.92 51.656 0.06 6.69 2.52 10.7
4/26/2022 8:30:00 PM 10.84 51.512 0.06 6.69 2.46 10.71
4/26/2022 8:45:00 PM 10.77 51.386 0.06 6.67 2.46 10.72
4/26/2022 9:00:00 PM 10.69 51.242 0.06 6.68 2.58 10.74
4/26/2022 9:15:00 PM 10.61 51.098 0.06 6.68 2.56 10.76
4/26/2022 9:30:00 PM 10.54 50.972 0.06 6.67 2.58 10.78
4/26/2022 9:45:00 PM 10.47 50.846 0.06 6.68 2.69 10.81
4/26/2022 10:00:00 PM 10.39 50.702 0.06 6.67 2.6 10.82
4/26/2022 10:15:00 PM 10.3 50.54 0.06 6.67 2.61 10.84
4/26/2022 10:30:00 PM 10.23 50.414 0.06 6.67 2.57 10.86
4/26/2022 10:45:00 PM 10.14 50.252 0.06 6.67 2.59 10.88
4/26/2022 11:00:00 PM 10.08 50.144 0.06 6.67 2.63 10.9
4/26/2022 11:15:00 PM 10.01 50.018 0.06 6.67 2.7 10.93
4/26/2022 11:30:00 PM 9.95 49.91 0.06 6.67 2.58 10.95
4/26/2022 11:45:00 PM 9.89 49.802 0.06 6.67 2.54 10.97
4/27/2022 12:00:00 AM 9.82 49.676 0.06 6.67 2.62 10.99
4/27/2022 12:15:00 AM 9.75 49.55 0.06 6.67 2.58 11
4/27/2022 12:30:00 AM 9.68 49.424 0.06 6.66 2.56 11.01
4/27/2022 12:45:00 AM 9.62 49.316 0.06 6.66 2.6 11.03
4/27/2022 1:00:00 AM 9.56 49.208 0.06 6.66 2.5 11.05
4/27/2022 1:15:00 AM 9.5 49.1 0.06 6.67 2.6 11.06
4/27/2022 1:30:00 AM 9.45 49.01 0.06 6.66 2.58 11.08
4/27/2022 1:45:00 AM 9.4 48.92 0.06 6.67 2.54 11.09
4/27/2022 2:00:00 AM 9.34 48.812 0.06 6.66 2.5 11.1
4/27/2022 2:15:00 AM 9.28 48.704 0.06 6.66 2.5 11.12
4/27/2022 2:30:00 AM 9.22 48.596 0.06 6.66 2.49 11.14
4/27/2022 2:45:00 AM 9.16 48.488 0.06 6.66 2.52 11.16
4/27/2022 3:00:00 AM 9.09 48.362 0.06 6.66 5.93 11.17
4/27/2022 3:15:00 AM 9.03 48.254 0.06 6.66 3.21 11.18
4/27/2022 3:30:00 AM 8.97 48.146 0.06 6.65 2.84 11.21
4/27/2022 3:45:00 AM 8.92 48.056 0.06 6.66 2.73 11.22
4/27/2022 4:00:00 AM 8.87 47.966 0.06 6.66 2.67 11.23
4/27/2022 4:15:00 AM 8.81 47.858 0.06 6.66 2.73 11.25
4/27/2022 4:30:00 AM 8.76 47.768 0.06 6.66 3.55 11.26
4/27/2022 4:45:00 AM 8.7 47.66 0.06 6.66 2.66 11.28
4/27/2022 5:00:00 AM 8.65 47.57 0.06 6.65 2.49 11.3
4/27/2022 5:15:00 AM 8.56 47.408 0.06 6.66 2.45 11.31
4/27/2022 5:30:00 AM 8.51 47.318 0.06 6.65 2.51 11.33
4/27/2022 5:45:00 AM 8.46 47.228 0.06 6.65 2.46 11.34
4/27/2022 6:00:00 AM 8.42 47.156 0.06 6.66 2.43 11.36
4/27/2022 6:15:00 AM 8.37 47.066 0.06 6.65 2.45 11.37
4/27/2022 6:30:00 AM 8.33 46.994 0.06 6.65 2.41 11.39
4/27/2022 6:45:00 AM 8.29 46.922 0.06 6.65 2.39 11.41
4/27/2022 7:00:00 AM 8.26 46.868 0.06 6.66 2.44 11.43
4/27/2022 7:15:00 AM 8.21 46.778 0.06 6.66 2.46 11.45
4/27/2022 7:30:00 AM 8.17 46.706 0.06 6.66 2.36 11.47
4/27/2022 7:45:00 AM 8.13 46.634 0.06 6.66 2.48 11.5
4/27/2022 8:00:00 AM 8.09 46.562 0.06 6.67 2.36 11.53
4/27/2022 8:15:00 AM 8.03 46.454 0.06 6.67 2.4 11.54
4/27/2022 8:30:00 AM 7.97 46.346 0.06 6.67 2.37 11.56
4/27/2022 8:45:00 AM 7.97 46.346 0.06 6.68 2.36 11.59
4/27/2022 9:00:00 AM 7.97 46.346 0.06 6.69 2.36 11.63
4/27/2022 9:15:00 AM 7.97 46.346 0.06 6.69 2.39 11.65
4/27/2022 9:30:00 AM 7.97 46.346 0.06 6.69 2.29 11.66
4/27/2022 9:45:00 AM 7.94 46.292 0.06 6.69 2.3 11.66
4/27/2022 10:00:00 AM 8.03 46.454 0.06 6.7 2.36 11.68
4/27/2022 10:15:00 AM 8.1 46.58 0.06 6.7 2.27 11.68
4/27/2022 10:30:00 AM 8.14 46.652 0.06 6.7 2.25 11.67
4/27/2022 10:45:00 AM 8.19 46.742 0.06 6.71 2.22 11.66
4/27/2022 11:00:00 AM 8.16 46.688 0.06 6.7 2.25 11.64
4/27/2022 11:15:00 AM 8.14 46.652 0.06 6.7 2.27 11.63
4/27/2022 11:30:00 AM 8.15 46.67 0.06 6.7 2.32 11.63
4/27/2022 11:45:00 AM 8.15 46.67 0.06 6.7 2.26 11.63
4/27/2022 12:00:00 PM 8.12 46.616 0.06 6.7 2.26 11.63
4/27/2022 12:15:00 PM 8.2 46.76 0.06 6.71 2.29 11.64
4/27/2022 12:30:00 PM 8.18 46.724 0.06 6.7 2.24 11.65
4/27/2022 12:45:00 PM 8.17 46.706 0.06 6.71 2.24 11.65
4/27/2022 1:00:00 PM 8.18 46.724 0.06 6.7 2.25 11.64
4/27/2022 1:15:00 PM 8.14 46.652 0.06 6.7 2.23 11.63
4/27/2022 1:30:00 PM 8.22 46.796 0.06 6.7 2.25 11.64
4/27/2022 1:45:00 PM 8.21 46.778 0.06 6.71 2.24 11.63
4/27/2022 2:00:00 PM 8.22 46.796 0.06 6.7 2.21 11.64
4/27/2022 2:15:00 PM 8.2 46.76 0.06 6.7 2.22 11.62
4/27/2022 2:30:00 PM 8.17 46.706 0.06 6.71 2.21 11.63
4/27/2022 2:45:00 PM 8.14 46.652 0.06 6.7 2.23 11.64
4/27/2022 3:00:00 PM 8.1 46.58 0.06 6.71 2.23 11.64
4/27/2022 3:15:00 PM 8.08 46.544 0.06 6.7 2.24 11.65
4/27/2022 3:30:00 PM 8.11 46.598 0.06 6.7 2.22 11.66
4/27/2022 3:45:00 PM 8.08 46.544 0.06 6.71 2.22 11.67
4/27/2022 4:00:00 PM 8.07 46.526 0.06 6.7 2.25 11.67
4/27/2022 4:15:00 PM 8.03 46.454 0.06 6.7 2.23 11.66
4/27/2022 4:30:00 PM 7.98 46.364 0.06 6.7 2.21 11.67
4/27/2022 4:45:00 PM 7.92 46.256 0.06 6.7 2.24 11.68
4/27/2022 5:00:00 PM 7.88 46.184 0.06 6.7 2.21 11.69
4/27/2022 5:15:00 PM 7.83 46.094 0.06 6.7 2.23 11.7
4/27/2022 5:30:00 PM 7.78 46.004 0.06 6.7 2.22 11.71
4/27/2022 5:45:00 PM 7.73 45.914 0.06 6.7 2.24 11.72
4/27/2022 6:00:00 PM 7.65 45.77 0.06 6.69 2.22 11.72
4/27/2022 6:15:00 PM 7.59 45.662 0.06 6.69 2.25 11.72
4/27/2022 6:30:00 PM 7.53 45.554 0.06 6.69 2.23 11.74
4/27/2022 6:45:00 PM 7.44 45.392 0.06 6.68 2.23 11.75
4/27/2022 7:00:00 PM 7.37 45.266 0.06 6.68 2.22 11.75
4/27/2022 7:15:00 PM 7.3 45.14 0.06 6.67 2.23 11.76
4/27/2022 7:30:00 PM 7.23 45.014 0.06 6.68 2.25 11.77
4/27/2022 7:45:00 PM 7.15 44.87 0.061 6.67 2.24 11.78
4/27/2022 8:00:00 PM 7.1 44.78 0.061 6.67 2.24 11.79
4/27/2022 8:15:00 PM 7.05 44.69 0.061 6.66 2.56 11.8
4/27/2022 8:30:00 PM 6.98 44.564 0.061 6.66 2.32 11.82
4/27/2022 8:45:00 PM 6.93 44.474 0.061 6.66 2.36 11.84
4/27/2022 9:00:00 PM 6.88 44.384 0.061 6.66 2.34 11.85
4/27/2022 9:15:00 PM 6.83 44.294 0.061 6.66 2.47 11.87
4/27/2022 9:30:00 PM 6.79 44.222 0.061 6.66 2.37 11.88
4/27/2022 9:45:00 PM 6.74 44.132 0.061 6.66 2.38 11.9
4/27/2022 10:00:00 PM 6.68 44.024 0.061 6.66 2.37 11.92
4/27/2022 10:15:00 PM 6.61 43.898 0.061 6.65 2.28 11.94
4/27/2022 10:30:00 PM 6.57 43.826 0.061 6.66 2.31 11.96
4/27/2022 10:45:00 PM 6.52 43.736 0.061 6.65 2.95 11.97
4/27/2022 11:00:00 PM 6.47 43.646 0.061 6.66 2.35 11.99
4/27/2022 11:15:00 PM 6.43 43.574 0.061 6.65 2.3 12
4/27/2022 11:30:00 PM 6.4 43.52 0.061 6.65 2.25 12.01
4/27/2022 11:45:00 PM 6.36 43.448 0.061 6.65 2.27 12.03
4/28/2022 12:00:00 AM 6.32 43.376 0.061 6.65 2.23 12.04
4/28/2022 12:15:00 AM 6.28 43.304 0.061 6.65 2.24 12.06
4/28/2022 12:30:00 AM 6.24 43.232 0.061 6.65 2.26 12.07
4/28/2022 12:45:00 AM 6.19 43.142 0.061 6.66 2.23 12.08
4/28/2022 1:00:00 AM 6.15 43.07 0.061 6.65 2.22 12.1
4/28/2022 1:15:00 AM 6.11 42.998 0.061 6.64 2.25 12.11
4/28/2022 1:30:00 AM 6.07 42.926 0.061 6.65 2.19 12.12
4/28/2022 1:45:00 AM 6.04 42.872 0.061 6.65 2.18 12.14
4/28/2022 2:00:00 AM 5.99 42.782 0.061 6.65 2.26 12.15
4/28/2022 2:15:00 AM 5.95 42.71 0.061 6.65 2.27 12.16
4/28/2022 2:30:00 AM 5.93 42.674 0.061 6.65 2.19 12.17
4/28/2022 2:45:00 AM 5.9 42.62 0.061 6.65 2.2 12.18
4/28/2022 3:00:00 AM 5.86 42.548 0.061 6.65 2.2 12.18
4/28/2022 3:15:00 AM 5.83 42.494 0.061 6.65 2.19 12.2
4/28/2022 3:30:00 AM 5.81 42.458 0.061 6.64 2.22 12.2
4/28/2022 3:45:00 AM 5.79 42.422 0.061 6.65 2.21 12.22
4/28/2022 4:00:00 AM 5.76 42.368 0.061 6.65 2.25 12.22
4/28/2022 4:15:00 AM 5.73 42.314 0.061 6.65 2.19 12.23
4/28/2022 4:30:00 AM 5.71 42.278 0.061 6.65 2.12 12.24
4/28/2022 4:45:00 AM 5.68 42.224 0.061 6.65 2.15 12.25
4/28/2022 5:00:00 AM 5.66 42.188 0.061 6.65 2.14 12.26
4/28/2022 5:15:00 AM 5.65 42.17 0.061 6.65 2.14 12.27
4/28/2022 5:30:00 AM 5.63 42.134 0.061 6.64 2.15 12.27
4/28/2022 5:45:00 AM 5.6 42.08 0.061 6.65 2.19 12.28
4/28/2022 6:00:00 AM 5.55 41.99 0.061 6.64 2.2 12.29
4/28/2022 6:15:00 AM 5.52 41.936 0.061 6.65 2.16 12.29
4/28/2022 6:30:00 AM 5.5 41.9 0.061 6.65 2.18 12.32
4/28/2022 6:45:00 AM 5.48 41.864 0.061 6.65 2.16 12.34
4/28/2022 7:00:00 AM 5.47 41.846 0.061 6.66 2.13 12.36
4/28/2022 7:15:00 AM 5.45 41.81 0.061 6.66 2.11 12.39
4/28/2022 7:30:00 AM 5.45 41.81 0.061 6.67 2.14 12.42
4/28/2022 7:45:00 AM 5.45 41.81 0.061 6.68 2.13 12.45
4/28/2022 8:00:00 AM 5.46 41.828 0.061 6.68 2.14 12.47
4/28/2022 8:15:00 AM 5.52 41.936 0.061 6.68 2.1 12.47
4/28/2022 8:30:00 AM 5.59 42.062 0.061 6.68 2.12 12.47
4/28/2022 8:45:00 AM 5.64 42.152 0.061 6.68 2.11 12.47
4/28/2022 9:00:00 AM 5.72 42.296 0.061 6.69 2.15 12.46
4/28/2022 9:15:00 AM 5.79 42.422 0.061 6.69 2.13 12.44
4/28/2022 9:30:00 AM 5.92 42.656 0.061 6.69 2.1 12.42
4/28/2022 9:45:00 AM 6.08 42.944 0.061 6.69 2.06 12.4
4/28/2022 10:00:00 AM 6.25 43.25 0.061 6.7 2.03 12.36
4/28/2022 10:15:00 AM 6.46 43.628 0.061 6.7 2.06 12.32
4/28/2022 10:30:00 AM 6.66 43.988 0.061 6.69 2.07 12.28
4/28/2022 10:45:00 AM 6.87 44.366 0.061 6.7 2.05 12.21
4/28/2022 11:00:00 AM 7.12 44.816 0.061 6.7 2.02 12.15
4/28/2022 11:15:00 AM 7.34 45.212 0.061 6.71 2.06 12.09
4/28/2022 11:30:00 AM 7.58 45.644 0.061 6.71 2.06 12.02
4/28/2022 11:45:00 AM 7.84 46.112 0.061 6.71 2.04 11.96
4/28/2022 12:00:00 PM 8.08 46.544 0.061 6.71 2.03 11.89
4/28/2022 12:15:00 PM 8.31 46.958 0.061 6.72 2.02 11.82
4/28/2022 12:30:00 PM 8.57 47.426 0.061 6.72 2 11.75
4/28/2022 12:45:00 PM 8.78 47.804 0.061 6.72 2 11.69
4/28/2022 1:00:00 PM 8.99 48.182 0.061 6.73 2.01 11.63
4/28/2022 1:15:00 PM 9.19 48.542 0.061 6.73 2.02 11.58
4/28/2022 1:30:00 PM 9.39 48.902 0.061 6.73 2.04 11.52
4/28/2022 1:45:00 PM 9.55 49.19 0.061 6.73 2.05 11.46
4/28/2022 2:00:00 PM 9.72 49.496 0.061 6.73 2.02 11.41
4/28/2022 2:15:00 PM 9.86 49.748 0.061 6.73 2.01 11.36
4/28/2022 2:30:00 PM 9.98 49.964 0.061 6.73 2.04 11.31
4/28/2022 2:45:00 PM 10.09 50.162 0.061 6.73 2.01 11.27
4/28/2022 3:00:00 PM 10.19 50.342 0.061 6.73 2.03 11.23
4/28/2022 3:15:00 PM 10.23 50.414 0.061 6.73 2.04 11.2
4/28/2022 3:30:00 PM 10.28 50.504 0.061 6.73 2.03 11.17
4/28/2022 3:45:00 PM 10.3 50.54 0.061 6.74 2.09 11.15
4/28/2022 4:00:00 PM 10.32 50.576 0.061 6.73 2.09 11.13
4/28/2022 4:15:00 PM 10.28 50.504 0.061 6.73 2.08 11.11
4/28/2022 4:30:00 PM 10.25 50.45 0.061 6.73 2.1 11.09
4/28/2022 4:45:00 PM 10.22 50.396 0.061 6.73 2.1 11.08
4/28/2022 5:00:00 PM 10.18 50.324 0.061 6.73 2.12 11.07
4/28/2022 5:15:00 PM 10.12 50.216 0.061 6.73 2.13 11.07
4/28/2022 5:30:00 PM 10.07 50.126 0.061 6.72 2.14 11.07
4/28/2022 5:45:00 PM 10.01 50.018 0.061 6.73 2.13 11.07
4/28/2022 6:00:00 PM 9.93 49.874 0.061 6.72 2.13 11.08
4/28/2022 6:15:00 PM 9.84 49.712 0.061 6.72 2.13 11.09
4/28/2022 6:30:00 PM 9.73 49.514 0.061 6.72 2.12 11.11
4/28/2022 6:45:00 PM 9.62 49.316 0.061 6.72 2.15 11.12
4/28/2022 7:00:00 PM 9.51 49.118 0.061 6.72 2.15 11.15
4/28/2022 7:15:00 PM 9.38 48.884 0.061 6.72 2.17 11.18
4/28/2022 7:30:00 PM 9.22 48.596 0.061 6.71 2.16 11.21
4/28/2022 7:45:00 PM 9.07 48.326 0.061 6.71 2.17 11.24
4/28/2022 8:00:00 PM 8.93 48.074 0.061 6.71 2.18 11.27
4/28/2022 8:15:00 PM 8.8 47.84 0.061 6.7 2.22 11.29
4/28/2022 8:30:00 PM 8.66 47.588 0.061 6.69 2.21 11.32
4/28/2022 8:45:00 PM 8.52 47.336 0.061 6.69 2.22 11.36
4/28/2022 9:00:00 PM 8.38 47.084 0.061 6.68 2.31 11.38
4/28/2022 9:15:00 PM 8.25 46.85 0.061 6.68 2.31 11.42
4/28/2022 9:30:00 PM 8.12 46.616 0.061 6.67 2.3 11.46
4/28/2022 9:45:00 PM 7.99 46.382 0.061 6.68 2.28 11.5
4/28/2022 10:00:00 PM 7.88 46.184 0.061 6.67 2.26 11.54
4/28/2022 10:15:00 PM 7.77 45.986 0.061 6.68 2.25 11.57
4/28/2022 10:30:00 PM 7.66 45.788 0.061 6.67 2.31 11.6
4/28/2022 10:45:00 PM 7.56 45.608 0.062 6.67 2.3 11.63
4/28/2022 11:00:00 PM 7.45 45.41 0.061 6.66 2.4 11.67
4/28/2022 11:15:00 PM 7.34 45.212 0.062 6.66 2.25 11.7
4/28/2022 11:30:00 PM 7.25 45.05 0.062 6.67 2.18 11.73
4/28/2022 11:45:00 PM 7.14 44.852 0.061 6.66 2.22 11.76
4/29/2022 12:00:00 AM 7.04 44.672 0.061 6.67 2.22 11.8
4/29/2022 12:15:00 AM 6.94 44.492 0.062 6.66 2.17 11.82
4/29/2022 12:30:00 AM 6.84 44.312 0.061 6.66 2.2 11.86
4/29/2022 12:45:00 AM 6.75 44.15 0.062 6.66 2.17 11.89
4/29/2022 1:00:00 AM 6.66 43.988 0.062 6.66 2.12 11.92
4/29/2022 1:15:00 AM 6.57 43.826 0.062 6.66 2.1 11.94
4/29/2022 1:30:00 AM 6.5 43.7 0.062 6.65 2.09 11.97
4/29/2022 1:45:00 AM 6.41 43.538 0.062 6.65 2.27 11.99
4/29/2022 2:00:00 AM 6.33 43.394 0.062 6.65 2 12.02
4/29/2022 2:15:00 AM 6.25 43.25 0.062 6.65 1.95 12.05
4/29/2022 2:30:00 AM 6.17 43.106 0.062 6.64 1.9 12.07
4/29/2022 2:45:00 AM 6.1 42.98 0.062 6.65 1.91 12.1
4/29/2022 3:00:00 AM 6.02 42.836 0.062 6.64 1.91 12.12
4/29/2022 3:15:00 AM 5.94 42.692 0.062 6.65 1.89 12.15
4/29/2022 3:30:00 AM 5.86 42.548 0.062 6.64 1.86 12.17
4/29/2022 3:45:00 AM 5.79 42.422 0.062 6.64 1.86 12.19
4/29/2022 4:00:00 AM 5.72 42.296 0.062 6.65 1.88 12.22
4/29/2022 4:15:00 AM 5.65 42.17 0.062 6.64 1.89 12.24
4/29/2022 4:30:00 AM 5.58 42.044 0.062 6.64 1.86 12.26
4/29/2022 4:45:00 AM 5.51 41.918 0.062 6.64 2.87 12.29
4/29/2022 5:00:00 AM 5.44 41.792 0.062 6.64 4.78 12.31
4/29/2022 5:15:00 AM 5.38 41.684 0.062 6.64 5.29 12.34
4/29/2022 5:30:00 AM 5.31 41.558 0.062 6.64 5.55 12.36
4/29/2022 5:45:00 AM 5.24 41.432 0.062 6.64 5.18 12.38
4/29/2022 6:00:00 AM 5.18 41.324 0.062 6.64 5.38 12.41
4/29/2022 6:15:00 AM 5.11 41.198 0.062 6.64 4.27 12.42
4/29/2022 6:30:00 AM 5.06 41.108 0.062 6.63 3.51 12.45
4/29/2022 6:45:00 AM 5 41 0.062 6.63 4.64 12.49
4/29/2022 7:00:00 AM 4.96 40.928 0.062 6.63 4.77 12.53
4/29/2022 7:15:00 AM 4.92 40.856 0.062 6.61 18.23 12.57
4/29/2022 7:30:00 AM 4.92 40.856 0.062 6.53 8.48 12.6
4/29/2022 7:45:00 AM 4.93 40.874 0.062 6.49 5.61 12.63
4/29/2022 8:00:00 AM 4.96 40.928 0.062 6.51 3.14 12.65
4/29/2022 8:15:00 AM 4.99 40.982 0.062 6.54 2.81 12.66
4/29/2022 8:30:00 AM 5.04 41.072 0.062 6.59 2.32 12.67
4/29/2022 8:45:00 AM 5.1 41.18 0.062 6.62 2.13 12.67
4/29/2022 9:00:00 AM 5.19 41.342 0.062 6.64 2.11 12.66
4/29/2022 9:15:00 AM 5.35 41.63 0.062 6.65 2.1 12.64
4/29/2022 9:30:00 AM 5.54 41.972 0.062 6.67 2.1 12.61
4/29/2022 9:45:00 AM 5.76 42.368 0.062 6.68 2.07 12.55
4/29/2022 10:00:00 AM 6 42.8 0.062 6.68 2.1 12.5
4/29/2022 10:15:00 AM 6.23 43.214 0.062 6.69 2.12 12.44
4/29/2022 10:30:00 AM 6.49 43.682 0.062 6.7 2.16 12.38
4/29/2022 10:45:00 AM 6.72 44.096 0.062 6.7 2.11 12.32
4/29/2022 11:00:00 AM 6.98 44.564 0.062 6.71 2.15 12.24
4/29/2022 11:15:00 AM 7.26 45.068 0.062 6.71 2.14 12.17
4/29/2022 11:30:00 AM 7.55 45.59 0.062 6.72 2.09 12.09
4/29/2022 11:45:00 AM 7.84 46.112 0.062 6.72 2.09 12
4/29/2022 12:00:00 PM 8.13 46.634 0.062 6.73 2.07 11.92
4/29/2022 12:15:00 PM 8.41 47.138 0.062 6.73 2.05 11.84
4/29/2022 12:30:00 PM 8.69 47.642 0.062 6.73 2.09 11.77
4/29/2022 12:45:00 PM 8.93 48.074 0.062 6.73 2.1 11.69
4/29/2022 1:00:00 PM 9.2 48.56 0.062 6.74 2.08 11.62
4/29/2022 1:15:00 PM 9.45 49.01 0.062 6.74 2.04 11.54
4/29/2022 1:30:00 PM 9.68 49.424 0.062 6.74 2.04 11.47
4/29/2022 1:45:00 PM 9.89 49.802 0.062 6.74 2.05 11.41
4/29/2022 2:00:00 PM 10.07 50.126 0.062 6.75 2.08 11.35
4/29/2022 2:15:00 PM 10.23 50.414 0.062 6.75 2.07 11.29
4/29/2022 2:30:00 PM 10.38 50.684 0.062 6.75 2.04 11.24
4/29/2022 2:45:00 PM 10.52 50.936 0.062 6.75 2.34 11.19
4/29/2022 3:00:00 PM 10.64 51.152 0.062 6.75 2.08 11.15
4/29/2022 3:15:00 PM 10.72 51.296 0.062 6.75 2.11 11.11
4/29/2022 3:30:00 PM 10.8 51.44 0.062 6.75 2.11 11.07
4/29/2022 3:45:00 PM 10.85 51.53 0.062 6.75 2.09 11.04
4/29/2022 4:00:00 PM 10.85 51.53 0.062 6.75 2.11 11.01
4/29/2022 4:15:00 PM 10.87 51.566 0.062 6.75 2.13 10.99
4/29/2022 4:30:00 PM 10.85 51.53 0.062 6.75 2.11 10.96
4/29/2022 4:45:00 PM 10.83 51.494 0.062 6.75 2.13 10.94
4/29/2022 5:00:00 PM 10.79 51.422 0.062 6.75 2.26 10.93
4/29/2022 5:15:00 PM 10.74 51.332 0.062 6.75 2.22 10.92
4/29/2022 5:30:00 PM 10.7 51.26 0.062 6.74 3230.09 10.91
4/29/2022 5:45:00 PM 10.67 51.206 0.062 6.74 436.22 10.91
4/29/2022 6:00:00 PM 10.61 51.098 0.062 6.74 63.45 10.91
4/29/2022 6:15:00 PM 10.54 50.972 0.062 6.74 11.63 10.91
4/29/2022 6:30:00 PM 10.47 50.846 0.062 6.73 4.41 10.92
4/29/2022 6:45:00 PM 10.37 50.666 0.062 6.74 3.38 10.93
4/29/2022 7:00:00 PM 10.28 50.504 0.062 6.74 3.37 10.95
4/29/2022 7:15:00 PM 10.18 50.324 0.062 6.73 3.34 10.96
4/29/2022 7:30:00 PM 10.06 50.108 0.062 6.72 3.27 10.98
4/29/2022 7:45:00 PM 9.93 49.874 0.062 6.73 3.31 11.01
4/29/2022 8:00:00 PM 9.8 49.64 0.062 6.72 3.47 11.02
4/29/2022 8:15:00 PM 9.65 49.37 0.062 6.71 3.45 11.04
4/29/2022 8:30:00 PM 9.52 49.136 0.062 6.7 3.36 11.06
4/29/2022 8:45:00 PM 9.38 48.884 0.062 6.7 3.38 11.1
4/29/2022 9:00:00 PM 9.25 48.65 0.062 6.69 3.43 11.13
4/29/2022 9:15:00 PM 9.12 48.416 0.062 6.69 3.56 11.16
4/29/2022 9:30:00 PM 8.99 48.182 0.062 6.69 3.37 11.2
4/29/2022 9:45:00 PM 8.86 47.948 0.062 6.68 3.67 11.23
4/29/2022 10:00:00 PM 8.73 47.714 0.062 6.68 3.39 11.27
4/29/2022 10:15:00 PM 8.62 47.516 0.062 6.68 2.57 11.31
4/29/2022 10:30:00 PM 8.5 47.3 0.062 6.69 3.93 11.34
4/29/2022 10:45:00 PM 8.39 47.102 0.062 6.68 3.89 11.37
4/29/2022 11:00:00 PM 8.28 46.904 0.062 6.68 4.28 11.4
4/29/2022 11:15:00 PM 8.17 46.706 0.062 6.67 45.79 11.44
4/29/2022 11:30:00 PM 8.06 46.508 0.062 6.68 11.5 11.47
4/29/2022 11:45:00 PM 7.95 46.31 0.062 6.68 4.66 11.5
4/30/2022 12:00:00 AM 7.85 46.13 0.062 6.68 2.98 11.53
4/30/2022 12:15:00 AM 7.74 45.932 0.062 6.67 3.46 11.56
4/30/2022 12:30:00 AM 7.64 45.752 0.062 6.68 2.68 11.59
4/30/2022 12:45:00 AM 7.54 45.572 0.062 6.67 2.59 11.62
4/30/2022 1:00:00 AM 7.44 45.392 0.062 6.67 2.51 11.64
4/30/2022 1:15:00 AM 7.35 45.23 0.062 6.67 2.53 11.68
4/30/2022 1:30:00 AM 7.26 45.068 0.062 6.67 2.52 11.71
4/30/2022 1:45:00 AM 7.16 44.888 0.062 6.67 2.6 11.73
4/30/2022 2:00:00 AM 7.06 44.708 0.062 6.67 2.54 11.76
4/30/2022 2:15:00 AM 6.98 44.564 0.062 6.66 13.23 11.79
4/30/2022 2:30:00 AM 6.88 44.384 0.062 6.67 4.02 11.82
4/30/2022 2:45:00 AM 6.8 44.24 0.062 6.66 22.54 11.85
4/30/2022 3:00:00 AM 6.72 44.096 0.062 6.66 5.2 11.88
4/30/2022 3:15:00 AM 6.64 43.952 0.062 6.66 3.83 11.91
4/30/2022 3:30:00 AM 6.56 43.808 0.062 6.66 4.19 11.93
4/30/2022 3:45:00 AM 6.48 43.664 0.063 6.66 2.7 11.95
4/30/2022 4:00:00 AM 6.4 43.52 0.063 6.66 2.51 11.97
4/30/2022 4:15:00 AM 6.32 43.376 0.063 6.66 2.35 12.01
4/30/2022 4:30:00 AM 6.24 43.232 0.063 6.65 2.4 12.03
4/30/2022 4:45:00 AM 6.17 43.106 0.063 6.66 2.41 12.06
4/30/2022 5:00:00 AM 6.1 42.98 0.063 6.65 2.44 12.08
4/30/2022 5:15:00 AM 6.03 42.854 0.063 6.66 2.43 12.1
4/30/2022 5:30:00 AM 5.96 42.728 0.063 6.66 2.38 12.13
4/30/2022 5:45:00 AM 5.88 42.584 0.063 6.66 2.39 12.14
4/30/2022 6:00:00 AM 5.81 42.458 0.063 6.65 2.35 12.17
4/30/2022 6:15:00 AM 5.75 42.35 0.063 6.66 2.39 12.19
4/30/2022 6:30:00 AM 5.7 42.26 0.063 6.65 2.37 12.23
4/30/2022 6:45:00 AM 5.64 42.152 0.063 6.66 2.37 12.26
4/30/2022 7:00:00 AM 5.59 42.062 0.063 6.66 2.35 12.3
4/30/2022 7:15:00 AM 5.56 42.008 0.063 6.67 2.31 12.33
4/30/2022 7:30:00 AM 5.55 41.99 0.063 6.67 2.34 12.37
4/30/2022 7:45:00 AM 5.55 41.99 0.063 6.68 2.34 12.4
4/30/2022 8:00:00 AM 5.58 42.044 0.063 6.69 2.34 12.42
4/30/2022 8:15:00 AM 5.62 42.116 0.063 6.68 2.38 12.43
4/30/2022 8:30:00 AM 5.67 42.206 0.063 6.69 2.41 12.44
4/30/2022 8:45:00 AM 5.74 42.332 0.063 6.69 2.35 12.44
4/30/2022 9:00:00 AM 5.83 42.494 0.063 6.7 2.31 12.43
4/30/2022 9:15:00 AM 5.98 42.764 0.062 6.7 2.31 12.41
4/30/2022 9:30:00 AM 6.17 43.106 0.062 6.71 2.26 12.38
4/30/2022 9:45:00 AM 6.41 43.538 0.062 6.71 2.28 12.33
4/30/2022 10:00:00 AM 6.66 43.988 0.062 6.71 2.44 12.28
4/30/2022 10:15:00 AM 6.92 44.456 0.062 6.72 2.3 12.22
4/30/2022 10:30:00 AM 7.2 44.96 0.062 6.72 2.24 12.15
4/30/2022 10:45:00 AM 7.47 45.446 0.062 6.73 2.25 12.08
4/30/2022 11:00:00 AM 7.77 45.986 0.062 6.73 2.22 12
4/30/2022 11:15:00 AM 8.06 46.508 0.062 6.74 2.34 11.93
4/30/2022 11:30:00 AM 8.34 47.012 0.062 6.74 2.28 11.85
4/30/2022 11:45:00 AM 8.65 47.57 0.062 6.74 2.23 11.77
4/30/2022 12:00:00 PM 8.96 48.128 0.062 6.75 2.26 11.67
4/30/2022 12:15:00 PM 9.26 48.668 0.062 6.75 2.77 11.6
4/30/2022 12:30:00 PM 9.57 49.226 0.062 6.75 2.35 11.51
4/30/2022 12:45:00 PM 9.83 49.694 0.062 6.75 2.91 11.44
4/30/2022 1:00:00 PM 10.11 50.198 0.062 6.76 2.25 11.37
4/30/2022 1:15:00 PM 10.41 50.738 0.062 6.75 2.14 11.3
4/30/2022 1:30:00 PM 10.67 51.206 0.062 6.76 2.15 11.23
4/30/2022 1:45:00 PM 10.88 51.584 0.062 6.76 2.17 11.16
4/30/2022 2:00:00 PM 11.06 51.908 0.063 6.76 2.15 11.09
4/30/2022 2:15:00 PM 11.23 52.214 0.062 6.76 2.16 11.04
4/30/2022 2:30:00 PM 11.39 52.502 0.063 6.76 2.17 10.99
4/30/2022 2:45:00 PM 11.53 52.754 0.063 6.76 2.17 10.93
4/30/2022 3:00:00 PM 11.65 52.97 0.063 6.76 2.16 10.89
4/30/2022 3:15:00 PM 11.73 53.114 0.063 6.76 2.19 10.85
4/30/2022 3:30:00 PM 11.78 53.204 0.063 6.76 2.18 10.82
4/30/2022 3:45:00 PM 11.85 53.33 0.063 6.76 2.28 10.78
4/30/2022 4:00:00 PM 11.79 53.222 0.063 6.76 2.23 10.76
4/30/2022 4:15:00 PM 11.83 53.294 0.063 6.76 2.21 10.74
4/30/2022 4:30:00 PM 11.85 53.33 0.063 6.76 2.22 10.73
4/30/2022 4:45:00 PM 11.81 53.258 0.063 6.76 2.25 10.71
4/30/2022 5:00:00 PM 11.82 53.276 0.063 6.76 2.22 10.7
4/30/2022 5:15:00 PM 11.82 53.276 0.063 6.76 2.28 10.69
4/30/2022 5:30:00 PM 11.82 53.276 0.063 6.76 2.25 10.68
4/30/2022 5:45:00 PM 11.78 53.204 0.063 6.76 2.19 10.68
4/30/2022 6:00:00 PM 11.7 53.06 0.063 6.76 2.27 10.68
4/30/2022 6:15:00 PM 11.6 52.88 0.063 6.75 2.28 10.67
4/30/2022 6:30:00 PM 11.51 52.718 0.063 6.75 2.27 10.67
4/30/2022 6:45:00 PM 11.43 52.574 0.063 6.75 2.28 10.69
4/30/2022 7:00:00 PM 11.33 52.394 0.063 6.74 2.31 10.69
4/30/2022 7:15:00 PM 11.23 52.214 0.063 6.74 2.29 10.7
4/30/2022 7:30:00 PM 11.11 51.998 0.063 6.74 2.29 10.71
4/30/2022 7:45:00 PM 11 51.8 0.063 6.72 2.3 10.71
4/30/2022 8:00:00 PM 10.88 51.584 0.063 6.72 2.37 10.71
4/30/2022 8:15:00 PM 10.75 51.35 0.063 6.71 2.53 10.73
4/30/2022 8:30:00 PM 10.62 51.116 0.063 6.7 2.81 10.75
4/30/2022 8:45:00 PM 10.49 50.882 0.063 6.7 2.56 10.78
4/30/2022 9:00:00 PM 10.37 50.666 0.063 6.7 2.46 10.79
4/30/2022 9:15:00 PM 10.25 50.45 0.063 6.69 2.44 10.82
4/30/2022 9:30:00 PM 10.14 50.252 0.063 6.69 4.39 10.84
4/30/2022 9:45:00 PM 10.02 50.036 0.063 6.69 3.29 10.88
4/30/2022 10:00:00 PM 9.89 49.802 0.063 6.69 9.03 10.91
4/30/2022 10:15:00 PM 9.77 49.586 0.063 6.69 8.57 10.93
4/30/2022 10:30:00 PM 9.66 49.388 0.063 6.69 14.74 10.96
4/30/2022 10:45:00 PM 9.55 49.19 0.063 6.69 9.4 10.99
4/30/2022 11:00:00 PM 9.42 48.956 0.063 6.69 5.83 11.02
4/30/2022 11:15:00 PM 9.31 48.758 0.063 6.69 11.87 11.06
4/30/2022 11:30:00 PM 9.2 48.56 0.063 6.69 4.47 11.09
4/30/2022 11:45:00 PM 9.09 48.362 0.063 6.69 45.74 11.12
5/1/2022 12:00:00 AM 8.98 48.164 0.063 6.68 8.83 11.15
5/1/2022 12:15:00 AM 8.87 47.966 0.063 6.68 7.66 11.18
5/1/2022 12:30:00 AM 8.76 47.768 0.063 6.68 3.3 11.21
5/1/2022 12:45:00 AM 8.65 47.57 0.063 6.68 2.81 11.24
5/1/2022 1:00:00 AM 8.55 47.39 0.063 6.68 2.55 11.27
5/1/2022 1:15:00 AM 8.45 47.21 0.063 6.68 2.8 11.3
5/1/2022 1:30:00 AM 8.36 47.048 0.063 6.67 2.73 11.32
5/1/2022 1:45:00 AM 8.27 46.886 0.063 6.67 3.9 11.35
5/1/2022 2:00:00 AM 8.17 46.706 0.063 6.68 4.02 11.38
5/1/2022 2:15:00 AM 8.08 46.544 0.063 6.67 2.25 11.41
5/1/2022 2:30:00 AM 8 46.4 0.063 6.68 2.39 11.43
5/1/2022 2:45:00 AM 7.91 46.238 0.063 6.67 2.39 11.46
5/1/2022 3:00:00 AM 7.83 46.094 0.063 6.67 2.44 11.48
5/1/2022 3:15:00 AM 7.76 45.968 0.063 6.67 2.37 11.51
5/1/2022 3:30:00 AM 7.69 45.842 0.063 6.67 2.4 11.52
5/1/2022 3:45:00 AM 7.61 45.698 0.063 6.67 2.57 11.54
5/1/2022 4:00:00 AM 7.55 45.59 0.063 6.67 3.34 11.57
5/1/2022 4:15:00 AM 7.49 45.482 0.063 6.67 2.42 11.59
5/1/2022 4:30:00 AM 7.44 45.392 0.063 6.67 354.18 11.61
5/1/2022 4:45:00 AM 7.41 45.338 0.063 6.67 51.95 11.62
5/1/2022 5:00:00 AM 7.36 45.248 0.063 6.67 9.51 11.64
5/1/2022 5:15:00 AM 7.01 44.618 0.061 6.4 2.18 11.18
5/1/2022 5:30:00 AM 7.24 45.032 0.063 6.63 2.21 11.6
5/1/2022 5:45:00 AM 7.25 45.05 0.063 6.67 2.35 11.67
5/1/2022 6:00:00 AM 7.21 44.978 0.063 6.67 2.79 11.68
5/1/2022 6:15:00 AM 7.17 44.906 0.063 6.67 2.51 11.7
5/1/2022 6:30:00 AM 7.13 44.834 0.063 6.67 2.28 11.72
5/1/2022 6:45:00 AM 7.1 44.78 0.063 6.67 2.32 11.75
5/1/2022 7:00:00 AM 7.08 44.744 0.063 6.68 2.46 11.77
5/1/2022 7:15:00 AM 7.09 44.762 0.063 6.68 2.3 11.8
5/1/2022 7:30:00 AM 7.11 44.798 0.063 6.69 2.27 11.83
5/1/2022 7:45:00 AM 7.14 44.852 0.063 6.7 2.5 11.85
5/1/2022 8:00:00 AM 7.14 44.852 0.063 6.69 2.5 11.84
5/1/2022 8:15:00 AM 7.15 44.87 0.063 6.7 2.43 11.84
5/1/2022 8:30:00 AM 7.17 44.906 0.063 6.7 2.3 11.85
5/1/2022 8:45:00 AM 7.22 44.996 0.063 6.71 2.41 11.86
5/1/2022 9:00:00 AM 7.29 45.122 0.063 6.71 2.46 11.87
5/1/2022 9:15:00 AM 7.51 45.518 0.063 6.72 2.45 11.86
5/1/2022 9:30:00 AM 7.63 45.734 0.063 6.72 2.75 11.84
5/1/2022 9:45:00 AM 7.71 45.878 0.063 6.73 2.45 11.82
5/1/2022 10:00:00 AM 7.77 45.986 0.063 6.73 2.51 11.79
5/1/2022 10:15:00 AM 7.84 46.112 0.063 6.73 2.37 11.77
5/1/2022 10:30:00 AM 7.96 46.328 0.063 6.74 2.44 11.75
5/1/2022 10:45:00 AM 8.06 46.508 0.063 6.74 2.71 11.72
5/1/2022 11:00:00 AM 8.21 46.778 0.063 6.74 1.94 11.7
5/1/2022 11:15:00 AM 8.34 47.012 0.063 6.75 1.89 11.66
5/1/2022 11:30:00 AM 8.51 47.318 0.063 6.75 1.87 11.63
5/1/2022 11:45:00 AM 8.54 47.372 0.063 6.75 1.86 11.59
5/1/2022 12:00:00 PM 8.51 47.318 0.063 6.75 1.97 11.54
5/1/2022 12:15:00 PM 8.52 47.336 0.063 6.75 2.1 11.5
5/1/2022 12:30:00 PM 8.53 47.354 0.063 6.74 2.18 11.48
5/1/2022 12:45:00 PM 8.56 47.408 0.063 6.75 2.06 11.48
5/1/2022 1:00:00 PM 8.57 47.426 0.063 6.74 1.98 11.47
5/1/2022 1:15:00 PM 8.59 47.462 0.063 6.74 2 11.47
5/1/2022 1:30:00 PM 8.61 47.498 0.063 6.74 1.96 11.46
5/1/2022 1:45:00 PM 8.63 47.534 0.063 6.74 2.06 11.46
5/1/2022 2:00:00 PM 8.66 47.588 0.063 6.74 2.07 11.46
5/1/2022 2:15:00 PM 8.75 47.75 0.063 6.75 2.1 11.47
5/1/2022 2:30:00 PM 8.75 47.75 0.062 6.75 2.05 11.44
5/1/2022 2:45:00 PM 8.81 47.858 0.062 6.75 2.11 11.44
5/1/2022 3:00:00 PM 8.82 47.876 0.063 6.75 2.08 11.42
5/1/2022 3:15:00 PM 8.83 47.894 0.062 6.75 2.09 11.4
5/1/2022 3:30:00 PM 8.84 47.912 0.062 6.75 2.15 11.39
5/1/2022 3:45:00 PM 8.85 47.93 0.062 6.74 2.27 11.37
5/1/2022 4:00:00 PM 8.9 48.02 0.062 6.74 2.36 11.38
5/1/2022 4:15:00 PM 8.94 48.092 0.062 6.75 2.39 11.38
5/1/2022 4:30:00 PM 8.95 48.11 0.062 6.75 2.5 11.37
5/1/2022 4:45:00 PM 8.96 48.128 0.062 6.75 2.8 11.35
5/1/2022 5:00:00 PM 8.95 48.11 0.062 6.74 2.88 11.33
5/1/2022 5:15:00 PM 8.95 48.11 0.062 6.74 3.14 11.32
5/1/2022 5:30:00 PM 8.97 48.146 0.062 6.74 3.77 11.32
5/1/2022 5:45:00 PM 8.99 48.182 0.063 6.75 3.87 11.31
5/1/2022 6:00:00 PM 9.02 48.236 0.063 6.75 4.04 11.32
5/1/2022 6:15:00 PM 9.07 48.326 0.063 6.75 5.34 11.32
5/1/2022 6:30:00 PM 9.09 48.362 0.063 6.76 5.36 11.31
5/1/2022 6:45:00 PM 9.09 48.362 0.063 6.75 5.25 11.29
5/1/2022 7:00:00 PM 9.11 48.398 0.064 6.75 4.84 11.26
5/1/2022 7:15:00 PM 9.12 48.416 0.064 6.75 4.75 11.24
5/1/2022 7:30:00 PM 9.12 48.416 0.064 6.75 4.81 11.22
5/1/2022 7:45:00 PM 9.11 48.398 0.064 6.74 5.08 11.2
5/1/2022 8:00:00 PM 9.1 48.38 0.065 6.73 5.28 11.18
5/1/2022 8:15:00 PM 9.09 48.362 0.065 6.73 5.03 11.17
5/1/2022 8:30:00 PM 9.08 48.344 0.065 6.73 5.6 11.17
5/1/2022 8:45:00 PM 9.07 48.326 0.065 6.72 5.41 11.16
5/1/2022 9:00:00 PM 9.07 48.326 0.066 6.71 4.65 11.16
5/1/2022 9:15:00 PM 9.07 48.326 0.066 6.71 4.58 11.15
5/1/2022 9:30:00 PM 9.08 48.344 0.066 6.71 4.56 11.16
5/1/2022 9:45:00 PM 9.09 48.362 0.067 6.71 4.77 11.15
5/1/2022 10:00:00 PM 9.08 48.344 0.067 6.71 4.66 11.15
5/1/2022 10:15:00 PM 9.07 48.326 0.067 6.7 4.54 11.15
5/1/2022 10:30:00 PM 9.06 48.308 0.067 6.69 4.54 11.16
5/1/2022 10:45:00 PM 9.05 48.29 0.068 6.69 5.68 11.16
5/1/2022 11:00:00 PM 9.05 48.29 0.068 6.69 19.05 11.16
5/1/2022 11:15:00 PM 9.04 48.272 0.068 6.69 94.96 11.16
5/1/2022 11:30:00 PM 9.04 48.272 0.068 6.69 23.52 11.16
5/1/2022 11:45:00 PM 9.02 48.236 0.068 6.68 8.35 11.16
5/2/2022 12:00:00 AM 9.02 48.236 0.068 6.68 4.59 11.16
5/2/2022 12:15:00 AM 9.03 48.254 0.068 6.68 4.47 11.16
5/2/2022 12:30:00 AM 9.02 48.236 0.068 6.68 4.1 11.16
5/2/2022 12:45:00 AM 9.01 48.218 0.068 6.67 4.37 11.17
5/2/2022 1:00:00 AM 9 48.2 0.068 6.67 3.76 11.16
5/2/2022 1:15:00 AM 9.01 48.218 0.068 6.67 4.55 11.16
5/2/2022 1:30:00 AM 8.99 48.182 0.068 6.67 4 11.16
5/2/2022 1:45:00 AM 8.99 48.182 0.068 6.67 4.37 11.16
5/2/2022 2:00:00 AM 8.98 48.164 0.068 6.67 3.96 11.16
5/2/2022 2:15:00 AM 8.98 48.164 0.068 6.67 4.47 11.17
5/2/2022 2:30:00 AM 8.97 48.146 0.068 6.66 5.2 11.17
5/2/2022 2:45:00 AM 8.97 48.146 0.068 6.66 4.55 11.16
5/2/2022 3:00:00 AM 8.97 48.146 0.067 6.66 5.46 11.17
5/2/2022 3:15:00 AM 8.97 48.146 0.067 6.66 4.76 11.16
5/2/2022 3:30:00 AM 8.96 48.128 0.067 6.66 5.47 11.16
5/2/2022 3:45:00 AM 8.96 48.128 0.067 6.65 5.16 11.16
5/2/2022 4:00:00 AM 8.96 48.128 0.067 6.65 3.17 11.16
5/2/2022 4:15:00 AM 8.95 48.11 0.067 6.65 2.8 11.17
5/2/2022 4:30:00 AM 8.95 48.11 0.067 6.65 2.64 11.17
5/2/2022 4:45:00 AM 8.95 48.11 0.067 6.65 2.61 11.17
5/2/2022 5:00:00 AM 8.94 48.092 0.067 6.64 2.5 11.17
5/2/2022 5:15:00 AM 8.94 48.092 0.067 6.65 2.48 11.18
5/2/2022 5:30:00 AM 8.95 48.11 0.067 6.65 2.44 11.17
5/2/2022 5:45:00 AM 8.94 48.092 0.067 6.65 2.52 11.18
5/2/2022 6:00:00 AM 8.94 48.092 0.067 6.64 2.56 11.18
5/2/2022 6:15:00 AM 8.93 48.074 0.067 6.64 2.53 11.18
5/2/2022 6:30:00 AM 8.93 48.074 0.067 6.65 2.5 11.2
5/2/2022 6:45:00 AM 8.93 48.074 0.067 6.64 2.47 11.2
5/2/2022 7:00:00 AM 8.94 48.092 0.067 6.64 2.34 11.21
5/2/2022 7:15:00 AM 8.95 48.11 0.067 6.65 2.29 11.23
5/2/2022 7:30:00 AM 8.96 48.128 0.067 6.66 2.35 11.26
5/2/2022 7:45:00 AM 9 48.2 0.067 6.67 2.28 11.3
5/2/2022 8:00:00 AM 9.07 48.326 0.067 6.68 2.26 11.32
5/2/2022 8:15:00 AM 9.09 48.362 0.067 6.69 2.28 11.32
5/2/2022 8:30:00 AM 9.16 48.488 0.067 6.69 2.25 11.32
5/2/2022 8:45:00 AM 9.2 48.56 0.067 6.7 2.29 11.32
5/2/2022 9:00:00 AM 9.34 48.812 0.067 6.7 2.23 11.32
5/2/2022 9:15:00 AM 9.43 48.974 0.067 6.71 2.24 11.3
5/2/2022 9:30:00 AM 9.5 49.1 0.067 6.72 2.14 11.29
5/2/2022 9:45:00 AM 9.54 49.172 0.066 6.73 2.18 11.25
5/2/2022 10:00:00 AM 9.53 49.154 0.066 6.73 2.16 11.21
5/2/2022 10:15:00 AM 9.55 49.19 0.066 6.72 2.12 11.17
5/2/2022 10:30:00 AM 9.57 49.226 0.066 6.72 2.18 11.16
5/2/2022 10:45:00 AM 9.59 49.262 0.066 6.72 2.14 11.17
5/2/2022 11:00:00 AM 9.63 49.334 0.066 6.73 2.14 11.18
5/2/2022 11:15:00 AM 9.73 49.514 0.066 6.73 2.13 11.19
5/2/2022 11:30:00 AM 9.86 49.748 0.066 6.75 2.16 11.21
5/2/2022 11:45:00 AM 9.99 49.982 0.066 6.75 2.15 11.2
5/2/2022 12:00:00 PM 10.25 50.45 0.066 6.75 2.12 11.19
5/2/2022 12:15:00 PM 10.56 51.008 0.066 6.76 2.12 11.14
5/2/2022 12:30:00 PM 10.69 51.242 0.066 6.75 2.11 11.09
5/2/2022 12:45:00 PM 10.73 51.314 0.066 6.76 2.13 11.05
5/2/2022 1:00:00 PM 10.78 51.404 0.066 6.76 2.1 11
5/2/2022 1:15:00 PM 10.78 51.404 0.066 6.75 2.08 10.99
5/2/2022 1:30:00 PM 10.76 51.368 0.065 6.75 2.08 10.99
5/2/2022 1:45:00 PM 10.81 51.458 0.065 6.76 2.12 10.98
5/2/2022 2:00:00 PM 10.84 51.512 0.065 6.76 2.08 10.96
5/2/2022 2:15:00 PM 10.9 51.62 0.065 6.76 2.04 10.95
5/2/2022 2:30:00 PM 10.94 51.692 0.065 6.76 2.07 10.95
5/2/2022 2:45:00 PM 10.96 51.728 0.065 6.76 2.08 10.94
5/2/2022 3:00:00 PM 10.95 51.71 0.065 6.76 2.07 10.93
5/2/2022 3:15:00 PM 11.03 51.854 0.065 6.76 2.07 10.93
5/2/2022 3:30:00 PM 11.09 51.962 0.065 6.76 2.09 10.92
5/2/2022 3:45:00 PM 11.12 52.016 0.065 6.76 2.06 10.9
5/2/2022 4:00:00 PM 11.17 52.106 0.065 6.76 2.06 10.9
5/2/2022 4:15:00 PM 11.18 52.124 0.065 6.76 2.08 10.88
5/2/2022 4:30:00 PM 11.19 52.142 0.065 6.76 2.08 10.87
5/2/2022 4:45:00 PM 11.17 52.106 0.065 6.75 2.1 10.86
5/2/2022 5:00:00 PM 11.15 52.07 0.065 6.75 2.13 10.85
5/2/2022 5:15:00 PM 11.12 52.016 0.065 6.76 2.12 10.85
5/2/2022 5:30:00 PM 11.07 51.926 0.065 6.75 2.02 10.83
5/2/2022 5:45:00 PM 11.03 51.854 0.065 6.75 2.04 10.83
5/2/2022 6:00:00 PM 10.99 51.782 0.065 6.74 2.1 10.83
5/2/2022 6:15:00 PM 10.95 51.71 0.065 6.74 2.06 10.83
5/2/2022 6:30:00 PM 10.91 51.638 0.065 6.74 2.07 10.83
5/2/2022 6:45:00 PM 10.87 51.566 0.065 6.73 2.08 10.84
5/2/2022 7:00:00 PM 10.83 51.494 0.065 6.73 2.08 10.84
5/2/2022 7:15:00 PM 10.78 51.404 0.065 6.73 2.1 10.84
5/2/2022 7:30:00 PM 10.73 51.314 0.065 6.73 2.05 10.83
5/2/2022 7:45:00 PM 10.68 51.224 0.065 6.72 2.04 10.83
5/2/2022 8:00:00 PM 10.61 51.098 0.065 6.72 2.09 10.83
5/2/2022 8:15:00 PM 10.53 50.954 0.065 6.7 2.08 10.82
5/2/2022 8:30:00 PM 10.45 50.81 0.065 6.7 2.11 10.82
5/2/2022 8:45:00 PM 10.37 50.666 0.065 6.69 2.12 10.83
5/2/2022 9:00:00 PM 10.28 50.504 0.065 6.69 2.19 10.84
5/2/2022 9:15:00 PM 10.2 50.36 0.065 6.68 2.38 10.86
5/2/2022 9:30:00 PM 10.12 50.216 0.065 6.68 2.2 10.87
5/2/2022 9:45:00 PM 10.04 50.072 0.065 6.68 2.19 10.9
5/2/2022 10:00:00 PM 9.96 49.928 0.065 6.69 2.19 10.92
5/2/2022 10:15:00 PM 9.88 49.784 0.065 6.68 2.29 10.94
5/2/2022 10:30:00 PM 9.8 49.64 0.065 6.68 2.2 10.96
5/2/2022 10:45:00 PM 9.72 49.496 0.065 6.67 2.18 10.98
5/2/2022 11:00:00 PM 9.64 49.352 0.065 6.68 2.21 11
5/2/2022 11:15:00 PM 9.56 49.208 0.065 6.68 2.23 11.02
5/2/2022 11:30:00 PM 9.48 49.064 0.065 6.68 2.17 11.05
5/2/2022 11:45:00 PM 9.4 48.92 0.065 6.67 2.19 11.06
5/3/2022 12:00:00 AM 9.33 48.794 0.065 6.67 2.19 11.09
5/3/2022 12:15:00 AM 9.25 48.65 0.065 6.67 2.18 11.11
5/3/2022 12:30:00 AM 9.18 48.524 0.065 6.67 2.24 11.13
5/3/2022 12:45:00 AM 9.1 48.38 0.065 6.67 2.19 11.15
5/3/2022 1:00:00 AM 9.03 48.254 0.065 6.67 2.2 11.17
5/3/2022 1:15:00 AM 8.95 48.11 0.065 6.67 2.2 11.19
5/3/2022 1:30:00 AM 8.87 47.966 0.065 6.67 2.19 11.21
5/3/2022 1:45:00 AM 8.8 47.84 0.065 6.66 2.16 11.23
5/3/2022 2:00:00 AM 8.73 47.714 0.065 6.66 2.19 11.25
5/3/2022 2:15:00 AM 8.66 47.588 0.065 6.66 2.19 11.27
5/3/2022 2:30:00 AM 8.59 47.462 0.065 6.67 2.23 11.29
5/3/2022 2:45:00 AM 8.52 47.336 0.065 6.66 2.16 11.31
5/3/2022 3:00:00 AM 8.46 47.228 0.065 6.66 2.17 11.33
5/3/2022 3:15:00 AM 8.38 47.084 0.065 6.65 2.18 11.34
5/3/2022 3:30:00 AM 8.32 46.976 0.065 6.66 2.18 11.36
5/3/2022 3:45:00 AM 8.26 46.868 0.065 6.66 2.16 11.38
5/3/2022 4:00:00 AM 8.22 46.796 0.065 6.66 2.22 11.4
5/3/2022 4:15:00 AM 8.18 46.724 0.065 6.66 2.17 11.42
5/3/2022 4:30:00 AM 8.14 46.652 0.065 6.66 2.12 11.43
5/3/2022 4:45:00 AM 8.1 46.58 0.065 6.65 2.13 11.45
5/3/2022 5:00:00 AM 8.06 46.508 0.065 6.66 5.3 11.46
5/3/2022 5:15:00 AM 8.03 46.454 0.065 6.66 2.57 11.47
5/3/2022 5:30:00 AM 8 46.4 0.065 6.66 2.17 11.48
5/3/2022 5:45:00 AM 7.98 46.364 0.065 6.66 2.14 11.48
5/3/2022 6:00:00 AM 7.95 46.31 0.065 6.66 2.1 11.5
5/3/2022 6:15:00 AM 7.92 46.256 0.065 6.66 2.06 11.51
5/3/2022 6:30:00 AM 7.9 46.22 0.065 6.66 2.08 11.53
5/3/2022 6:45:00 AM 7.89 46.202 0.065 6.67 2.09 11.55
5/3/2022 7:00:00 AM 7.88 46.184 0.065 6.67 2.06 11.57
5/3/2022 7:15:00 AM 7.87 46.166 0.065 6.68 2.04 11.6
5/3/2022 7:30:00 AM 7.87 46.166 0.065 6.68 2.01 11.62
5/3/2022 7:45:00 AM 7.87 46.166 0.065 6.69 2.02 11.63
5/3/2022 8:00:00 AM 7.88 46.184 0.065 6.69 2.01 11.65
5/3/2022 8:15:00 AM 7.96 46.328 0.065 6.69 2.02 11.69
5/3/2022 8:30:00 AM 8 46.4 0.065 6.71 2.04 11.7
5/3/2022 8:45:00 AM 8.05 46.49 0.065 6.71 2.04 11.71
5/3/2022 9:00:00 AM 8.08 46.544 0.065 6.71 2.02 11.7
5/3/2022 9:15:00 AM 8.15 46.67 0.065 6.72 2.04 11.7
5/3/2022 9:30:00 AM 8.27 46.886 0.065 6.72 2.05 11.69
5/3/2022 9:45:00 AM 8.36 47.048 0.065 6.72 2.06 11.67
5/3/2022 10:00:00 AM 8.45 47.21 0.065 6.72 2.05 11.65
5/3/2022 10:15:00 AM 8.57 47.426 0.065 6.73 2.04 11.62
5/3/2022 10:30:00 AM 8.76 47.768 0.065 6.73 2.01 11.59
5/3/2022 10:45:00 AM 8.88 47.984 0.065 6.73 1.99 11.56
5/3/2022 11:00:00 AM 8.99 48.182 0.065 6.74 2 11.52
5/3/2022 11:15:00 AM 9.19 48.542 0.065 6.74 1.98 11.49
5/3/2022 11:30:00 AM 9.34 48.812 0.065 6.75 1.98 11.45
5/3/2022 11:45:00 AM 9.48 49.064 0.065 6.75 1.96 11.4
5/3/2022 12:00:00 PM 9.65 49.37 0.065 6.75 1.96 11.36
5/3/2022 12:15:00 PM 9.79 49.622 0.065 6.76 1.94 11.33
5/3/2022 12:30:00 PM 9.89 49.802 0.065 6.76 1.98 11.29
5/3/2022 12:45:00 PM 10.02 50.036 0.065 6.76 1.95 11.25
5/3/2022 1:00:00 PM 10.15 50.27 0.065 6.76 1.93 11.21
5/3/2022 1:15:00 PM 10.25 50.45 0.065 6.76 1.95 11.18
5/3/2022 1:30:00 PM 10.25 50.45 0.065 6.76 1.97 11.13
5/3/2022 1:45:00 PM 10.29 50.522 0.065 6.76 1.95 11.1
5/3/2022 2:00:00 PM 10.41 50.738 0.065 6.76 1.98 11.09
5/3/2022 2:15:00 PM 10.48 50.864 0.065 6.76 2.03 11.08
5/3/2022 2:30:00 PM 10.49 50.882 0.065 6.76 1.96 11.06
5/3/2022 2:45:00 PM 10.55 50.99 0.065 6.76 1.98 11.04
5/3/2022 3:00:00 PM 10.62 51.116 0.065 6.76 1.96 11.02
5/3/2022 3:15:00 PM 10.68 51.224 0.065 6.77 2.02 11.01
5/3/2022 3:30:00 PM 10.72 51.296 0.065 6.76 2 10.99
5/3/2022 3:45:00 PM 10.81 51.458 0.065 6.76 1.95 10.97
5/3/2022 4:00:00 PM 10.88 51.584 0.065 6.76 2.02 10.95
5/3/2022 4:15:00 PM 10.9 51.62 0.065 6.76 1.97 10.93
5/3/2022 4:30:00 PM 10.92 51.656 0.065 6.76 1.96 10.91
5/3/2022 4:45:00 PM 10.95 51.71 0.065 6.76 1.97 10.89
5/3/2022 5:00:00 PM 11.05 51.89 0.065 6.77 1.99 10.89
5/3/2022 5:15:00 PM 11.13 52.034 0.065 6.77 2.01 10.87
5/3/2022 5:30:00 PM 11.16 52.088 0.065 6.77 1.99 10.86
5/3/2022 5:45:00 PM 11.19 52.142 0.065 6.77 1.99 10.84
5/3/2022 6:00:00 PM 11.25 52.25 0.065 6.77 1.98 10.82
5/3/2022 6:15:00 PM 11.29 52.322 0.065 6.77 1.97 10.8
5/3/2022 6:30:00 PM 11.31 52.358 0.065 6.76 1.98 10.77
5/3/2022 6:45:00 PM 11.31 52.358 0.065 6.76 2.02 10.75
5/3/2022 7:00:00 PM 11.29 52.322 0.065 6.76 1.95 10.72
5/3/2022 7:15:00 PM 11.28 52.304 0.065 6.75 1.98 10.69
5/3/2022 7:30:00 PM 11.26 52.268 0.065 6.75 1.98 10.63
5/3/2022 7:45:00 PM 11.24 52.232 0.065 6.74 2.02 10.61
5/3/2022 8:00:00 PM 11.2 52.16 0.065 6.73 2.08 10.6
5/3/2022 8:15:00 PM 11.16 52.088 0.065 6.73 2.17 10.61
5/3/2022 8:30:00 PM 11.12 52.016 0.065 6.72 2.3 10.61
5/3/2022 8:45:00 PM 11.06 51.908 0.065 6.71 2.25 10.62
5/3/2022 9:00:00 PM 11 51.8 0.065 6.71 2.3 10.62
5/3/2022 9:15:00 PM 10.97 51.746 0.065 6.7 2.26 10.63
5/3/2022 9:30:00 PM 10.96 51.728 0.065 6.71 2.23 10.63
5/3/2022 9:45:00 PM 10.93 51.674 0.065 6.71 2.3 10.63
5/3/2022 10:00:00 PM 10.9 51.62 0.065 6.7 2.33 10.64
5/3/2022 10:15:00 PM 10.88 51.584 0.065 6.71 2.44 10.65
5/3/2022 10:30:00 PM 10.86 51.548 0.064 6.7 2.53 10.66
5/3/2022 10:45:00 PM 10.83 51.494 0.064 6.7 2.54 10.66
5/3/2022 11:00:00 PM 10.82 51.476 0.064 6.7 2.69 10.67
5/3/2022 11:15:00 PM 10.81 51.458 0.064 6.69 2.82 10.66
5/3/2022 11:30:00 PM 10.78 51.404 0.064 6.7 2.91 10.67
5/3/2022 11:45:00 PM 10.75 51.35 0.064 6.7 2.97 10.67
5/4/2022 12:00:00 AM 10.73 51.314 0.064 6.71 3.2 10.68
5/4/2022 12:15:00 AM 10.71 51.278 0.064 6.72 3.33 10.68
5/4/2022 12:30:00 AM 10.7 51.26 0.064 6.72 3.66 10.68
5/4/2022 12:45:00 AM 10.68 51.224 0.064 6.72 4.33 10.69
5/4/2022 1:00:00 AM 10.66 51.188 0.065 6.72 4.82 10.69
5/4/2022 1:15:00 AM 10.64 51.152 0.065 6.72 4.79 10.7
5/4/2022 1:30:00 AM 10.62 51.116 0.065 6.73 4.77 10.72
5/4/2022 1:45:00 AM 10.59 51.062 0.065 6.73 5.03 10.72
5/4/2022 2:00:00 AM 10.57 51.026 0.065 6.73 4.87 10.73
5/4/2022 2:15:00 AM 10.54 50.972 0.066 6.73 4.74 10.74
5/4/2022 2:30:00 AM 10.52 50.936 0.066 6.71 4.64 10.74
5/4/2022 2:45:00 AM 10.5 50.9 0.066 6.7 4.54 10.74
5/4/2022 3:00:00 AM 10.49 50.882 0.067 6.7 120.7 10.75
5/4/2022 3:15:00 AM 10.48 50.864 0.067 6.69 20.35 10.76
5/4/2022 3:30:00 AM 10.47 50.846 0.068 6.69 6.41 10.76
5/4/2022 3:45:00 AM 10.47 50.846 0.068 6.68 4.37 10.76
5/4/2022 4:00:00 AM 10.46 50.828 0.068 6.68 4.14 10.76
5/4/2022 4:15:00 AM 10.45 50.81 0.069 6.68 4.15 10.77
5/4/2022 4:30:00 AM 10.44 50.792 0.069 6.68 4.09 10.77
5/4/2022 4:45:00 AM 10.42 50.756 0.069 6.67 3.91 10.77
5/4/2022 5:00:00 AM 10.41 50.738 0.069 6.67 3.87 10.77
5/4/2022 5:15:00 AM 10.41 50.738 0.07 6.67 5.01 10.77
5/4/2022 5:30:00 AM 10.41 50.738 0.07 6.66 3.66 10.78
5/4/2022 5:45:00 AM 10.4 50.72 0.07 6.66 3.46 10.78
5/4/2022 6:00:00 AM 10.38 50.684 0.07 6.65 3.41 10.78
5/4/2022 6:15:00 AM 10.38 50.684 0.07 6.65 3.33 10.78
5/4/2022 6:30:00 AM 10.38 50.684 0.07 6.65 3.18 10.79
5/4/2022 6:45:00 AM 10.37 50.666 0.069 6.66 3.17 10.79
5/4/2022 7:00:00 AM 10.37 50.666 0.069 6.65 3.08 10.8
5/4/2022 7:15:00 AM 10.36 50.648 0.069 6.66 3.02 10.81
5/4/2022 7:30:00 AM 10.37 50.666 0.069 6.66 2.97 10.83
5/4/2022 7:45:00 AM 10.4 50.72 0.069 6.67 3.02 10.86
5/4/2022 8:00:00 AM 10.41 50.738 0.069 6.68 2.91 10.87
5/4/2022 8:15:00 AM 10.42 50.756 0.069 6.68 2.86 10.87
5/4/2022 8:30:00 AM 10.44 50.792 0.068 6.69 2.9 10.88
5/4/2022 8:45:00 AM 10.48 50.864 0.068 6.69 2.86 10.9
5/4/2022 9:00:00 AM 10.52 50.936 0.068 6.71 2.8 10.91
5/4/2022 9:15:00 AM 10.57 51.026 0.068 6.71 2.81 10.91
5/4/2022 9:30:00 AM 10.57 51.026 0.068 6.71 2.76 10.89
5/4/2022 9:45:00 AM 10.57 51.026 0.068 6.7 2.74 10.88
5/4/2022 10:00:00 AM 10.58 51.044 0.068 6.7 2.79 10.88
5/4/2022 10:15:00 AM 10.63 51.134 0.067 6.7 3.11 10.88
5/4/2022 10:30:00 AM 10.66 51.188 0.067 6.71 2.94 10.88
5/4/2022 10:45:00 AM 10.71 51.278 0.067 6.71 3.03 10.89
5/4/2022 11:00:00 AM 10.78 51.404 0.067 6.71 2.9 10.9
5/4/2022 11:15:00 AM 11.02 51.836 0.067 6.72 2.96 10.91
5/4/2022 11:30:00 AM 11.21 52.178 0.067 6.72 2.92 10.89
5/4/2022 11:45:00 AM 11.36 52.448 0.067 6.73 3.12 10.83
5/4/2022 12:00:00 PM 11.44 52.592 0.067 6.73 3.1 10.76
5/4/2022 12:15:00 PM 11.49 52.682 0.067 6.72 3.39 10.76
5/4/2022 12:30:00 PM 11.77 53.186 0.067 6.73 3.49 10.76
5/4/2022 12:45:00 PM 12.04 53.672 0.067 6.74 3.5 10.71
5/4/2022 1:00:00 PM 12.34 54.212 0.066 6.75 3.62 10.64
5/4/2022 1:15:00 PM 12.37 54.266 0.066 6.75 3.86 10.58
5/4/2022 1:30:00 PM 12.4 54.32 0.066 6.74 4.12 10.54
5/4/2022 1:45:00 PM 12.32 54.176 0.066 6.74 4.3 10.52
5/4/2022 2:00:00 PM 12.32 54.176 0.065 6.73 4.64 10.5
5/4/2022 2:15:00 PM 12.35 54.23 0.065 6.73 4.56 10.52
5/4/2022 2:30:00 PM 12.39 54.302 0.065 6.74 4.69 10.54
5/4/2022 2:45:00 PM 12.38 54.284 0.065 6.74 4.91 10.53
5/4/2022 3:00:00 PM 12.37 54.266 0.064 6.73 5.03 10.52
5/4/2022 3:15:00 PM 12.37 54.266 0.064 6.73 4.99 10.54
5/4/2022 3:30:00 PM 12.33 54.194 0.064 6.71 4.76 10.52
5/4/2022 3:45:00 PM 12.31 54.158 0.065 6.71 4.6 10.52
5/4/2022 4:00:00 PM 12.28 54.104 0.065 6.71 4.41 10.52
5/4/2022 4:15:00 PM 12.23 54.014 0.065 6.71 4.28 10.52
5/4/2022 4:30:00 PM 12.22 53.996 0.065 6.71 4.03 10.54
5/4/2022 4:45:00 PM 12.22 53.996 0.065 6.71 3.87 10.56
5/4/2022 5:00:00 PM 12.19 53.942 0.065 6.7 3.7 10.56
5/4/2022 5:15:00 PM 12.16 53.888 0.065 6.7 3.6 10.55
5/4/2022 5:30:00 PM 12.12 53.816 0.064 6.7 3.55 10.55
5/4/2022 5:45:00 PM 12.06 53.708 0.064 6.69 3.5 10.54
5/4/2022 6:00:00 PM 12.02 53.636 0.064 6.68 3.4 10.54
5/4/2022 6:15:00 PM 11.97 53.546 0.064 6.68 3.34 10.54
5/4/2022 6:30:00 PM 11.92 53.456 0.064 6.67 3.33 10.54
5/4/2022 6:45:00 PM 11.87 53.366 0.064 6.68 3.13 10.54
5/4/2022 7:00:00 PM 11.82 53.276 0.064 6.68 3.15 10.55
5/4/2022 7:15:00 PM 11.77 53.186 0.064 6.67 3.13 10.56
5/4/2022 7:30:00 PM 11.71 53.078 0.064 6.66 3.14 10.57
5/4/2022 7:45:00 PM 11.66 52.988 0.064 6.66 3.13 10.57
5/4/2022 8:00:00 PM 11.61 52.898 0.064 6.66 3.06 10.57
5/4/2022 8:15:00 PM 11.55 52.79 0.064 6.65 3.09 10.58
5/4/2022 8:30:00 PM 11.5 52.7 0.064 6.65 3.1 10.58
5/4/2022 8:45:00 PM 11.45 52.61 0.064 6.65 3.15 10.59
5/4/2022 9:00:00 PM 11.4 52.52 0.064 6.64 3.19 10.6
5/4/2022 9:15:00 PM 11.35 52.43 0.064 6.65 3.19 10.62
5/4/2022 9:30:00 PM 11.3 52.34 0.064 6.64 3.18 10.63
5/4/2022 9:45:00 PM 11.25 52.25 0.063 6.64 3.12 10.65
5/4/2022 10:00:00 PM 11.21 52.178 0.063 6.64 3.11 10.66
5/4/2022 10:15:00 PM 11.16 52.088 0.063 6.64 3.05 10.67
5/4/2022 10:30:00 PM 11.12 52.016 0.063 6.63 2.87 10.68
5/4/2022 10:45:00 PM 11.08 51.944 0.063 6.63 2.87 10.69
5/4/2022 11:00:00 PM 11.04 51.872 0.063 6.63 2.94 10.7
5/4/2022 11:15:00 PM 11 51.8 0.063 6.63 3 10.71
5/4/2022 11:30:00 PM 10.96 51.728 0.063 6.63 3.14 10.72
5/4/2022 11:45:00 PM 10.93 51.674 0.063 6.62 2.98 10.73
5/5/2022 12:00:00 AM 10.89 51.602 0.063 6.63 2.96 10.74
5/5/2022 12:15:00 AM 10.86 51.548 0.063 6.62 2.89 10.75
5/5/2022 12:30:00 AM 10.82 51.476 0.063 6.62 2.93 10.77
5/5/2022 12:45:00 AM 10.79 51.422 0.063 6.62 2.94 10.77
5/5/2022 1:00:00 AM 10.75 51.35 0.063 6.62 2.9 10.78
5/5/2022 1:15:00 AM 10.72 51.296 0.063 6.62 2.87 10.79
5/5/2022 1:30:00 AM 10.69 51.242 0.063 6.62 2.87 10.79
5/5/2022 1:45:00 AM 10.65 51.17 0.063 6.62 2.88 10.81
5/5/2022 2:00:00 AM 10.62 51.116 0.063 6.62 2.91 10.81
5/5/2022 2:15:00 AM 10.57 51.026 0.063 6.62 2.82 10.82
5/5/2022 2:30:00 AM 10.51 50.918 0.063 6.61 2.9 10.84
5/5/2022 2:45:00 AM 10.46 50.828 0.062 6.62 2.85 10.85
5/5/2022 3:00:00 AM 10.42 50.756 0.062 6.63 2.78 10.86
5/5/2022 3:15:00 AM 10.35 50.63 0.062 6.63 2.94 10.87
5/5/2022 3:30:00 AM 10.29 50.522 0.062 6.62 2.81 10.88
5/5/2022 3:45:00 AM 10.22 50.396 0.062 6.62 2.8 10.9
5/5/2022 4:00:00 AM 10.15 50.27 0.062 6.61 2.77 10.92
5/5/2022 4:15:00 AM 10.08 50.144 0.062 6.62 2.85 10.93
5/5/2022 4:30:00 AM 10.01 50.018 0.062 6.62 2.71 10.95
5/5/2022 4:45:00 AM 9.94 49.892 0.062 6.62 2.8 10.97
5/5/2022 5:00:00 AM 9.87 49.766 0.062 6.62 2.76 10.99
5/5/2022 5:15:00 AM 9.81 49.658 0.062 6.62 2.75 11.01
5/5/2022 5:30:00 AM 9.74 49.532 0.062 6.63 2.7 11.02
5/5/2022 5:45:00 AM 9.67 49.406 0.062 6.62 2.69 11.04
5/5/2022 6:00:00 AM 9.6 49.28 0.062 6.63 2.67 11.06
5/5/2022 6:15:00 AM 9.55 49.19 0.062 6.62 2.6 11.08
5/5/2022 6:30:00 AM 9.5 49.1 0.062 6.63 2.56 11.11
5/5/2022 6:45:00 AM 9.46 49.028 0.062 6.63 2.55 11.14
5/5/2022 7:00:00 AM 9.42 48.956 0.062 6.64 2.56 11.17
5/5/2022 7:15:00 AM 9.39 48.902 0.062 6.65 2.53 11.21
5/5/2022 7:30:00 AM 9.38 48.884 0.062 6.65 2.57 11.25
5/5/2022 7:45:00 AM 9.38 48.884 0.061 6.66 2.47 11.27
5/5/2022 8:00:00 AM 9.4 48.92 0.061 6.66 2.54 11.29
5/5/2022 8:15:00 AM 9.44 48.992 0.061 6.67 2.43 11.31
5/5/2022 8:30:00 AM 9.49 49.082 0.061 6.68 2.51 11.31
5/5/2022 8:45:00 AM 9.56 49.208 0.061 6.68 2.44 11.31
5/5/2022 9:00:00 AM 9.62 49.316 0.061 6.7 2.39 11.31
5/5/2022 9:15:00 AM 9.7 49.46 0.061 6.7 2.38 11.31
5/5/2022 9:30:00 AM 9.84 49.712 0.061 6.7 2.37 11.3
5/5/2022 9:45:00 AM 9.98 49.964 0.061 6.7 2.42 11.27
5/5/2022 10:00:00 AM 10.11 50.198 0.061 6.71 2.36 11.24
5/5/2022 10:15:00 AM 10.25 50.45 0.061 6.72 2.38 11.21
5/5/2022 10:30:00 AM 10.4 50.72 0.061 6.72 2.33 11.18
5/5/2022 10:45:00 AM 10.55 50.99 0.061 6.71 2.38 11.15
5/5/2022 11:00:00 AM 10.72 51.296 0.061 6.72 2.29 11.12
5/5/2022 11:15:00 AM 10.92 51.656 0.061 6.72 2.29 11.07
5/5/2022 11:30:00 AM 11.1 51.98 0.061 6.73 2.39 11.03
5/5/2022 11:45:00 AM 11.3 52.34 0.061 6.72 2.33 10.98
5/5/2022 12:00:00 PM 11.53 52.754 0.061 6.73 2.31 10.92
5/5/2022 12:15:00 PM 11.75 53.15 0.061 6.73 2.32 10.88
5/5/2022 12:30:00 PM 12.01 53.618 0.061 6.73 2.33 10.82
5/5/2022 12:45:00 PM 12.19 53.942 0.061 6.74 2.32 10.77
5/5/2022 1:00:00 PM 12.37 54.266 0.06 6.74 2.3 10.72
5/5/2022 1:15:00 PM 12.55 54.59 0.06 6.74 2.3 10.68
5/5/2022 1:30:00 PM 12.74 54.932 0.06 6.74 2.3 10.63
5/5/2022 1:45:00 PM 12.93 55.274 0.06 6.74 2.32 10.58
5/5/2022 2:00:00 PM 13.11 55.598 0.06 6.75 2.3 10.53
5/5/2022 2:15:00 PM 13.18 55.724 0.06 6.75 2.35 10.49
5/5/2022 2:30:00 PM 13.3 55.94 0.06 6.75 2.35 10.45
5/5/2022 2:45:00 PM 13.49 56.282 0.06 6.74 2.35 10.41
5/5/2022 3:00:00 PM 13.57 56.426 0.06 6.75 2.36 10.37
5/5/2022 3:15:00 PM 13.6 56.48 0.06 6.75 2.33 10.34
5/5/2022 3:30:00 PM 13.74 56.732 0.061 6.75 2.37 10.31
5/5/2022 3:45:00 PM 13.79 56.822 0.06 6.75 2.35 10.29
5/5/2022 4:00:00 PM 13.77 56.786 0.06 6.75 2.39 10.28
5/5/2022 4:15:00 PM 13.82 56.876 0.06 6.75 2.45 10.26
5/5/2022 4:30:00 PM 13.82 56.876 0.06 6.75 2.31 10.24
5/5/2022 4:45:00 PM 13.83 56.894 0.06 6.75 2.35 10.23
5/5/2022 5:00:00 PM 13.78 56.804 0.06 6.75 2.32 10.22
5/5/2022 5:15:00 PM 13.75 56.75 0.06 6.75 2.38 10.22
5/5/2022 5:30:00 PM 13.7 56.66 0.06 6.75 2.27 10.22
5/5/2022 5:45:00 PM 13.66 56.588 0.06 6.75 2.38 10.22
5/5/2022 6:00:00 PM 13.61 56.498 0.06 6.74 2.33 10.23
5/5/2022 6:15:00 PM 13.54 56.372 0.06 6.74 2.35 10.23
5/5/2022 6:30:00 PM 13.46 56.228 0.06 6.74 2.4 10.23
5/5/2022 6:45:00 PM 13.37 56.066 0.06 6.73 2.39 10.23
5/5/2022 7:00:00 PM 13.27 55.886 0.06 6.73 2.41 10.24
5/5/2022 7:15:00 PM 13.15 55.67 0.06 6.73 2.36 10.24
5/5/2022 7:30:00 PM 13.04 55.472 0.06 6.72 2.38 10.24
5/5/2022 7:45:00 PM 12.94 55.292 0.06 6.71 2.31 10.24
5/5/2022 8:00:00 PM 12.83 55.094 0.06 6.7 2.37 10.24
5/5/2022 8:15:00 PM 12.74 54.932 0.06 6.69 2.66 10.25
5/5/2022 8:30:00 PM 12.64 54.752 0.06 6.68 2.78 10.26
5/5/2022 8:45:00 PM 12.55 54.59 0.06 6.67 2.6 10.28
5/5/2022 9:00:00 PM 12.45 54.41 0.06 6.67 2.61 10.29
5/5/2022 9:15:00 PM 12.36 54.248 0.06 6.66 2.66 10.31
5/5/2022 9:30:00 PM 12.28 54.104 0.06 6.66 2.67 10.33
5/5/2022 9:45:00 PM 12.2 53.96 0.06 6.66 2.72 10.34
5/5/2022 10:00:00 PM 12.13 53.834 0.06 6.66 2.68 10.36
5/5/2022 10:15:00 PM 12.05 53.69 0.06 6.67 2.62 10.38
5/5/2022 10:30:00 PM 11.99 53.582 0.06 6.66 2.7 10.4
5/5/2022 10:45:00 PM 11.92 53.456 0.06 6.66 2.71 10.42
5/5/2022 11:00:00 PM 11.86 53.348 0.06 6.66 2.69 10.43
5/5/2022 11:15:00 PM 11.8 53.24 0.06 6.65 2.62 10.44
5/5/2022 11:30:00 PM 11.75 53.15 0.06 6.66 2.71 10.46
5/5/2022 11:45:00 PM 11.69 53.042 0.06 6.65 2.68 10.47
5/6/2022 12:00:00 AM 11.64 52.952 0.06 6.65 2.6 10.49
5/6/2022 12:15:00 AM 11.59 52.862 0.06 6.65 2.68 10.49
5/6/2022 12:30:00 AM 11.54 52.772 0.06 6.65 2.65 10.5
5/6/2022 12:45:00 AM 11.49 52.682 0.06 6.65 2.64 10.52
5/6/2022 1:00:00 AM 11.45 52.61 0.06 6.66 2.58 10.53
5/6/2022 1:15:00 AM 11.4 52.52 0.06 6.66 2.67 10.55
5/6/2022 1:30:00 AM 11.36 52.448 0.06 6.66 2.7 10.56
5/6/2022 1:45:00 AM 11.31 52.358 0.06 6.66 2.62 10.57
5/6/2022 2:00:00 AM 11.27 52.286 0.06 6.67 2.67 10.58
5/6/2022 2:15:00 AM 11.22 52.196 0.06 6.68 2.67 10.6
5/6/2022 2:30:00 AM 11.18 52.124 0.06 6.68 2.69 10.6
5/6/2022 2:45:00 AM 11.14 52.052 0.06 6.68 2.66 10.62
5/6/2022 3:00:00 AM 11.09 51.962 0.06 6.67 2.7 10.62
5/6/2022 3:15:00 AM 11.06 51.908 0.06 6.68 2.73 10.64
5/6/2022 3:30:00 AM 11.01 51.818 0.059 6.68 2.79 10.65
5/6/2022 3:45:00 AM 10.98 51.764 0.059 6.68 2.75 10.65
5/6/2022 4:00:00 AM 10.94 51.692 0.059 6.67 2.92 10.66
5/6/2022 4:15:00 AM 10.91 51.638 0.059 6.67 3.06 10.66
5/6/2022 4:30:00 AM 10.87 51.566 0.059 6.67 3.33 10.67
5/6/2022 4:45:00 AM 10.84 51.512 0.059 6.67 2.89 10.68
5/6/2022 5:00:00 AM 10.81 51.458 0.059 6.67 2.85 10.69
5/6/2022 5:15:00 AM 10.77 51.386 0.059 6.67 2.83 10.7
5/6/2022 5:30:00 AM 10.74 51.332 0.059 6.67 2.9 10.7
5/6/2022 5:45:00 AM 10.71 51.278 0.059 6.67 2.9 10.71
5/6/2022 6:00:00 AM 10.68 51.224 0.059 6.67 2.92 10.72
5/6/2022 6:15:00 AM 10.65 51.17 0.059 6.67 3 10.73
5/6/2022 6:30:00 AM 10.62 51.116 0.059 6.67 3.12 10.75
5/6/2022 6:45:00 AM 10.6 51.08 0.059 6.67 2.99 10.76
5/6/2022 7:00:00 AM 10.57 51.026 0.059 6.68 3.02 10.77
5/6/2022 7:15:00 AM 10.55 50.99 0.059 6.68 3 10.79
5/6/2022 7:30:00 AM 10.53 50.954 0.059 6.68 2.87 10.8
5/6/2022 7:45:00 AM 10.52 50.936 0.059 6.68 2.99 10.81
5/6/2022 8:00:00 AM 10.5 50.9 0.06 6.68 2.92 10.82
5/6/2022 8:15:00 AM 10.49 50.882 0.06 6.69 2.96 10.83
5/6/2022 8:30:00 AM 10.48 50.864 0.06 6.69 2.93 10.84
5/6/2022 8:45:00 AM 10.47 50.846 0.06 6.69 2.98 10.84
5/6/2022 9:00:00 AM 10.46 50.828 0.06 6.69 2.98 10.84
5/6/2022 9:15:00 AM 10.45 50.81 0.06 6.69 3.13 10.85
5/6/2022 9:30:00 AM 10.44 50.792 0.06 6.7 3.17 10.86
5/6/2022 9:45:00 AM 10.43 50.774 0.06 6.7 3.23 10.87
5/6/2022 10:00:00 AM 10.43 50.774 0.059 6.7 3.28 10.88
5/6/2022 10:15:00 AM 10.42 50.756 0.059 6.7 3.34 10.89
5/6/2022 10:30:00 AM 10.43 50.774 0.059 6.7 3.48 10.9
5/6/2022 10:45:00 AM 10.43 50.774 0.059 6.71 3.6 10.91
5/6/2022 11:00:00 AM 10.43 50.774 0.059 6.7 3.95 10.91
5/6/2022 11:15:00 AM 10.44 50.792 0.059 6.72 4.42 10.91
5/6/2022 11:30:00 AM 10.45 50.81 0.059 6.71 5.45 10.91
5/6/2022 11:45:00 AM 10.46 50.828 0.059 6.71 6.13 10.92
5/6/2022 12:00:00 PM 10.46 50.828 0.059 6.71 7.16 10.91
5/6/2022 12:15:00 PM 10.46 50.828 0.059 6.71 8.11 10.9
5/6/2022 12:30:00 PM 10.47 50.846 0.059 6.71 9.91 10.9
5/6/2022 12:45:00 PM 10.49 50.882 0.059 6.71 11.48 10.9
5/6/2022 1:00:00 PM 10.49 50.882 0.059 6.71 14.14 10.88
5/6/2022 1:15:00 PM 10.49 50.882 0.059 6.72 17.59 10.88
5/6/2022 1:30:00 PM 10.49 50.882 0.059 6.73 20.85 10.88
5/6/2022 1:45:00 PM 10.5 50.9 0.059 6.7 25.68 10.88
5/6/2022 2:00:00 PM 10.5 50.9 0.059 6.7 29.53 10.87
5/6/2022 2:15:00 PM 10.5 50.9 0.059 6.67 33.89 10.87
5/6/2022 2:30:00 PM 10.49 50.882 0.06 6.69 38.23 10.87
5/6/2022 2:45:00 PM 10.49 50.882 0.06 6.63 47.35 10.87
5/6/2022 3:00:00 PM 10.48 50.864 0.061 6.6 47.76 10.87
5/6/2022 3:15:00 PM 10.47 50.846 0.061 6.57 49.17 10.87
5/6/2022 3:30:00 PM 10.46 50.828 0.061 6.55 52.4 10.87
5/6/2022 3:45:00 PM 10.45 50.81 0.061 6.51 52.56 10.88
5/6/2022 4:00:00 PM 10.45 50.81 0.061 6.52 51.83 10.88
5/6/2022 4:15:00 PM 10.44 50.792 0.06 6.54 56.7 10.88
5/6/2022 4:30:00 PM 10.44 50.792 0.06 6.53 89.72 10.88
5/6/2022 4:45:00 PM 10.44 50.792 0.059 6.53 59.23 10.88
5/6/2022 5:00:00 PM 10.44 50.792 0.059 6.48 47.69 10.88
5/6/2022 5:15:00 PM 10.43 50.774 0.058 6.48 43.52 10.88
5/6/2022 5:30:00 PM 10.42 50.756 0.057 6.46 40.19 10.88
5/6/2022 5:45:00 PM 10.4 50.72 0.056 6.44 39.01 10.88
5/6/2022 6:00:00 PM 10.38 50.684 0.056 6.44 48.98 10.88
5/6/2022 6:15:00 PM 10.36 50.648 0.055 6.46 33.8 10.88
5/6/2022 6:30:00 PM 10.34 50.612 0.055 6.45 29.93 10.88
5/6/2022 6:45:00 PM 10.32 50.576 0.054 6.45 27.37 10.89
5/6/2022 7:00:00 PM 10.3 50.54 0.052 6.44 38.15 10.89
5/6/2022 7:15:00 PM 10.28 50.504 0.053 6.45 25.78 10.89
5/6/2022 7:30:00 PM 10.26 50.468 0.053 6.43 22.93 10.89
5/6/2022 7:45:00 PM 10.23 50.414 0.053 6.44 22.09 10.9
5/6/2022 8:00:00 PM 10.21 50.378 0.053 6.46 20.81 10.9
5/6/2022 8:15:00 PM 10.18 50.324 0.052 6.46 19.9 10.9
5/6/2022 8:30:00 PM 10.16 50.288 0.052 6.46 19.01 10.91
5/6/2022 8:45:00 PM 10.13 50.234 0.052 6.48 34.94 10.92
5/6/2022 9:00:00 PM 10.1 50.18 0.052 6.47 25.96 10.93
5/6/2022 9:15:00 PM 10.08 50.144 0.052 6.47 18.56 10.93
5/6/2022 9:30:00 PM 10.05 50.09 0.052 6.47 17.34 10.94
5/6/2022 9:45:00 PM 10.02 50.036 0.052 6.47 16.81 10.95
5/6/2022 10:00:00 PM 10 50 0.052 6.47 16.4 10.96
5/6/2022 10:15:00 PM 9.97 49.946 0.052 6.47 22.43 10.97
5/6/2022 10:30:00 PM 9.94 49.892 0.052 6.48 16.77 10.98
5/6/2022 10:45:00 PM 9.92 49.856 0.052 6.47 16.24 10.98
5/6/2022 11:00:00 PM 9.89 49.802 0.052 6.48 16.34 10.99
5/6/2022 11:15:00 PM 9.86 49.748 0.051 6.5 16.51 10.99
5/6/2022 11:30:00 PM 9.84 49.712 0.051 6.49 16.93 11
5/6/2022 11:45:00 PM 9.81 49.658 0.051 6.48 17.82 11.01
5/7/2022 12:00:00 AM 9.78 49.604 0.051 6.49 19.32 11.01
5/7/2022 12:15:00 AM 9.75 49.55 0.051 6.47 19.6 11.02
5/7/2022 12:30:00 AM 9.72 49.496 0.051 6.48 20.09 11.02
5/7/2022 12:45:00 AM 9.7 49.46 0.051 6.48 20.74 11.03
5/7/2022 1:00:00 AM 9.67 49.406 0.051 6.48 21.07 11.04
5/7/2022 1:15:00 AM 9.65 49.37 0.051 6.48 21.85 11.05
5/7/2022 1:30:00 AM 9.62 49.316 0.051 6.47 22.16 11.05
5/7/2022 1:45:00 AM 9.6 49.28 0.05 6.45 22.41 11.05
5/7/2022 2:00:00 AM 9.58 49.244 0.05 6.46 44.38 11.06
5/7/2022 2:15:00 AM 9.56 49.208 0.05 6.48 25.47 11.06
5/7/2022 2:30:00 AM 9.54 49.172 0.05 6.47 25.1 11.07
5/7/2022 2:45:00 AM 9.52 49.136 0.05 6.48 22.18 11.07
5/7/2022 3:00:00 AM 9.5 49.1 0.05 6.47 26.39 11.08
5/7/2022 3:15:00 AM 9.49 49.082 0.05 6.46 21.37 11.08
5/7/2022 3:30:00 AM 9.47 49.046 0.048 6.51 127.09 11.08
5/7/2022 3:45:00 AM 9.46 49.028 0.049 6.46 72.07 11.09
5/7/2022 4:00:00 AM 9.44 48.992 0.049 6.46 28.6 11.09
5/7/2022 4:15:00 AM 9.42 48.956 0.049 6.46 39.74 11.1
5/7/2022 4:30:00 AM 9.41 48.938 0.049 6.47 20.67 11.1
5/7/2022 4:45:00 AM 9.4 48.92 0.049 6.47 67.68 11.1
5/7/2022 5:00:00 AM 9.38 48.884 0.049 6.48 40.18 11.11
5/7/2022 5:15:00 AM 9.37 48.866 0.049 6.47 19.84 11.11
5/7/2022 5:30:00 AM 9.35 48.83 0.047 6.45 50.71 11.12
5/7/2022 5:45:00 AM 9.34 48.812 0.047 6.46 56.04 11.12
5/7/2022 6:00:00 AM 9.32 48.776 0.048 6.48 20.58 11.13
5/7/2022 6:15:00 AM 9.31 48.758 0.048 6.48 15.65 11.14
5/7/2022 6:30:00 AM 9.29 48.722 0.048 6.48 14.77 11.14
5/7/2022 6:45:00 AM 9.28 48.704 0.048 6.47 14.68 11.15
5/7/2022 7:00:00 AM 9.26 48.668 0.048 6.48 14.36 11.16
5/7/2022 7:15:00 AM 9.25 48.65 0.048 6.5 14.15 11.17
5/7/2022 7:30:00 AM 9.23 48.614 0.048 6.48 14.03 11.18
5/7/2022 7:45:00 AM 9.22 48.596 0.048 6.49 13.73 11.19
5/7/2022 8:00:00 AM 9.21 48.578 0.048 6.48 13.71 11.2
5/7/2022 8:15:00 AM 9.2 48.56 0.048 6.5 13.48 11.2
5/7/2022 8:30:00 AM 9.2 48.56 0.047 6.51 13.59 11.21
5/7/2022 8:45:00 AM 9.19 48.542 0.047 6.5 13.53 11.22
5/7/2022 9:00:00 AM 9.2 48.56 0.047 6.52 88.95 11.23
5/7/2022 9:15:00 AM 9.2 48.56 0.047 6.5 61.24 11.23
5/7/2022 9:30:00 AM 9.2 48.56 0.047 6.48 20.31 11.23
5/7/2022 9:45:00 AM 9.21 48.578 0.047 6.5 14.28 11.24
5/7/2022 10:00:00 AM 9.21 48.578 0.047 6.51 13.32 11.24
5/7/2022 10:15:00 AM 9.22 48.596 0.047 6.51 13.13 11.25
5/7/2022 10:30:00 A